<gpx creator="Cyclotour.ca" version="1.1" xmlns:gpsies="http://www.gpsies.com/GPX/1/0" xmlns:xsi="http://www.w3.org/2001/XMLSchema-instance" xmlns="http://www.topografix.com/GPX/1/1" xsi:schemaLocation="http://www.topografix.com/GPX/1/1 http://www.topografix.com/GPX/1/1/gpx.xsd http://www.gpsies.com/GPX/1/0 http://www.gpsies.com/gpsies.xsd">
<trk>
<name>Saint-Étienne des Grès, 19 septembre 2021</name>
<trkseg>
<trkpt lat="46.439260000" lon="-72.772060000">
<ele>0</ele>
<time>2026-09-04T07:20:00Z</time>
</trkpt>
<trkpt lat="46.439760000" lon="-72.772620000">
<ele>0</ele>
<time>2026-09-04T07:20:01Z</time>
</trkpt>
<trkpt lat="46.440170000" lon="-72.773150000">
<ele>0</ele>
<time>2026-09-04T07:20:02Z</time>
</trkpt>
<trkpt lat="46.440560000" lon="-72.773670000">
<ele>0</ele>
<time>2026-09-04T07:20:04Z</time>
</trkpt>
<trkpt lat="46.441890000" lon="-72.775540000">
<ele>0</ele>
<time>2026-09-04T07:20:05Z</time>
</trkpt>
<trkpt lat="46.442300000" lon="-72.776170000">
<ele>0</ele>
<time>2026-09-04T07:20:06Z</time>
</trkpt>
<trkpt lat="46.442250000" lon="-72.776240000">
<ele>0</ele>
<time>2026-09-04T07:20:07Z</time>
</trkpt>
<trkpt lat="46.442250000" lon="-72.776240000">
<ele>0</ele>
<time>2026-09-04T07:20:08Z</time>
</trkpt>
<trkpt lat="46.441860000" lon="-72.776820000">
<ele>0</ele>
<time>2026-09-04T07:20:09Z</time>
</trkpt>
<trkpt lat="46.441140000" lon="-72.777840000">
<ele>0</ele>
<time>2026-09-04T07:20:10Z</time>
</trkpt>
<trkpt lat="46.440030000" lon="-72.779580000">
<ele>0</ele>
<time>2026-09-04T07:20:11Z</time>
</trkpt>
<trkpt lat="46.439410000" lon="-72.780530000">
<ele>0</ele>
<time>2026-09-04T07:20:12Z</time>
</trkpt>
<trkpt lat="46.438530000" lon="-72.781840000">
<ele>0</ele>
<time>2026-09-04T07:20:13Z</time>
</trkpt>
<trkpt lat="46.437100000" lon="-72.784030000">
<ele>0</ele>
<time>2026-09-04T07:20:14Z</time>
</trkpt>
<trkpt lat="46.435840000" lon="-72.785960000">
<ele>0</ele>
<time>2026-09-04T07:20:15Z</time>
</trkpt>
<trkpt lat="46.435670000" lon="-72.786290000">
<ele>0</ele>
<time>2026-09-04T07:20:16Z</time>
</trkpt>
<trkpt lat="46.435560000" lon="-72.786550000">
<ele>0</ele>
<time>2026-09-04T07:20:17Z</time>
</trkpt>
<trkpt lat="46.435450000" lon="-72.786890000">
<ele>0</ele>
<time>2026-09-04T07:20:18Z</time>
</trkpt>
<trkpt lat="46.435390000" lon="-72.787220000">
<ele>0</ele>
<time>2026-09-04T07:20:19Z</time>
</trkpt>
<trkpt lat="46.435370000" lon="-72.787750000">
<ele>0</ele>
<time>2026-09-04T07:20:20Z</time>
</trkpt>
<trkpt lat="46.435410000" lon="-72.789090000">
<ele>0</ele>
<time>2026-09-04T07:20:21Z</time>
</trkpt>
<trkpt lat="46.435370000" lon="-72.789490000">
<ele>0</ele>
<time>2026-09-04T07:20:22Z</time>
</trkpt>
<trkpt lat="46.435160000" lon="-72.790330000">
<ele>0</ele>
<time>2026-09-04T07:20:23Z</time>
</trkpt>
<trkpt lat="46.434800000" lon="-72.791400000">
<ele>0</ele>
<time>2026-09-04T07:20:24Z</time>
</trkpt>
<trkpt lat="46.434570000" lon="-72.792100000">
<ele>0</ele>
<time>2026-09-04T07:20:25Z</time>
</trkpt>
<trkpt lat="46.434510000" lon="-72.792360000">
<ele>0</ele>
<time>2026-09-04T07:20:26Z</time>
</trkpt>
<trkpt lat="46.434320000" lon="-72.793130000">
<ele>0</ele>
<time>2026-09-04T07:20:27Z</time>
</trkpt>
<trkpt lat="46.434270000" lon="-72.793450000">
<ele>0</ele>
<time>2026-09-04T07:20:28Z</time>
</trkpt>
<trkpt lat="46.434100000" lon="-72.794930000">
<ele>0</ele>
<time>2026-09-04T07:20:29Z</time>
</trkpt>
<trkpt lat="46.433880000" lon="-72.796780000">
<ele>0</ele>
<time>2026-09-04T07:20:30Z</time>
</trkpt>
<trkpt lat="46.433740000" lon="-72.797630000">
<ele>0</ele>
<time>2026-09-04T07:20:31Z</time>
</trkpt>
<trkpt lat="46.433790000" lon="-72.797710000">
<ele>0</ele>
<time>2026-09-04T07:20:32Z</time>
</trkpt>
<trkpt lat="46.433790000" lon="-72.797710000">
<ele>0</ele>
<time>2026-09-04T07:20:33Z</time>
</trkpt>
<trkpt lat="46.434390000" lon="-72.798540000">
<ele>0</ele>
<time>2026-09-04T07:20:34Z</time>
</trkpt>
<trkpt lat="46.435520000" lon="-72.800210000">
<ele>0</ele>
<time>2026-09-04T07:20:35Z</time>
</trkpt>
<trkpt lat="46.436060000" lon="-72.801000000">
<ele>0</ele>
<time>2026-09-04T07:20:36Z</time>
</trkpt>
<trkpt lat="46.436370000" lon="-72.801490000">
<ele>0</ele>
<time>2026-09-04T07:20:37Z</time>
</trkpt>
<trkpt lat="46.436880000" lon="-72.802380000">
<ele>0</ele>
<time>2026-09-04T07:20:38Z</time>
</trkpt>
<trkpt lat="46.437210000" lon="-72.803110000">
<ele>0</ele>
<time>2026-09-04T07:20:39Z</time>
</trkpt>
<trkpt lat="46.437410000" lon="-72.803670000">
<ele>0</ele>
<time>2026-09-04T07:20:40Z</time>
</trkpt>
<trkpt lat="46.437480000" lon="-72.803960000">
<ele>0</ele>
<time>2026-09-04T07:20:41Z</time>
</trkpt>
<trkpt lat="46.437510000" lon="-72.804200000">
<ele>0</ele>
<time>2026-09-04T07:20:42Z</time>
</trkpt>
<trkpt lat="46.437500000" lon="-72.804430000">
<ele>0</ele>
<time>2026-09-04T07:20:43Z</time>
</trkpt>
<trkpt lat="46.437450000" lon="-72.804940000">
<ele>0</ele>
<time>2026-09-04T07:20:44Z</time>
</trkpt>
<trkpt lat="46.437400000" lon="-72.805300000">
<ele>0</ele>
<time>2026-09-04T07:20:45Z</time>
</trkpt>
<trkpt lat="46.437410000" lon="-72.805620000">
<ele>0</ele>
<time>2026-09-04T07:20:46Z</time>
</trkpt>
<trkpt lat="46.437470000" lon="-72.805970000">
<ele>0</ele>
<time>2026-09-04T07:20:47Z</time>
</trkpt>
<trkpt lat="46.437610000" lon="-72.806450000">
<ele>0</ele>
<time>2026-09-04T07:20:48Z</time>
</trkpt>
<trkpt lat="46.437830000" lon="-72.807160000">
<ele>0</ele>
<time>2026-09-04T07:20:49Z</time>
</trkpt>
<trkpt lat="46.437910000" lon="-72.807560000">
<ele>0</ele>
<time>2026-09-04T07:20:50Z</time>
</trkpt>
<trkpt lat="46.438010000" lon="-72.808440000">
<ele>0</ele>
<time>2026-09-04T07:20:51Z</time>
</trkpt>
<trkpt lat="46.438090000" lon="-72.809420000">
<ele>0</ele>
<time>2026-09-04T07:20:52Z</time>
</trkpt>
<trkpt lat="46.438220000" lon="-72.810250000">
<ele>0</ele>
<time>2026-09-04T07:20:53Z</time>
</trkpt>
<trkpt lat="46.438320000" lon="-72.810750000">
<ele>0</ele>
<time>2026-09-04T07:20:54Z</time>
</trkpt>
<trkpt lat="46.438470000" lon="-72.811220000">
<ele>0</ele>
<time>2026-09-04T07:20:55Z</time>
</trkpt>
<trkpt lat="46.439260000" lon="-72.813490000">
<ele>0</ele>
<time>2026-09-04T07:20:56Z</time>
</trkpt>
<trkpt lat="46.439420000" lon="-72.813960000">
<ele>0</ele>
<time>2026-09-04T07:20:57Z</time>
</trkpt>
<trkpt lat="46.439600000" lon="-72.814410000">
<ele>0</ele>
<time>2026-09-04T07:20:58Z</time>
</trkpt>
<trkpt lat="46.439900000" lon="-72.815060000">
<ele>0</ele>
<time>2026-09-04T07:20:59Z</time>
</trkpt>
<trkpt lat="46.440730000" lon="-72.816430000">
<ele>0</ele>
<time>2026-09-04T07:21:00Z</time>
</trkpt>
<trkpt lat="46.441330000" lon="-72.817400000">
<ele>0</ele>
<time>2026-09-04T07:21:01Z</time>
</trkpt>
<trkpt lat="46.441960000" lon="-72.818360000">
<ele>0</ele>
<time>2026-09-04T07:21:02Z</time>
</trkpt>
<trkpt lat="46.444060000" lon="-72.821530000">
<ele>0</ele>
<time>2026-09-04T07:21:03Z</time>
</trkpt>
<trkpt lat="46.445940000" lon="-72.824370000">
<ele>0</ele>
<time>2026-09-04T07:21:04Z</time>
</trkpt>
<trkpt lat="46.446160000" lon="-72.824740000">
<ele>0</ele>
<time>2026-09-04T07:21:05Z</time>
</trkpt>
<trkpt lat="46.446260000" lon="-72.825000000">
<ele>0</ele>
<time>2026-09-04T07:21:06Z</time>
</trkpt>
<trkpt lat="46.446400000" lon="-72.825480000">
<ele>0</ele>
<time>2026-09-04T07:21:07Z</time>
</trkpt>
<trkpt lat="46.446440000" lon="-72.825640000">
<ele>0</ele>
<time>2026-09-04T07:21:08Z</time>
</trkpt>
<trkpt lat="46.446470000" lon="-72.825990000">
<ele>0</ele>
<time>2026-09-04T07:21:09Z</time>
</trkpt>
<trkpt lat="46.446570000" lon="-72.827810000">
<ele>0</ele>
<time>2026-09-04T07:21:10Z</time>
</trkpt>
<trkpt lat="46.446590000" lon="-72.828330000">
<ele>0</ele>
<time>2026-09-04T07:21:11Z</time>
</trkpt>
<trkpt lat="46.446670000" lon="-72.830420000">
<ele>0</ele>
<time>2026-09-04T07:21:12Z</time>
</trkpt>
<trkpt lat="46.446720000" lon="-72.831890000">
<ele>0</ele>
<time>2026-09-04T07:21:13Z</time>
</trkpt>
<trkpt lat="46.446690000" lon="-72.832240000">
<ele>0</ele>
<time>2026-09-04T07:21:14Z</time>
</trkpt>
<trkpt lat="46.446650000" lon="-72.832390000">
<ele>0</ele>
<time>2026-09-04T07:21:15Z</time>
</trkpt>
<trkpt lat="46.446580000" lon="-72.832650000">
<ele>0</ele>
<time>2026-09-04T07:21:16Z</time>
</trkpt>
<trkpt lat="46.446460000" lon="-72.832940000">
<ele>0</ele>
<time>2026-09-04T07:21:17Z</time>
</trkpt>
<trkpt lat="46.446350000" lon="-72.833140000">
<ele>0</ele>
<time>2026-09-04T07:21:18Z</time>
</trkpt>
<trkpt lat="46.445710000" lon="-72.834070000">
<ele>0</ele>
<time>2026-09-04T07:21:19Z</time>
</trkpt>
<trkpt lat="46.445060000" lon="-72.835010000">
<ele>0</ele>
<time>2026-09-04T07:21:20Z</time>
</trkpt>
<trkpt lat="46.445020000" lon="-72.835200000">
<ele>0</ele>
<time>2026-09-04T07:21:21Z</time>
</trkpt>
<trkpt lat="46.444990000" lon="-72.835380000">
<ele>0</ele>
<time>2026-09-04T07:21:22Z</time>
</trkpt>
<trkpt lat="46.444950000" lon="-72.835650000">
<ele>0</ele>
<time>2026-09-04T07:21:23Z</time>
</trkpt>
<trkpt lat="46.445130000" lon="-72.836970000">
<ele>0</ele>
<time>2026-09-04T07:21:24Z</time>
</trkpt>
<trkpt lat="46.445160000" lon="-72.837220000">
<ele>0</ele>
<time>2026-09-04T07:21:25Z</time>
</trkpt>
<trkpt lat="46.445340000" lon="-72.838250000">
<ele>0</ele>
<time>2026-09-04T07:21:26Z</time>
</trkpt>
<trkpt lat="46.445560000" lon="-72.839190000">
<ele>0</ele>
<time>2026-09-04T07:21:27Z</time>
</trkpt>
<trkpt lat="46.445700000" lon="-72.839600000">
<ele>0</ele>
<time>2026-09-04T07:21:28Z</time>
</trkpt>
<trkpt lat="46.446150000" lon="-72.840840000">
<ele>0</ele>
<time>2026-09-04T07:21:29Z</time>
</trkpt>
<trkpt lat="46.446360000" lon="-72.841400000">
<ele>0</ele>
<time>2026-09-04T07:21:30Z</time>
</trkpt>
<trkpt lat="46.446860000" lon="-72.842660000">
<ele>0</ele>
<time>2026-09-04T07:21:31Z</time>
</trkpt>
<trkpt lat="46.447130000" lon="-72.843340000">
<ele>0</ele>
<time>2026-09-04T07:21:32Z</time>
</trkpt>
<trkpt lat="46.447220000" lon="-72.843520000">
<ele>0</ele>
<time>2026-09-04T07:21:33Z</time>
</trkpt>
<trkpt lat="46.447220000" lon="-72.843520000">
<ele>0</ele>
<time>2026-09-04T07:21:34Z</time>
</trkpt>
<trkpt lat="46.447470000" lon="-72.843800000">
<ele>0</ele>
<time>2026-09-04T07:21:35Z</time>
</trkpt>
<trkpt lat="46.447730000" lon="-72.844170000">
<ele>0</ele>
<time>2026-09-04T07:21:36Z</time>
</trkpt>
<trkpt lat="46.448360000" lon="-72.845100000">
<ele>0</ele>
<time>2026-09-04T07:21:37Z</time>
</trkpt>
<trkpt lat="46.450610000" lon="-72.848360000">
<ele>0</ele>
<time>2026-09-04T07:21:38Z</time>
</trkpt>
<trkpt lat="46.452000000" lon="-72.850390000">
<ele>0</ele>
<time>2026-09-04T07:21:39Z</time>
</trkpt>
<trkpt lat="46.452300000" lon="-72.850750000">
<ele>0</ele>
<time>2026-09-04T07:21:40Z</time>
</trkpt>
<trkpt lat="46.452620000" lon="-72.850980000">
<ele>0</ele>
<time>2026-09-04T07:21:41Z</time>
</trkpt>
<trkpt lat="46.452770000" lon="-72.851060000">
<ele>0</ele>
<time>2026-09-04T07:21:42Z</time>
</trkpt>
<trkpt lat="46.453040000" lon="-72.851150000">
<ele>0</ele>
<time>2026-09-04T07:21:43Z</time>
</trkpt>
<trkpt lat="46.453230000" lon="-72.851190000">
<ele>0</ele>
<time>2026-09-04T07:21:44Z</time>
</trkpt>
<trkpt lat="46.453500000" lon="-72.851180000">
<ele>0</ele>
<time>2026-09-04T07:21:45Z</time>
</trkpt>
<trkpt lat="46.453790000" lon="-72.851110000">
<ele>0</ele>
<time>2026-09-04T07:21:46Z</time>
</trkpt>
<trkpt lat="46.454020000" lon="-72.851010000">
<ele>0</ele>
<time>2026-09-04T07:21:47Z</time>
</trkpt>
<trkpt lat="46.454370000" lon="-72.850780000">
<ele>0</ele>
<time>2026-09-04T07:21:48Z</time>
</trkpt>
<trkpt lat="46.454630000" lon="-72.850510000">
<ele>0</ele>
<time>2026-09-04T07:21:49Z</time>
</trkpt>
<trkpt lat="46.454830000" lon="-72.850230000">
<ele>0</ele>
<time>2026-09-04T07:21:50Z</time>
</trkpt>
<trkpt lat="46.455410000" lon="-72.849390000">
<ele>0</ele>
<time>2026-09-04T07:21:51Z</time>
</trkpt>
<trkpt lat="46.456450000" lon="-72.847950000">
<ele>0</ele>
<time>2026-09-04T07:21:52Z</time>
</trkpt>
<trkpt lat="46.456690000" lon="-72.847570000">
<ele>0</ele>
<time>2026-09-04T07:21:53Z</time>
</trkpt>
<trkpt lat="46.457110000" lon="-72.846920000">
<ele>0</ele>
<time>2026-09-04T07:21:54Z</time>
</trkpt>
<trkpt lat="46.457480000" lon="-72.846410000">
<ele>0</ele>
<time>2026-09-04T07:21:55Z</time>
</trkpt>
<trkpt lat="46.457980000" lon="-72.845690000">
<ele>0</ele>
<time>2026-09-04T07:21:56Z</time>
</trkpt>
<trkpt lat="46.458580000" lon="-72.844820000">
<ele>0</ele>
<time>2026-09-04T07:21:57Z</time>
</trkpt>
<trkpt lat="46.458780000" lon="-72.844590000">
<ele>0</ele>
<time>2026-09-04T07:21:58Z</time>
</trkpt>
<trkpt lat="46.459020000" lon="-72.844370000">
<ele>0</ele>
<time>2026-09-04T07:21:59Z</time>
</trkpt>
<trkpt lat="46.459290000" lon="-72.844210000">
<ele>0</ele>
<time>2026-09-04T07:22:00Z</time>
</trkpt>
<trkpt lat="46.459450000" lon="-72.844150000">
<ele>0</ele>
<time>2026-09-04T07:22:01Z</time>
</trkpt>
<trkpt lat="46.459680000" lon="-72.844110000">
<ele>0</ele>
<time>2026-09-04T07:22:02Z</time>
</trkpt>
<trkpt lat="46.459840000" lon="-72.844110000">
<ele>0</ele>
<time>2026-09-04T07:22:03Z</time>
</trkpt>
<trkpt lat="46.460030000" lon="-72.844140000">
<ele>0</ele>
<time>2026-09-04T07:22:04Z</time>
</trkpt>
<trkpt lat="46.460310000" lon="-72.844260000">
<ele>0</ele>
<time>2026-09-04T07:22:05Z</time>
</trkpt>
<trkpt lat="46.460660000" lon="-72.844470000">
<ele>0</ele>
<time>2026-09-04T07:22:06Z</time>
</trkpt>
<trkpt lat="46.461710000" lon="-72.845280000">
<ele>0</ele>
<time>2026-09-04T07:22:07Z</time>
</trkpt>
<trkpt lat="46.463320000" lon="-72.846530000">
<ele>0</ele>
<time>2026-09-04T07:22:08Z</time>
</trkpt>
<trkpt lat="46.463810000" lon="-72.846950000">
<ele>0</ele>
<time>2026-09-04T07:22:09Z</time>
</trkpt>
<trkpt lat="46.464200000" lon="-72.847330000">
<ele>0</ele>
<time>2026-09-04T07:22:10Z</time>
</trkpt>
<trkpt lat="46.465100000" lon="-72.848380000">
<ele>0</ele>
<time>2026-09-04T07:22:11Z</time>
</trkpt>
<trkpt lat="46.466560000" lon="-72.850180000">
<ele>0</ele>
<time>2026-09-04T07:22:12Z</time>
</trkpt>
<trkpt lat="46.467340000" lon="-72.851140000">
<ele>0</ele>
<time>2026-09-04T07:22:13Z</time>
</trkpt>
<trkpt lat="46.467960000" lon="-72.851940000">
<ele>0</ele>
<time>2026-09-04T07:22:14Z</time>
</trkpt>
<trkpt lat="46.468280000" lon="-72.852390000">
<ele>0</ele>
<time>2026-09-04T07:22:15Z</time>
</trkpt>
<trkpt lat="46.468700000" lon="-72.853080000">
<ele>0</ele>
<time>2026-09-04T07:22:16Z</time>
</trkpt>
<trkpt lat="46.469000000" lon="-72.853630000">
<ele>0</ele>
<time>2026-09-04T07:22:17Z</time>
</trkpt>
<trkpt lat="46.469430000" lon="-72.854530000">
<ele>0</ele>
<time>2026-09-04T07:22:18Z</time>
</trkpt>
<trkpt lat="46.470320000" lon="-72.856550000">
<ele>0</ele>
<time>2026-09-04T07:22:19Z</time>
</trkpt>
<trkpt lat="46.471110000" lon="-72.858400000">
<ele>0</ele>
<time>2026-09-04T07:22:20Z</time>
</trkpt>
<trkpt lat="46.471250000" lon="-72.858760000">
<ele>0</ele>
<time>2026-09-04T07:22:21Z</time>
</trkpt>
<trkpt lat="46.471490000" lon="-72.858960000">
<ele>0</ele>
<time>2026-09-04T07:22:22Z</time>
</trkpt>
<trkpt lat="46.471640000" lon="-72.859020000">
<ele>0</ele>
<time>2026-09-04T07:22:23Z</time>
</trkpt>
<trkpt lat="46.471880000" lon="-72.859060000">
<ele>0</ele>
<time>2026-09-04T07:22:24Z</time>
</trkpt>
<trkpt lat="46.471950000" lon="-72.858960000">
<ele>0</ele>
<time>2026-09-04T07:22:25Z</time>
</trkpt>
<trkpt lat="46.471950000" lon="-72.858960000">
<ele>0</ele>
<time>2026-09-04T07:22:26Z</time>
</trkpt>
<trkpt lat="46.473760000" lon="-72.856520000">
<ele>0</ele>
<time>2026-09-04T07:22:27Z</time>
</trkpt>
<trkpt lat="46.474490000" lon="-72.855480000">
<ele>0</ele>
<time>2026-09-04T07:22:28Z</time>
</trkpt>
<trkpt lat="46.475530000" lon="-72.854030000">
<ele>0</ele>
<time>2026-09-04T07:22:29Z</time>
</trkpt>
<trkpt lat="46.477290000" lon="-72.851640000">
<ele>0</ele>
<time>2026-09-04T07:22:30Z</time>
</trkpt>
<trkpt lat="46.478550000" lon="-72.849920000">
<ele>0</ele>
<time>2026-09-04T07:22:31Z</time>
</trkpt>
<trkpt lat="46.479590000" lon="-72.848480000">
<ele>0</ele>
<time>2026-09-04T07:22:32Z</time>
</trkpt>
<trkpt lat="46.480740000" lon="-72.846820000">
<ele>0</ele>
<time>2026-09-04T07:22:33Z</time>
</trkpt>
<trkpt lat="46.481020000" lon="-72.846420000">
<ele>0</ele>
<time>2026-09-04T07:22:34Z</time>
</trkpt>
<trkpt lat="46.482930000" lon="-72.843640000">
<ele>0</ele>
<time>2026-09-04T07:22:35Z</time>
</trkpt>
<trkpt lat="46.486520000" lon="-72.838450000">
<ele>0</ele>
<time>2026-09-04T07:22:36Z</time>
</trkpt>
<trkpt lat="46.486890000" lon="-72.837900000">
<ele>0</ele>
<time>2026-09-04T07:22:37Z</time>
</trkpt>
<trkpt lat="46.487260000" lon="-72.837440000">
<ele>0</ele>
<time>2026-09-04T07:22:38Z</time>
</trkpt>
<trkpt lat="46.487600000" lon="-72.837130000">
<ele>0</ele>
<time>2026-09-04T07:22:39Z</time>
</trkpt>
<trkpt lat="46.487770000" lon="-72.837010000">
<ele>0</ele>
<time>2026-09-04T07:22:40Z</time>
</trkpt>
<trkpt lat="46.487940000" lon="-72.836930000">
<ele>0</ele>
<time>2026-09-04T07:22:41Z</time>
</trkpt>
<trkpt lat="46.488020000" lon="-72.837040000">
<ele>0</ele>
<time>2026-09-04T07:22:42Z</time>
</trkpt>
<trkpt lat="46.488020000" lon="-72.837040000">
<ele>0</ele>
<time>2026-09-04T07:22:43Z</time>
</trkpt>
<trkpt lat="46.488550000" lon="-72.837710000">
<ele>0</ele>
<time>2026-09-04T07:22:44Z</time>
</trkpt>
<trkpt lat="46.489560000" lon="-72.838940000">
<ele>0</ele>
<time>2026-09-04T07:22:45Z</time>
</trkpt>
<trkpt lat="46.491620000" lon="-72.841520000">
<ele>0</ele>
<time>2026-09-04T07:22:46Z</time>
</trkpt>
<trkpt lat="46.493240000" lon="-72.843550000">
<ele>0</ele>
<time>2026-09-04T07:22:47Z</time>
</trkpt>
<trkpt lat="46.493650000" lon="-72.844100000">
<ele>0</ele>
<time>2026-09-04T07:22:48Z</time>
</trkpt>
<trkpt lat="46.494170000" lon="-72.844810000">
<ele>0</ele>
<time>2026-09-04T07:22:49Z</time>
</trkpt>
<trkpt lat="46.494470000" lon="-72.845220000">
<ele>0</ele>
<time>2026-09-04T07:22:50Z</time>
</trkpt>
<trkpt lat="46.494800000" lon="-72.845870000">
<ele>0</ele>
<time>2026-09-04T07:22:51Z</time>
</trkpt>
<trkpt lat="46.495010000" lon="-72.846340000">
<ele>0</ele>
<time>2026-09-04T07:22:52Z</time>
</trkpt>
<trkpt lat="46.495030000" lon="-72.846470000">
<ele>0</ele>
<time>2026-09-04T07:22:53Z</time>
</trkpt>
<trkpt lat="46.495060000" lon="-72.846730000">
<ele>0</ele>
<time>2026-09-04T07:22:54Z</time>
</trkpt>
<trkpt lat="46.495110000" lon="-72.847440000">
<ele>0</ele>
<time>2026-09-04T07:22:55Z</time>
</trkpt>
<trkpt lat="46.495070000" lon="-72.847760000">
<ele>0</ele>
<time>2026-09-04T07:22:56Z</time>
</trkpt>
<trkpt lat="46.494880000" lon="-72.848310000">
<ele>0</ele>
<time>2026-09-04T07:22:57Z</time>
</trkpt>
<trkpt lat="46.494680000" lon="-72.848650000">
<ele>0</ele>
<time>2026-09-04T07:22:58Z</time>
</trkpt>
<trkpt lat="46.494160000" lon="-72.849350000">
<ele>0</ele>
<time>2026-09-04T07:22:59Z</time>
</trkpt>
<trkpt lat="46.492970000" lon="-72.850940000">
<ele>0</ele>
<time>2026-09-04T07:23:00Z</time>
</trkpt>
<trkpt lat="46.492070000" lon="-72.852230000">
<ele>0</ele>
<time>2026-09-04T07:23:01Z</time>
</trkpt>
<trkpt lat="46.490520000" lon="-72.854490000">
<ele>0</ele>
<time>2026-09-04T07:23:02Z</time>
</trkpt>
<trkpt lat="46.488640000" lon="-72.857010000">
<ele>0</ele>
<time>2026-09-04T07:23:03Z</time>
</trkpt>
<trkpt lat="46.488150000" lon="-72.857770000">
<ele>0</ele>
<time>2026-09-04T07:23:04Z</time>
</trkpt>
<trkpt lat="46.488030000" lon="-72.857960000">
<ele>0</ele>
<time>2026-09-04T07:23:05Z</time>
</trkpt>
<trkpt lat="46.487830000" lon="-72.858400000">
<ele>0</ele>
<time>2026-09-04T07:23:06Z</time>
</trkpt>
<trkpt lat="46.487270000" lon="-72.859740000">
<ele>0</ele>
<time>2026-09-04T07:23:07Z</time>
</trkpt>
<trkpt lat="46.487000000" lon="-72.860410000">
<ele>0</ele>
<time>2026-09-04T07:23:08Z</time>
</trkpt>
<trkpt lat="46.486370000" lon="-72.862000000">
<ele>0</ele>
<time>2026-09-04T07:23:09Z</time>
</trkpt>
<trkpt lat="46.485630000" lon="-72.863790000">
<ele>0</ele>
<time>2026-09-04T07:23:10Z</time>
</trkpt>
<trkpt lat="46.485340000" lon="-72.864480000">
<ele>0</ele>
<time>2026-09-04T07:23:11Z</time>
</trkpt>
<trkpt lat="46.484950000" lon="-72.864980000">
<ele>0</ele>
<time>2026-09-04T07:23:12Z</time>
</trkpt>
<trkpt lat="46.484870000" lon="-72.865080000">
<ele>0</ele>
<time>2026-09-04T07:23:13Z</time>
</trkpt>
<trkpt lat="46.484790000" lon="-72.865240000">
<ele>0</ele>
<time>2026-09-04T07:23:14Z</time>
</trkpt>
<trkpt lat="46.484780000" lon="-72.865420000">
<ele>0</ele>
<time>2026-09-04T07:23:15Z</time>
</trkpt>
<trkpt lat="46.484780000" lon="-72.865800000">
<ele>0</ele>
<time>2026-09-04T07:23:16Z</time>
</trkpt>
<trkpt lat="46.484740000" lon="-72.865940000">
<ele>0</ele>
<time>2026-09-04T07:23:17Z</time>
</trkpt>
<trkpt lat="46.484700000" lon="-72.866080000">
<ele>0</ele>
<time>2026-09-04T07:23:18Z</time>
</trkpt>
<trkpt lat="46.484620000" lon="-72.866190000">
<ele>0</ele>
<time>2026-09-04T07:23:19Z</time>
</trkpt>
<trkpt lat="46.484380000" lon="-72.866500000">
<ele>0</ele>
<time>2026-09-04T07:23:20Z</time>
</trkpt>
<trkpt lat="46.484330000" lon="-72.866570000">
<ele>0</ele>
<time>2026-09-04T07:23:21Z</time>
</trkpt>
<trkpt lat="46.484070000" lon="-72.866750000">
<ele>0</ele>
<time>2026-09-04T07:23:22Z</time>
</trkpt>
<trkpt lat="46.483910000" lon="-72.866850000">
<ele>0</ele>
<time>2026-09-04T07:23:23Z</time>
</trkpt>
<trkpt lat="46.483570000" lon="-72.867040000">
<ele>0</ele>
<time>2026-09-04T07:23:24Z</time>
</trkpt>
<trkpt lat="46.483240000" lon="-72.867230000">
<ele>0</ele>
<time>2026-09-04T07:23:25Z</time>
</trkpt>
<trkpt lat="46.483070000" lon="-72.867340000">
<ele>0</ele>
<time>2026-09-04T07:23:26Z</time>
</trkpt>
<trkpt lat="46.482760000" lon="-72.867610000">
<ele>0</ele>
<time>2026-09-04T07:23:27Z</time>
</trkpt>
<trkpt lat="46.482620000" lon="-72.867770000">
<ele>0</ele>
<time>2026-09-04T07:23:28Z</time>
</trkpt>
<trkpt lat="46.482360000" lon="-72.868130000">
<ele>0</ele>
<time>2026-09-04T07:23:29Z</time>
</trkpt>
<trkpt lat="46.482130000" lon="-72.868520000">
<ele>0</ele>
<time>2026-09-04T07:23:30Z</time>
</trkpt>
<trkpt lat="46.481650000" lon="-72.869310000">
<ele>0</ele>
<time>2026-09-04T07:23:31Z</time>
</trkpt>
<trkpt lat="46.481060000" lon="-72.870280000">
<ele>0</ele>
<time>2026-09-04T07:23:32Z</time>
</trkpt>
<trkpt lat="46.480940000" lon="-72.870480000">
<ele>0</ele>
<time>2026-09-04T07:23:33Z</time>
</trkpt>
<trkpt lat="46.481010000" lon="-72.870560000">
<ele>0</ele>
<time>2026-09-04T07:23:34Z</time>
</trkpt>
<trkpt lat="46.481010000" lon="-72.870560000">
<ele>0</ele>
<time>2026-09-04T07:23:35Z</time>
</trkpt>
<trkpt lat="46.482420000" lon="-72.872140000">
<ele>0</ele>
<time>2026-09-04T07:23:36Z</time>
</trkpt>
<trkpt lat="46.482570000" lon="-72.872320000">
<ele>0</ele>
<time>2026-09-04T07:23:37Z</time>
</trkpt>
<trkpt lat="46.482690000" lon="-72.872510000">
<ele>0</ele>
<time>2026-09-04T07:23:38Z</time>
</trkpt>
<trkpt lat="46.482870000" lon="-72.873140000">
<ele>0</ele>
<time>2026-09-04T07:23:39Z</time>
</trkpt>
<trkpt lat="46.482920000" lon="-72.873530000">
<ele>0</ele>
<time>2026-09-04T07:23:40Z</time>
</trkpt>
<trkpt lat="46.482930000" lon="-72.874020000">
<ele>0</ele>
<time>2026-09-04T07:23:41Z</time>
</trkpt>
<trkpt lat="46.482870000" lon="-72.874400000">
<ele>0</ele>
<time>2026-09-04T07:23:42Z</time>
</trkpt>
<trkpt lat="46.482700000" lon="-72.875530000">
<ele>0</ele>
<time>2026-09-04T07:23:43Z</time>
</trkpt>
<trkpt lat="46.482640000" lon="-72.876090000">
<ele>0</ele>
<time>2026-09-04T07:23:44Z</time>
</trkpt>
<trkpt lat="46.482650000" lon="-72.876670000">
<ele>0</ele>
<time>2026-09-04T07:23:45Z</time>
</trkpt>
<trkpt lat="46.482660000" lon="-72.876980000">
<ele>0</ele>
<time>2026-09-04T07:23:46Z</time>
</trkpt>
<trkpt lat="46.482680000" lon="-72.877240000">
<ele>0</ele>
<time>2026-09-04T07:23:47Z</time>
</trkpt>
<trkpt lat="46.482790000" lon="-72.877740000">
<ele>0</ele>
<time>2026-09-04T07:23:48Z</time>
</trkpt>
<trkpt lat="46.482940000" lon="-72.878330000">
<ele>0</ele>
<time>2026-09-04T07:23:49Z</time>
</trkpt>
<trkpt lat="46.483150000" lon="-72.878850000">
<ele>0</ele>
<time>2026-09-04T07:23:50Z</time>
</trkpt>
<trkpt lat="46.484020000" lon="-72.880610000">
<ele>0</ele>
<time>2026-09-04T07:23:51Z</time>
</trkpt>
<trkpt lat="46.485060000" lon="-72.882730000">
<ele>0</ele>
<time>2026-09-04T07:23:52Z</time>
</trkpt>
<trkpt lat="46.486330000" lon="-72.885270000">
<ele>0</ele>
<time>2026-09-04T07:23:53Z</time>
</trkpt>
<trkpt lat="46.488710000" lon="-72.890220000">
<ele>0</ele>
<time>2026-09-04T07:23:54Z</time>
</trkpt>
<trkpt lat="46.490920000" lon="-72.895050000">
<ele>0</ele>
<time>2026-09-04T07:23:55Z</time>
</trkpt>
<trkpt lat="46.491420000" lon="-72.896300000">
<ele>0</ele>
<time>2026-09-04T07:23:56Z</time>
</trkpt>
<trkpt lat="46.491520000" lon="-72.896730000">
<ele>0</ele>
<time>2026-09-04T07:23:57Z</time>
</trkpt>
<trkpt lat="46.491570000" lon="-72.897150000">
<ele>0</ele>
<time>2026-09-04T07:23:58Z</time>
</trkpt>
<trkpt lat="46.491590000" lon="-72.897740000">
<ele>0</ele>
<time>2026-09-04T07:23:59Z</time>
</trkpt>
<trkpt lat="46.491520000" lon="-72.898250000">
<ele>0</ele>
<time>2026-09-04T07:24:00Z</time>
</trkpt>
<trkpt lat="46.491390000" lon="-72.899280000">
<ele>0</ele>
<time>2026-09-04T07:24:01Z</time>
</trkpt>
<trkpt lat="46.491130000" lon="-72.900920000">
<ele>0</ele>
<time>2026-09-04T07:24:02Z</time>
</trkpt>
<trkpt lat="46.490820000" lon="-72.902940000">
<ele>0</ele>
<time>2026-09-04T07:24:03Z</time>
</trkpt>
<trkpt lat="46.490780000" lon="-72.903460000">
<ele>0</ele>
<time>2026-09-04T07:24:04Z</time>
</trkpt>
<trkpt lat="46.490780000" lon="-72.903720000">
<ele>0</ele>
<time>2026-09-04T07:24:05Z</time>
</trkpt>
<trkpt lat="46.490800000" lon="-72.904500000">
<ele>0</ele>
<time>2026-09-04T07:24:06Z</time>
</trkpt>
<trkpt lat="46.490860000" lon="-72.904780000">
<ele>0</ele>
<time>2026-09-04T07:24:07Z</time>
</trkpt>
<trkpt lat="46.491260000" lon="-72.906050000">
<ele>0</ele>
<time>2026-09-04T07:24:08Z</time>
</trkpt>
<trkpt lat="46.491380000" lon="-72.906350000">
<ele>0</ele>
<time>2026-09-04T07:24:09Z</time>
</trkpt>
<trkpt lat="46.491560000" lon="-72.906820000">
<ele>0</ele>
<time>2026-09-04T07:24:10Z</time>
</trkpt>
<trkpt lat="46.492170000" lon="-72.908100000">
<ele>0</ele>
<time>2026-09-04T07:24:11Z</time>
</trkpt>
<trkpt lat="46.492750000" lon="-72.909100000">
<ele>0</ele>
<time>2026-09-04T07:24:12Z</time>
</trkpt>
<trkpt lat="46.492810000" lon="-72.909210000">
<ele>0</ele>
<time>2026-09-04T07:24:13Z</time>
</trkpt>
<trkpt lat="46.493950000" lon="-72.910590000">
<ele>0</ele>
<time>2026-09-04T07:24:14Z</time>
</trkpt>
<trkpt lat="46.494980000" lon="-72.911830000">
<ele>0</ele>
<time>2026-09-04T07:24:15Z</time>
</trkpt>
<trkpt lat="46.495260000" lon="-72.912170000">
<ele>0</ele>
<time>2026-09-04T07:24:16Z</time>
</trkpt>
<trkpt lat="46.495950000" lon="-72.913000000">
<ele>0</ele>
<time>2026-09-04T07:24:17Z</time>
</trkpt>
<trkpt lat="46.496870000" lon="-72.914070000">
<ele>0</ele>
<time>2026-09-04T07:24:18Z</time>
</trkpt>
<trkpt lat="46.497540000" lon="-72.914870000">
<ele>0</ele>
<time>2026-09-04T07:24:19Z</time>
</trkpt>
<trkpt lat="46.497770000" lon="-72.915100000">
<ele>0</ele>
<time>2026-09-04T07:24:20Z</time>
</trkpt>
<trkpt lat="46.498200000" lon="-72.915570000">
<ele>0</ele>
<time>2026-09-04T07:24:21Z</time>
</trkpt>
<trkpt lat="46.499010000" lon="-72.916510000">
<ele>0</ele>
<time>2026-09-04T07:24:22Z</time>
</trkpt>
<trkpt lat="46.499720000" lon="-72.917540000">
<ele>0</ele>
<time>2026-09-04T07:24:23Z</time>
</trkpt>
<trkpt lat="46.500050000" lon="-72.918160000">
<ele>0</ele>
<time>2026-09-04T07:24:24Z</time>
</trkpt>
<trkpt lat="46.500410000" lon="-72.918980000">
<ele>0</ele>
<time>2026-09-04T07:24:25Z</time>
</trkpt>
<trkpt lat="46.500890000" lon="-72.920070000">
<ele>0</ele>
<time>2026-09-04T07:24:26Z</time>
</trkpt>
<trkpt lat="46.501240000" lon="-72.921010000">
<ele>0</ele>
<time>2026-09-04T07:24:27Z</time>
</trkpt>
<trkpt lat="46.501560000" lon="-72.921870000">
<ele>0</ele>
<time>2026-09-04T07:24:28Z</time>
</trkpt>
<trkpt lat="46.502380000" lon="-72.923970000">
<ele>0</ele>
<time>2026-09-04T07:24:29Z</time>
</trkpt>
<trkpt lat="46.502910000" lon="-72.925340000">
<ele>0</ele>
<time>2026-09-04T07:24:30Z</time>
</trkpt>
<trkpt lat="46.504450000" lon="-72.928870000">
<ele>0</ele>
<time>2026-09-04T07:24:31Z</time>
</trkpt>
<trkpt lat="46.504540000" lon="-72.929090000">
<ele>0</ele>
<time>2026-09-04T07:24:32Z</time>
</trkpt>
<trkpt lat="46.504670000" lon="-72.929580000">
<ele>0</ele>
<time>2026-09-04T07:24:33Z</time>
</trkpt>
<trkpt lat="46.504780000" lon="-72.930160000">
<ele>0</ele>
<time>2026-09-04T07:24:34Z</time>
</trkpt>
<trkpt lat="46.504810000" lon="-72.930600000">
<ele>0</ele>
<time>2026-09-04T07:24:35Z</time>
</trkpt>
<trkpt lat="46.504820000" lon="-72.931040000">
<ele>0</ele>
<time>2026-09-04T07:24:36Z</time>
</trkpt>
<trkpt lat="46.504790000" lon="-72.931900000">
<ele>0</ele>
<time>2026-09-04T07:24:37Z</time>
</trkpt>
<trkpt lat="46.504550000" lon="-72.932900000">
<ele>0</ele>
<time>2026-09-04T07:24:38Z</time>
</trkpt>
<trkpt lat="46.504400000" lon="-72.933240000">
<ele>0</ele>
<time>2026-09-04T07:24:39Z</time>
</trkpt>
<trkpt lat="46.503910000" lon="-72.934150000">
<ele>0</ele>
<time>2026-09-04T07:24:40Z</time>
</trkpt>
<trkpt lat="46.503180000" lon="-72.935310000">
<ele>0</ele>
<time>2026-09-04T07:24:41Z</time>
</trkpt>
<trkpt lat="46.500020000" lon="-72.940280000">
<ele>0</ele>
<time>2026-09-04T07:24:42Z</time>
</trkpt>
<trkpt lat="46.499750000" lon="-72.940660000">
<ele>0</ele>
<time>2026-09-04T07:24:43Z</time>
</trkpt>
<trkpt lat="46.499430000" lon="-72.941170000">
<ele>0</ele>
<time>2026-09-04T07:24:44Z</time>
</trkpt>
<trkpt lat="46.499140000" lon="-72.941630000">
<ele>0</ele>
<time>2026-09-04T07:24:45Z</time>
</trkpt>
<trkpt lat="46.498840000" lon="-72.942190000">
<ele>0</ele>
<time>2026-09-04T07:24:46Z</time>
</trkpt>
<trkpt lat="46.498740000" lon="-72.942440000">
<ele>0</ele>
<time>2026-09-04T07:24:47Z</time>
</trkpt>
<trkpt lat="46.498630000" lon="-72.942830000">
<ele>0</ele>
<time>2026-09-04T07:24:48Z</time>
</trkpt>
<trkpt lat="46.498560000" lon="-72.943180000">
<ele>0</ele>
<time>2026-09-04T07:24:49Z</time>
</trkpt>
<trkpt lat="46.498510000" lon="-72.943490000">
<ele>0</ele>
<time>2026-09-04T07:24:50Z</time>
</trkpt>
<trkpt lat="46.498500000" lon="-72.944000000">
<ele>0</ele>
<time>2026-09-04T07:24:51Z</time>
</trkpt>
<trkpt lat="46.498550000" lon="-72.944570000">
<ele>0</ele>
<time>2026-09-04T07:24:52Z</time>
</trkpt>
<trkpt lat="46.498660000" lon="-72.945030000">
<ele>0</ele>
<time>2026-09-04T07:24:53Z</time>
</trkpt>
<trkpt lat="46.498840000" lon="-72.945480000">
<ele>0</ele>
<time>2026-09-04T07:24:54Z</time>
</trkpt>
<trkpt lat="46.499080000" lon="-72.945940000">
<ele>0</ele>
<time>2026-09-04T07:24:55Z</time>
</trkpt>
<trkpt lat="46.499230000" lon="-72.946170000">
<ele>0</ele>
<time>2026-09-04T07:24:56Z</time>
</trkpt>
<trkpt lat="46.499450000" lon="-72.946430000">
<ele>0</ele>
<time>2026-09-04T07:24:57Z</time>
</trkpt>
<trkpt lat="46.499960000" lon="-72.946950000">
<ele>0</ele>
<time>2026-09-04T07:24:58Z</time>
</trkpt>
<trkpt lat="46.500660000" lon="-72.947680000">
<ele>0</ele>
<time>2026-09-04T07:24:59Z</time>
</trkpt>
<trkpt lat="46.501490000" lon="-72.948570000">
<ele>0</ele>
<time>2026-09-04T07:25:00Z</time>
</trkpt>
<trkpt lat="46.501490000" lon="-72.948570000">
<ele>0</ele>
<time>2026-09-04T07:25:01Z</time>
</trkpt>
<trkpt lat="46.501900000" lon="-72.949030000">
<ele>0</ele>
<time>2026-09-04T07:25:02Z</time>
</trkpt>
<trkpt lat="46.502260000" lon="-72.949500000">
<ele>0</ele>
<time>2026-09-04T07:25:03Z</time>
</trkpt>
<trkpt lat="46.503050000" lon="-72.950640000">
<ele>0</ele>
<time>2026-09-04T07:25:04Z</time>
</trkpt>
<trkpt lat="46.503570000" lon="-72.951380000">
<ele>0</ele>
<time>2026-09-04T07:25:05Z</time>
</trkpt>
<trkpt lat="46.504000000" lon="-72.951920000">
<ele>0</ele>
<time>2026-09-04T07:25:06Z</time>
</trkpt>
<trkpt lat="46.504170000" lon="-72.952080000">
<ele>0</ele>
<time>2026-09-04T07:25:07Z</time>
</trkpt>
<trkpt lat="46.504310000" lon="-72.952170000">
<ele>0</ele>
<time>2026-09-04T07:25:08Z</time>
</trkpt>
<trkpt lat="46.504500000" lon="-72.952270000">
<ele>0</ele>
<time>2026-09-04T07:25:09Z</time>
</trkpt>
<trkpt lat="46.504690000" lon="-72.952340000">
<ele>0</ele>
<time>2026-09-04T07:25:10Z</time>
</trkpt>
<trkpt lat="46.505000000" lon="-72.952410000">
<ele>0</ele>
<time>2026-09-04T07:25:11Z</time>
</trkpt>
<trkpt lat="46.505910000" lon="-72.952530000">
<ele>0</ele>
<time>2026-09-04T07:25:12Z</time>
</trkpt>
<trkpt lat="46.507720000" lon="-72.952760000">
<ele>0</ele>
<time>2026-09-04T07:25:13Z</time>
</trkpt>
<trkpt lat="46.508140000" lon="-72.952780000">
<ele>0</ele>
<time>2026-09-04T07:25:14Z</time>
</trkpt>
<trkpt lat="46.508330000" lon="-72.952770000">
<ele>0</ele>
<time>2026-09-04T07:25:15Z</time>
</trkpt>
<trkpt lat="46.508540000" lon="-72.952710000">
<ele>0</ele>
<time>2026-09-04T07:25:16Z</time>
</trkpt>
<trkpt lat="46.508760000" lon="-72.952620000">
<ele>0</ele>
<time>2026-09-04T07:25:17Z</time>
</trkpt>
<trkpt lat="46.509370000" lon="-72.952300000">
<ele>0</ele>
<time>2026-09-04T07:25:18Z</time>
</trkpt>
<trkpt lat="46.509780000" lon="-72.952070000">
<ele>0</ele>
<time>2026-09-04T07:25:19Z</time>
</trkpt>
<trkpt lat="46.509910000" lon="-72.951980000">
<ele>0</ele>
<time>2026-09-04T07:25:20Z</time>
</trkpt>
<trkpt lat="46.510160000" lon="-72.951800000">
<ele>0</ele>
<time>2026-09-04T07:25:21Z</time>
</trkpt>
<trkpt lat="46.510430000" lon="-72.951690000">
<ele>0</ele>
<time>2026-09-04T07:25:22Z</time>
</trkpt>
<trkpt lat="46.510810000" lon="-72.951630000">
<ele>0</ele>
<time>2026-09-04T07:25:23Z</time>
</trkpt>
<trkpt lat="46.511480000" lon="-72.951610000">
<ele>0</ele>
<time>2026-09-04T07:25:24Z</time>
</trkpt>
<trkpt lat="46.512100000" lon="-72.951630000">
<ele>0</ele>
<time>2026-09-04T07:25:25Z</time>
</trkpt>
<trkpt lat="46.512490000" lon="-72.951640000">
<ele>0</ele>
<time>2026-09-04T07:25:26Z</time>
</trkpt>
<trkpt lat="46.512670000" lon="-72.951660000">
<ele>0</ele>
<time>2026-09-04T07:25:27Z</time>
</trkpt>
<trkpt lat="46.512810000" lon="-72.951690000">
<ele>0</ele>
<time>2026-09-04T07:25:28Z</time>
</trkpt>
<trkpt lat="46.513160000" lon="-72.951880000">
<ele>0</ele>
<time>2026-09-04T07:25:29Z</time>
</trkpt>
<trkpt lat="46.513510000" lon="-72.952100000">
<ele>0</ele>
<time>2026-09-04T07:25:30Z</time>
</trkpt>
<trkpt lat="46.513910000" lon="-72.952400000">
<ele>0</ele>
<time>2026-09-04T07:25:31Z</time>
</trkpt>
<trkpt lat="46.514620000" lon="-72.953090000">
<ele>0</ele>
<time>2026-09-04T07:25:32Z</time>
</trkpt>
<trkpt lat="46.514870000" lon="-72.953320000">
<ele>0</ele>
<time>2026-09-04T07:25:33Z</time>
</trkpt>
<trkpt lat="46.515020000" lon="-72.953430000">
<ele>0</ele>
<time>2026-09-04T07:25:34Z</time>
</trkpt>
<trkpt lat="46.515470000" lon="-72.953710000">
<ele>0</ele>
<time>2026-09-04T07:25:35Z</time>
</trkpt>
<trkpt lat="46.515700000" lon="-72.953880000">
<ele>0</ele>
<time>2026-09-04T07:25:36Z</time>
</trkpt>
<trkpt lat="46.515830000" lon="-72.954010000">
<ele>0</ele>
<time>2026-09-04T07:25:37Z</time>
</trkpt>
<trkpt lat="46.515890000" lon="-72.954110000">
<ele>0</ele>
<time>2026-09-04T07:25:38Z</time>
</trkpt>
<trkpt lat="46.516040000" lon="-72.954470000">
<ele>0</ele>
<time>2026-09-04T07:25:39Z</time>
</trkpt>
<trkpt lat="46.516180000" lon="-72.954850000">
<ele>0</ele>
<time>2026-09-04T07:25:40Z</time>
</trkpt>
<trkpt lat="46.516380000" lon="-72.955400000">
<ele>0</ele>
<time>2026-09-04T07:25:41Z</time>
</trkpt>
<trkpt lat="46.516570000" lon="-72.955710000">
<ele>0</ele>
<time>2026-09-04T07:25:42Z</time>
</trkpt>
<trkpt lat="46.516630000" lon="-72.955800000">
<ele>0</ele>
<time>2026-09-04T07:25:43Z</time>
</trkpt>
<trkpt lat="46.516780000" lon="-72.955900000">
<ele>0</ele>
<time>2026-09-04T07:25:44Z</time>
</trkpt>
<trkpt lat="46.516970000" lon="-72.955920000">
<ele>0</ele>
<time>2026-09-04T07:25:45Z</time>
</trkpt>
<trkpt lat="46.517450000" lon="-72.955820000">
<ele>0</ele>
<time>2026-09-04T07:25:46Z</time>
</trkpt>
<trkpt lat="46.517660000" lon="-72.955850000">
<ele>0</ele>
<time>2026-09-04T07:25:47Z</time>
</trkpt>
<trkpt lat="46.517830000" lon="-72.955960000">
<ele>0</ele>
<time>2026-09-04T07:25:48Z</time>
</trkpt>
<trkpt lat="46.517980000" lon="-72.956110000">
<ele>0</ele>
<time>2026-09-04T07:25:49Z</time>
</trkpt>
<trkpt lat="46.518110000" lon="-72.956290000">
<ele>0</ele>
<time>2026-09-04T07:25:50Z</time>
</trkpt>
<trkpt lat="46.518510000" lon="-72.956960000">
<ele>0</ele>
<time>2026-09-04T07:25:51Z</time>
</trkpt>
<trkpt lat="46.518700000" lon="-72.957410000">
<ele>0</ele>
<time>2026-09-04T07:25:52Z</time>
</trkpt>
<trkpt lat="46.518990000" lon="-72.958240000">
<ele>0</ele>
<time>2026-09-04T07:25:53Z</time>
</trkpt>
<trkpt lat="46.519390000" lon="-72.959420000">
<ele>0</ele>
<time>2026-09-04T07:25:54Z</time>
</trkpt>
<trkpt lat="46.519640000" lon="-72.960260000">
<ele>0</ele>
<time>2026-09-04T07:25:55Z</time>
</trkpt>
<trkpt lat="46.519940000" lon="-72.961350000">
<ele>0</ele>
<time>2026-09-04T07:25:56Z</time>
</trkpt>
<trkpt lat="46.520070000" lon="-72.961830000">
<ele>0</ele>
<time>2026-09-04T07:25:57Z</time>
</trkpt>
<trkpt lat="46.520210000" lon="-72.962300000">
<ele>0</ele>
<time>2026-09-04T07:25:58Z</time>
</trkpt>
<trkpt lat="46.520350000" lon="-72.962640000">
<ele>0</ele>
<time>2026-09-04T07:25:59Z</time>
</trkpt>
<trkpt lat="46.520430000" lon="-72.962830000">
<ele>0</ele>
<time>2026-09-04T07:26:00Z</time>
</trkpt>
<trkpt lat="46.520510000" lon="-72.962970000">
<ele>0</ele>
<time>2026-09-04T07:26:01Z</time>
</trkpt>
<trkpt lat="46.520700000" lon="-72.963190000">
<ele>0</ele>
<time>2026-09-04T07:26:02Z</time>
</trkpt>
<trkpt lat="46.520930000" lon="-72.963370000">
<ele>0</ele>
<time>2026-09-04T07:26:03Z</time>
</trkpt>
<trkpt lat="46.521060000" lon="-72.963430000">
<ele>0</ele>
<time>2026-09-04T07:26:04Z</time>
</trkpt>
<trkpt lat="46.521230000" lon="-72.963480000">
<ele>0</ele>
<time>2026-09-04T07:26:05Z</time>
</trkpt>
<trkpt lat="46.521410000" lon="-72.963480000">
<ele>0</ele>
<time>2026-09-04T07:26:06Z</time>
</trkpt>
<trkpt lat="46.521720000" lon="-72.963400000">
<ele>0</ele>
<time>2026-09-04T07:26:07Z</time>
</trkpt>
<trkpt lat="46.522360000" lon="-72.963150000">
<ele>0</ele>
<time>2026-09-04T07:26:08Z</time>
</trkpt>
<trkpt lat="46.522700000" lon="-72.962980000">
<ele>0</ele>
<time>2026-09-04T07:26:09Z</time>
</trkpt>
<trkpt lat="46.522860000" lon="-72.962850000">
<ele>0</ele>
<time>2026-09-04T07:26:10Z</time>
</trkpt>
<trkpt lat="46.523120000" lon="-72.962610000">
<ele>0</ele>
<time>2026-09-04T07:26:11Z</time>
</trkpt>
<trkpt lat="46.523720000" lon="-72.962010000">
<ele>0</ele>
<time>2026-09-04T07:26:12Z</time>
</trkpt>
<trkpt lat="46.524180000" lon="-72.961590000">
<ele>0</ele>
<time>2026-09-04T07:26:13Z</time>
</trkpt>
<trkpt lat="46.524510000" lon="-72.961360000">
<ele>0</ele>
<time>2026-09-04T07:26:14Z</time>
</trkpt>
<trkpt lat="46.524790000" lon="-72.961200000">
<ele>0</ele>
<time>2026-09-04T07:26:15Z</time>
</trkpt>
<trkpt lat="46.525040000" lon="-72.961110000">
<ele>0</ele>
<time>2026-09-04T07:26:16Z</time>
</trkpt>
<trkpt lat="46.525310000" lon="-72.961060000">
<ele>0</ele>
<time>2026-09-04T07:26:17Z</time>
</trkpt>
<trkpt lat="46.525450000" lon="-72.960950000">
<ele>0</ele>
<time>2026-09-04T07:26:18Z</time>
</trkpt>
<trkpt lat="46.525660000" lon="-72.960710000">
<ele>0</ele>
<time>2026-09-04T07:26:19Z</time>
</trkpt>
<trkpt lat="46.525930000" lon="-72.960360000">
<ele>0</ele>
<time>2026-09-04T07:26:20Z</time>
</trkpt>
<trkpt lat="46.526300000" lon="-72.959920000">
<ele>0</ele>
<time>2026-09-04T07:26:21Z</time>
</trkpt>
<trkpt lat="46.526490000" lon="-72.959750000">
<ele>0</ele>
<time>2026-09-04T07:26:22Z</time>
</trkpt>
<trkpt lat="46.526670000" lon="-72.959640000">
<ele>0</ele>
<time>2026-09-04T07:26:23Z</time>
</trkpt>
<trkpt lat="46.526870000" lon="-72.959560000">
<ele>0</ele>
<time>2026-09-04T07:26:24Z</time>
</trkpt>
<trkpt lat="46.527000000" lon="-72.959540000">
<ele>0</ele>
<time>2026-09-04T07:26:25Z</time>
</trkpt>
<trkpt lat="46.527270000" lon="-72.959550000">
<ele>0</ele>
<time>2026-09-04T07:26:26Z</time>
</trkpt>
<trkpt lat="46.527590000" lon="-72.959600000">
<ele>0</ele>
<time>2026-09-04T07:26:27Z</time>
</trkpt>
<trkpt lat="46.527720000" lon="-72.959580000">
<ele>0</ele>
<time>2026-09-04T07:26:28Z</time>
</trkpt>
<trkpt lat="46.527840000" lon="-72.959540000">
<ele>0</ele>
<time>2026-09-04T07:26:29Z</time>
</trkpt>
<trkpt lat="46.528060000" lon="-72.959410000">
<ele>0</ele>
<time>2026-09-04T07:26:30Z</time>
</trkpt>
<trkpt lat="46.528240000" lon="-72.959260000">
<ele>0</ele>
<time>2026-09-04T07:26:31Z</time>
</trkpt>
<trkpt lat="46.528660000" lon="-72.958840000">
<ele>0</ele>
<time>2026-09-04T07:26:32Z</time>
</trkpt>
<trkpt lat="46.529090000" lon="-72.958390000">
<ele>0</ele>
<time>2026-09-04T07:26:33Z</time>
</trkpt>
<trkpt lat="46.529200000" lon="-72.958180000">
<ele>0</ele>
<time>2026-09-04T07:26:34Z</time>
</trkpt>
<trkpt lat="46.529250000" lon="-72.957920000">
<ele>0</ele>
<time>2026-09-04T07:26:35Z</time>
</trkpt>
<trkpt lat="46.529320000" lon="-72.957400000">
<ele>0</ele>
<time>2026-09-04T07:26:36Z</time>
</trkpt>
<trkpt lat="46.529420000" lon="-72.957090000">
<ele>0</ele>
<time>2026-09-04T07:26:37Z</time>
</trkpt>
<trkpt lat="46.529600000" lon="-72.956790000">
<ele>0</ele>
<time>2026-09-04T07:26:38Z</time>
</trkpt>
<trkpt lat="46.530490000" lon="-72.955680000">
<ele>0</ele>
<time>2026-09-04T07:26:39Z</time>
</trkpt>
<trkpt lat="46.530980000" lon="-72.955080000">
<ele>0</ele>
<time>2026-09-04T07:26:40Z</time>
</trkpt>
<trkpt lat="46.531380000" lon="-72.954550000">
<ele>0</ele>
<time>2026-09-04T07:26:41Z</time>
</trkpt>
<trkpt lat="46.531660000" lon="-72.954070000">
<ele>0</ele>
<time>2026-09-04T07:26:42Z</time>
</trkpt>
<trkpt lat="46.531820000" lon="-72.953730000">
<ele>0</ele>
<time>2026-09-04T07:26:43Z</time>
</trkpt>
<trkpt lat="46.532180000" lon="-72.952830000">
<ele>0</ele>
<time>2026-09-04T07:26:44Z</time>
</trkpt>
<trkpt lat="46.532460000" lon="-72.952160000">
<ele>0</ele>
<time>2026-09-04T07:26:45Z</time>
</trkpt>
<trkpt lat="46.532570000" lon="-72.951920000">
<ele>0</ele>
<time>2026-09-04T07:26:46Z</time>
</trkpt>
<trkpt lat="46.532680000" lon="-72.951740000">
<ele>0</ele>
<time>2026-09-04T07:26:47Z</time>
</trkpt>
<trkpt lat="46.532870000" lon="-72.951500000">
<ele>0</ele>
<time>2026-09-04T07:26:48Z</time>
</trkpt>
<trkpt lat="46.533110000" lon="-72.951280000">
<ele>0</ele>
<time>2026-09-04T07:26:49Z</time>
</trkpt>
<trkpt lat="46.533430000" lon="-72.951040000">
<ele>0</ele>
<time>2026-09-04T07:26:50Z</time>
</trkpt>
<trkpt lat="46.534030000" lon="-72.950650000">
<ele>0</ele>
<time>2026-09-04T07:26:51Z</time>
</trkpt>
<trkpt lat="46.534430000" lon="-72.950410000">
<ele>0</ele>
<time>2026-09-04T07:26:52Z</time>
</trkpt>
<trkpt lat="46.534600000" lon="-72.950370000">
<ele>0</ele>
<time>2026-09-04T07:26:53Z</time>
</trkpt>
<trkpt lat="46.534780000" lon="-72.950390000">
<ele>0</ele>
<time>2026-09-04T07:26:54Z</time>
</trkpt>
<trkpt lat="46.535140000" lon="-72.950500000">
<ele>0</ele>
<time>2026-09-04T07:26:55Z</time>
</trkpt>
<trkpt lat="46.535430000" lon="-72.950640000">
<ele>0</ele>
<time>2026-09-04T07:26:56Z</time>
</trkpt>
<trkpt lat="46.535570000" lon="-72.950740000">
<ele>0</ele>
<time>2026-09-04T07:26:57Z</time>
</trkpt>
<trkpt lat="46.535820000" lon="-72.950960000">
<ele>0</ele>
<time>2026-09-04T07:26:58Z</time>
</trkpt>
<trkpt lat="46.535960000" lon="-72.951150000">
<ele>0</ele>
<time>2026-09-04T07:26:59Z</time>
</trkpt>
<trkpt lat="46.536480000" lon="-72.951860000">
<ele>0</ele>
<time>2026-09-04T07:27:00Z</time>
</trkpt>
<trkpt lat="46.536620000" lon="-72.952020000">
<ele>0</ele>
<time>2026-09-04T07:27:01Z</time>
</trkpt>
<trkpt lat="46.536860000" lon="-72.952250000">
<ele>0</ele>
<time>2026-09-04T07:27:02Z</time>
</trkpt>
<trkpt lat="46.537140000" lon="-72.952460000">
<ele>0</ele>
<time>2026-09-04T07:27:03Z</time>
</trkpt>
<trkpt lat="46.537420000" lon="-72.952610000">
<ele>0</ele>
<time>2026-09-04T07:27:04Z</time>
</trkpt>
<trkpt lat="46.537700000" lon="-72.952690000">
<ele>0</ele>
<time>2026-09-04T07:27:05Z</time>
</trkpt>
<trkpt lat="46.537800000" lon="-72.952700000">
<ele>0</ele>
<time>2026-09-04T07:27:06Z</time>
</trkpt>
<trkpt lat="46.538020000" lon="-72.952650000">
<ele>0</ele>
<time>2026-09-04T07:27:07Z</time>
</trkpt>
<trkpt lat="46.538550000" lon="-72.952420000">
<ele>0</ele>
<time>2026-09-04T07:27:08Z</time>
</trkpt>
<trkpt lat="46.539110000" lon="-72.952160000">
<ele>0</ele>
<time>2026-09-04T07:27:09Z</time>
</trkpt>
<trkpt lat="46.539310000" lon="-72.952100000">
<ele>0</ele>
<time>2026-09-04T07:27:10Z</time>
</trkpt>
<trkpt lat="46.539460000" lon="-72.952100000">
<ele>0</ele>
<time>2026-09-04T07:27:11Z</time>
</trkpt>
<trkpt lat="46.539630000" lon="-72.952170000">
<ele>0</ele>
<time>2026-09-04T07:27:12Z</time>
</trkpt>
<trkpt lat="46.539890000" lon="-72.952380000">
<ele>0</ele>
<time>2026-09-04T07:27:13Z</time>
</trkpt>
<trkpt lat="46.540100000" lon="-72.952580000">
<ele>0</ele>
<time>2026-09-04T07:27:14Z</time>
</trkpt>
<trkpt lat="46.540270000" lon="-72.952750000">
<ele>0</ele>
<time>2026-09-04T07:27:15Z</time>
</trkpt>
<trkpt lat="46.540680000" lon="-72.953240000">
<ele>0</ele>
<time>2026-09-04T07:27:16Z</time>
</trkpt>
<trkpt lat="46.541350000" lon="-72.954040000">
<ele>0</ele>
<time>2026-09-04T07:27:17Z</time>
</trkpt>
<trkpt lat="46.541650000" lon="-72.954430000">
<ele>0</ele>
<time>2026-09-04T07:27:18Z</time>
</trkpt>
<trkpt lat="46.541910000" lon="-72.954820000">
<ele>0</ele>
<time>2026-09-04T07:27:19Z</time>
</trkpt>
<trkpt lat="46.542090000" lon="-72.955030000">
<ele>0</ele>
<time>2026-09-04T07:27:20Z</time>
</trkpt>
<trkpt lat="46.542180000" lon="-72.955100000">
<ele>0</ele>
<time>2026-09-04T07:27:21Z</time>
</trkpt>
<trkpt lat="46.542430000" lon="-72.955220000">
<ele>0</ele>
<time>2026-09-04T07:27:22Z</time>
</trkpt>
<trkpt lat="46.542500000" lon="-72.955240000">
<ele>0</ele>
<time>2026-09-04T07:27:23Z</time>
</trkpt>
<trkpt lat="46.542690000" lon="-72.955230000">
<ele>0</ele>
<time>2026-09-04T07:27:24Z</time>
</trkpt>
<trkpt lat="46.542930000" lon="-72.955130000">
<ele>0</ele>
<time>2026-09-04T07:27:25Z</time>
</trkpt>
<trkpt lat="46.543100000" lon="-72.954960000">
<ele>0</ele>
<time>2026-09-04T07:27:26Z</time>
</trkpt>
<trkpt lat="46.543220000" lon="-72.954770000">
<ele>0</ele>
<time>2026-09-04T07:27:27Z</time>
</trkpt>
<trkpt lat="46.543300000" lon="-72.954540000">
<ele>0</ele>
<time>2026-09-04T07:27:28Z</time>
</trkpt>
<trkpt lat="46.543470000" lon="-72.954080000">
<ele>0</ele>
<time>2026-09-04T07:27:29Z</time>
</trkpt>
<trkpt lat="46.543650000" lon="-72.953670000">
<ele>0</ele>
<time>2026-09-04T07:27:30Z</time>
</trkpt>
<trkpt lat="46.543790000" lon="-72.953210000">
<ele>0</ele>
<time>2026-09-04T07:27:31Z</time>
</trkpt>
<trkpt lat="46.543900000" lon="-72.952670000">
<ele>0</ele>
<time>2026-09-04T07:27:32Z</time>
</trkpt>
<trkpt lat="46.543960000" lon="-72.952420000">
<ele>0</ele>
<time>2026-09-04T07:27:33Z</time>
</trkpt>
<trkpt lat="46.544040000" lon="-72.952160000">
<ele>0</ele>
<time>2026-09-04T07:27:34Z</time>
</trkpt>
<trkpt lat="46.544150000" lon="-72.951950000">
<ele>0</ele>
<time>2026-09-04T07:27:35Z</time>
</trkpt>
<trkpt lat="46.544900000" lon="-72.950690000">
<ele>0</ele>
<time>2026-09-04T07:27:36Z</time>
</trkpt>
<trkpt lat="46.545480000" lon="-72.949820000">
<ele>0</ele>
<time>2026-09-04T07:27:37Z</time>
</trkpt>
<trkpt lat="46.545960000" lon="-72.949180000">
<ele>0</ele>
<time>2026-09-04T07:27:38Z</time>
</trkpt>
<trkpt lat="46.546240000" lon="-72.948850000">
<ele>0</ele>
<time>2026-09-04T07:27:39Z</time>
</trkpt>
<trkpt lat="46.546380000" lon="-72.948700000">
<ele>0</ele>
<time>2026-09-04T07:27:40Z</time>
</trkpt>
<trkpt lat="46.546920000" lon="-72.948230000">
<ele>0</ele>
<time>2026-09-04T07:27:41Z</time>
</trkpt>
<trkpt lat="46.547230000" lon="-72.947960000">
<ele>0</ele>
<time>2026-09-04T07:27:42Z</time>
</trkpt>
<trkpt lat="46.547370000" lon="-72.947840000">
<ele>0</ele>
<time>2026-09-04T07:27:43Z</time>
</trkpt>
<trkpt lat="46.547550000" lon="-72.947740000">
<ele>0</ele>
<time>2026-09-04T07:27:44Z</time>
</trkpt>
<trkpt lat="46.547650000" lon="-72.947730000">
<ele>0</ele>
<time>2026-09-04T07:27:45Z</time>
</trkpt>
<trkpt lat="46.547920000" lon="-72.947690000">
<ele>0</ele>
<time>2026-09-04T07:27:46Z</time>
</trkpt>
<trkpt lat="46.548110000" lon="-72.947730000">
<ele>0</ele>
<time>2026-09-04T07:27:47Z</time>
</trkpt>
<trkpt lat="46.548430000" lon="-72.947880000">
<ele>0</ele>
<time>2026-09-04T07:27:48Z</time>
</trkpt>
<trkpt lat="46.548610000" lon="-72.947900000">
<ele>0</ele>
<time>2026-09-04T07:27:49Z</time>
</trkpt>
<trkpt lat="46.548740000" lon="-72.947880000">
<ele>0</ele>
<time>2026-09-04T07:27:50Z</time>
</trkpt>
<trkpt lat="46.548960000" lon="-72.947800000">
<ele>0</ele>
<time>2026-09-04T07:27:51Z</time>
</trkpt>
<trkpt lat="46.549170000" lon="-72.947670000">
<ele>0</ele>
<time>2026-09-04T07:27:52Z</time>
</trkpt>
<trkpt lat="46.549360000" lon="-72.947510000">
<ele>0</ele>
<time>2026-09-04T07:27:53Z</time>
</trkpt>
<trkpt lat="46.549570000" lon="-72.947270000">
<ele>0</ele>
<time>2026-09-04T07:27:54Z</time>
</trkpt>
<trkpt lat="46.549830000" lon="-72.946950000">
<ele>0</ele>
<time>2026-09-04T07:27:55Z</time>
</trkpt>
<trkpt lat="46.550240000" lon="-72.946470000">
<ele>0</ele>
<time>2026-09-04T07:27:56Z</time>
</trkpt>
<trkpt lat="46.550730000" lon="-72.946030000">
<ele>0</ele>
<time>2026-09-04T07:27:57Z</time>
</trkpt>
<trkpt lat="46.551190000" lon="-72.945630000">
<ele>0</ele>
<time>2026-09-04T07:27:58Z</time>
</trkpt>
<trkpt lat="46.552090000" lon="-72.944980000">
<ele>0</ele>
<time>2026-09-04T07:27:59Z</time>
</trkpt>
<trkpt lat="46.552580000" lon="-72.944660000">
<ele>0</ele>
<time>2026-09-04T07:28:00Z</time>
</trkpt>
<trkpt lat="46.552750000" lon="-72.944560000">
<ele>0</ele>
<time>2026-09-04T07:28:01Z</time>
</trkpt>
<trkpt lat="46.553010000" lon="-72.944470000">
<ele>0</ele>
<time>2026-09-04T07:28:02Z</time>
</trkpt>
<trkpt lat="46.553750000" lon="-72.944180000">
<ele>0</ele>
<time>2026-09-04T07:28:03Z</time>
</trkpt>
<trkpt lat="46.554040000" lon="-72.944040000">
<ele>0</ele>
<time>2026-09-04T07:28:04Z</time>
</trkpt>
<trkpt lat="46.554240000" lon="-72.943860000">
<ele>0</ele>
<time>2026-09-04T07:28:05Z</time>
</trkpt>
<trkpt lat="46.554540000" lon="-72.943520000">
<ele>0</ele>
<time>2026-09-04T07:28:06Z</time>
</trkpt>
<trkpt lat="46.555000000" lon="-72.942900000">
<ele>0</ele>
<time>2026-09-04T07:28:07Z</time>
</trkpt>
<trkpt lat="46.555630000" lon="-72.942030000">
<ele>0</ele>
<time>2026-09-04T07:28:08Z</time>
</trkpt>
<trkpt lat="46.556310000" lon="-72.941160000">
<ele>0</ele>
<time>2026-09-04T07:28:09Z</time>
</trkpt>
<trkpt lat="46.556710000" lon="-72.940650000">
<ele>0</ele>
<time>2026-09-04T07:28:10Z</time>
</trkpt>
<trkpt lat="46.557340000" lon="-72.939890000">
<ele>0</ele>
<time>2026-09-04T07:28:11Z</time>
</trkpt>
<trkpt lat="46.557570000" lon="-72.939560000">
<ele>0</ele>
<time>2026-09-04T07:28:12Z</time>
</trkpt>
<trkpt lat="46.558030000" lon="-72.938870000">
<ele>0</ele>
<time>2026-09-04T07:28:13Z</time>
</trkpt>
<trkpt lat="46.558310000" lon="-72.938480000">
<ele>0</ele>
<time>2026-09-04T07:28:14Z</time>
</trkpt>
<trkpt lat="46.558680000" lon="-72.938030000">
<ele>0</ele>
<time>2026-09-04T07:28:15Z</time>
</trkpt>
<trkpt lat="46.558930000" lon="-72.937670000">
<ele>0</ele>
<time>2026-09-04T07:28:16Z</time>
</trkpt>
<trkpt lat="46.559310000" lon="-72.937270000">
<ele>0</ele>
<time>2026-09-04T07:28:17Z</time>
</trkpt>
<trkpt lat="46.559530000" lon="-72.937080000">
<ele>0</ele>
<time>2026-09-04T07:28:18Z</time>
</trkpt>
<trkpt lat="46.559930000" lon="-72.936850000">
<ele>0</ele>
<time>2026-09-04T07:28:19Z</time>
</trkpt>
<trkpt lat="46.561120000" lon="-72.936100000">
<ele>0</ele>
<time>2026-09-04T07:28:20Z</time>
</trkpt>
<trkpt lat="46.561560000" lon="-72.935760000">
<ele>0</ele>
<time>2026-09-04T07:28:21Z</time>
</trkpt>
<trkpt lat="46.561870000" lon="-72.935560000">
<ele>0</ele>
<time>2026-09-04T07:28:22Z</time>
</trkpt>
<trkpt lat="46.562310000" lon="-72.935190000">
<ele>0</ele>
<time>2026-09-04T07:28:23Z</time>
</trkpt>
<trkpt lat="46.562910000" lon="-72.934490000">
<ele>0</ele>
<time>2026-09-04T07:28:24Z</time>
</trkpt>
<trkpt lat="46.563360000" lon="-72.933900000">
<ele>0</ele>
<time>2026-09-04T07:28:25Z</time>
</trkpt>
<trkpt lat="46.563560000" lon="-72.933690000">
<ele>0</ele>
<time>2026-09-04T07:28:26Z</time>
</trkpt>
<trkpt lat="46.563990000" lon="-72.933230000">
<ele>0</ele>
<time>2026-09-04T07:28:27Z</time>
</trkpt>
<trkpt lat="46.564580000" lon="-72.932640000">
<ele>0</ele>
<time>2026-09-04T07:28:28Z</time>
</trkpt>
<trkpt lat="46.564970000" lon="-72.932240000">
<ele>0</ele>
<time>2026-09-04T07:28:29Z</time>
</trkpt>
<trkpt lat="46.565370000" lon="-72.931580000">
<ele>0</ele>
<time>2026-09-04T07:28:30Z</time>
</trkpt>
<trkpt lat="46.565680000" lon="-72.931010000">
<ele>0</ele>
<time>2026-09-04T07:28:31Z</time>
</trkpt>
<trkpt lat="46.565950000" lon="-72.930580000">
<ele>0</ele>
<time>2026-09-04T07:28:32Z</time>
</trkpt>
<trkpt lat="46.566300000" lon="-72.930250000">
<ele>0</ele>
<time>2026-09-04T07:28:33Z</time>
</trkpt>
<trkpt lat="46.566630000" lon="-72.930030000">
<ele>0</ele>
<time>2026-09-04T07:28:34Z</time>
</trkpt>
<trkpt lat="46.567470000" lon="-72.929540000">
<ele>0</ele>
<time>2026-09-04T07:28:35Z</time>
</trkpt>
<trkpt lat="46.567730000" lon="-72.929410000">
<ele>0</ele>
<time>2026-09-04T07:28:36Z</time>
</trkpt>
<trkpt lat="46.568170000" lon="-72.929270000">
<ele>0</ele>
<time>2026-09-04T07:28:37Z</time>
</trkpt>
<trkpt lat="46.568700000" lon="-72.929220000">
<ele>0</ele>
<time>2026-09-04T07:28:38Z</time>
</trkpt>
<trkpt lat="46.568870000" lon="-72.929140000">
<ele>0</ele>
<time>2026-09-04T07:28:39Z</time>
</trkpt>
<trkpt lat="46.569060000" lon="-72.928990000">
<ele>0</ele>
<time>2026-09-04T07:28:40Z</time>
</trkpt>
<trkpt lat="46.569220000" lon="-72.928830000">
<ele>0</ele>
<time>2026-09-04T07:28:41Z</time>
</trkpt>
<trkpt lat="46.569510000" lon="-72.928420000">
<ele>0</ele>
<time>2026-09-04T07:28:42Z</time>
</trkpt>
<trkpt lat="46.569950000" lon="-72.927760000">
<ele>0</ele>
<time>2026-09-04T07:28:43Z</time>
</trkpt>
<trkpt lat="46.570380000" lon="-72.927130000">
<ele>0</ele>
<time>2026-09-04T07:28:44Z</time>
</trkpt>
<trkpt lat="46.571260000" lon="-72.925760000">
<ele>0</ele>
<time>2026-09-04T07:28:45Z</time>
</trkpt>
<trkpt lat="46.571870000" lon="-72.924840000">
<ele>0</ele>
<time>2026-09-04T07:28:46Z</time>
</trkpt>
<trkpt lat="46.572500000" lon="-72.923910000">
<ele>0</ele>
<time>2026-09-04T07:28:47Z</time>
</trkpt>
<trkpt lat="46.573150000" lon="-72.922920000">
<ele>0</ele>
<time>2026-09-04T07:28:48Z</time>
</trkpt>
<trkpt lat="46.573130000" lon="-72.922880000">
<ele>0</ele>
<time>2026-09-04T07:28:49Z</time>
</trkpt>
<trkpt lat="46.573130000" lon="-72.922880000">
<ele>0</ele>
<time>2026-09-04T07:28:50Z</time>
</trkpt>
<trkpt lat="46.573150000" lon="-72.922920000">
<ele>0</ele>
<time>2026-09-04T07:28:51Z</time>
</trkpt>
<trkpt lat="46.572500000" lon="-72.923910000">
<ele>0</ele>
<time>2026-09-04T07:28:52Z</time>
</trkpt>
<trkpt lat="46.571870000" lon="-72.924840000">
<ele>0</ele>
<time>2026-09-04T07:28:53Z</time>
</trkpt>
<trkpt lat="46.570710000" lon="-72.926640000">
<ele>0</ele>
<time>2026-09-04T07:28:54Z</time>
</trkpt>
<trkpt lat="46.570070000" lon="-72.927570000">
<ele>0</ele>
<time>2026-09-04T07:28:55Z</time>
</trkpt>
<trkpt lat="46.569950000" lon="-72.927760000">
<ele>0</ele>
<time>2026-09-04T07:28:56Z</time>
</trkpt>
<trkpt lat="46.569510000" lon="-72.928420000">
<ele>0</ele>
<time>2026-09-04T07:28:57Z</time>
</trkpt>
<trkpt lat="46.569220000" lon="-72.928830000">
<ele>0</ele>
<time>2026-09-04T07:28:58Z</time>
</trkpt>
<trkpt lat="46.569060000" lon="-72.928990000">
<ele>0</ele>
<time>2026-09-04T07:28:59Z</time>
</trkpt>
<trkpt lat="46.568870000" lon="-72.929140000">
<ele>0</ele>
<time>2026-09-04T07:29:00Z</time>
</trkpt>
<trkpt lat="46.568700000" lon="-72.929220000">
<ele>0</ele>
<time>2026-09-04T07:29:01Z</time>
</trkpt>
<trkpt lat="46.568170000" lon="-72.929270000">
<ele>0</ele>
<time>2026-09-04T07:29:02Z</time>
</trkpt>
<trkpt lat="46.567840000" lon="-72.929370000">
<ele>0</ele>
<time>2026-09-04T07:29:03Z</time>
</trkpt>
<trkpt lat="46.567620000" lon="-72.929460000">
<ele>0</ele>
<time>2026-09-04T07:29:04Z</time>
</trkpt>
<trkpt lat="46.567120000" lon="-72.929740000">
<ele>0</ele>
<time>2026-09-04T07:29:05Z</time>
</trkpt>
<trkpt lat="46.566630000" lon="-72.930030000">
<ele>0</ele>
<time>2026-09-04T07:29:06Z</time>
</trkpt>
<trkpt lat="46.566300000" lon="-72.930250000">
<ele>0</ele>
<time>2026-09-04T07:29:07Z</time>
</trkpt>
<trkpt lat="46.565950000" lon="-72.930580000">
<ele>0</ele>
<time>2026-09-04T07:29:08Z</time>
</trkpt>
<trkpt lat="46.565680000" lon="-72.931010000">
<ele>0</ele>
<time>2026-09-04T07:29:09Z</time>
</trkpt>
<trkpt lat="46.565370000" lon="-72.931580000">
<ele>0</ele>
<time>2026-09-04T07:29:10Z</time>
</trkpt>
<trkpt lat="46.564970000" lon="-72.932240000">
<ele>0</ele>
<time>2026-09-04T07:29:11Z</time>
</trkpt>
<trkpt lat="46.564290000" lon="-72.932930000">
<ele>0</ele>
<time>2026-09-04T07:29:12Z</time>
</trkpt>
<trkpt lat="46.563560000" lon="-72.933690000">
<ele>0</ele>
<time>2026-09-04T07:29:13Z</time>
</trkpt>
<trkpt lat="46.563360000" lon="-72.933900000">
<ele>0</ele>
<time>2026-09-04T07:29:14Z</time>
</trkpt>
<trkpt lat="46.562910000" lon="-72.934490000">
<ele>0</ele>
<time>2026-09-04T07:29:15Z</time>
</trkpt>
<trkpt lat="46.562310000" lon="-72.935190000">
<ele>0</ele>
<time>2026-09-04T07:29:16Z</time>
</trkpt>
<trkpt lat="46.561870000" lon="-72.935560000">
<ele>0</ele>
<time>2026-09-04T07:29:17Z</time>
</trkpt>
<trkpt lat="46.561560000" lon="-72.935760000">
<ele>0</ele>
<time>2026-09-04T07:29:18Z</time>
</trkpt>
<trkpt lat="46.561120000" lon="-72.936100000">
<ele>0</ele>
<time>2026-09-04T07:29:19Z</time>
</trkpt>
<trkpt lat="46.560710000" lon="-72.936370000">
<ele>0</ele>
<time>2026-09-04T07:29:20Z</time>
</trkpt>
<trkpt lat="46.559530000" lon="-72.937080000">
<ele>0</ele>
<time>2026-09-04T07:29:21Z</time>
</trkpt>
<trkpt lat="46.559160000" lon="-72.937410000">
<ele>0</ele>
<time>2026-09-04T07:29:22Z</time>
</trkpt>
<trkpt lat="46.558930000" lon="-72.937670000">
<ele>0</ele>
<time>2026-09-04T07:29:23Z</time>
</trkpt>
<trkpt lat="46.558680000" lon="-72.938030000">
<ele>0</ele>
<time>2026-09-04T07:29:24Z</time>
</trkpt>
<trkpt lat="46.558310000" lon="-72.938480000">
<ele>0</ele>
<time>2026-09-04T07:29:25Z</time>
</trkpt>
<trkpt lat="46.558030000" lon="-72.938870000">
<ele>0</ele>
<time>2026-09-04T07:29:26Z</time>
</trkpt>
<trkpt lat="46.557570000" lon="-72.939560000">
<ele>0</ele>
<time>2026-09-04T07:29:27Z</time>
</trkpt>
<trkpt lat="46.557340000" lon="-72.939890000">
<ele>0</ele>
<time>2026-09-04T07:29:28Z</time>
</trkpt>
<trkpt lat="46.556710000" lon="-72.940650000">
<ele>0</ele>
<time>2026-09-04T07:29:29Z</time>
</trkpt>
<trkpt lat="46.556310000" lon="-72.941160000">
<ele>0</ele>
<time>2026-09-04T07:29:30Z</time>
</trkpt>
<trkpt lat="46.555900000" lon="-72.941680000">
<ele>0</ele>
<time>2026-09-04T07:29:31Z</time>
</trkpt>
<trkpt lat="46.555000000" lon="-72.942900000">
<ele>0</ele>
<time>2026-09-04T07:29:32Z</time>
</trkpt>
<trkpt lat="46.554540000" lon="-72.943520000">
<ele>0</ele>
<time>2026-09-04T07:29:33Z</time>
</trkpt>
<trkpt lat="46.554240000" lon="-72.943860000">
<ele>0</ele>
<time>2026-09-04T07:29:34Z</time>
</trkpt>
<trkpt lat="46.554040000" lon="-72.944040000">
<ele>0</ele>
<time>2026-09-04T07:29:35Z</time>
</trkpt>
<trkpt lat="46.553930000" lon="-72.944100000">
<ele>0</ele>
<time>2026-09-04T07:29:36Z</time>
</trkpt>
<trkpt lat="46.553440000" lon="-72.944300000">
<ele>0</ele>
<time>2026-09-04T07:29:37Z</time>
</trkpt>
<trkpt lat="46.552750000" lon="-72.944560000">
<ele>0</ele>
<time>2026-09-04T07:29:38Z</time>
</trkpt>
<trkpt lat="46.552250000" lon="-72.944870000">
<ele>0</ele>
<time>2026-09-04T07:29:39Z</time>
</trkpt>
<trkpt lat="46.551600000" lon="-72.945330000">
<ele>0</ele>
<time>2026-09-04T07:29:40Z</time>
</trkpt>
<trkpt lat="46.551190000" lon="-72.945630000">
<ele>0</ele>
<time>2026-09-04T07:29:41Z</time>
</trkpt>
<trkpt lat="46.550730000" lon="-72.946030000">
<ele>0</ele>
<time>2026-09-04T07:29:42Z</time>
</trkpt>
<trkpt lat="46.550240000" lon="-72.946470000">
<ele>0</ele>
<time>2026-09-04T07:29:43Z</time>
</trkpt>
<trkpt lat="46.549830000" lon="-72.946950000">
<ele>0</ele>
<time>2026-09-04T07:29:44Z</time>
</trkpt>
<trkpt lat="46.549470000" lon="-72.947400000">
<ele>0</ele>
<time>2026-09-04T07:29:45Z</time>
</trkpt>
<trkpt lat="46.549170000" lon="-72.947670000">
<ele>0</ele>
<time>2026-09-04T07:29:46Z</time>
</trkpt>
<trkpt lat="46.548960000" lon="-72.947800000">
<ele>0</ele>
<time>2026-09-04T07:29:47Z</time>
</trkpt>
<trkpt lat="46.548860000" lon="-72.947840000">
<ele>0</ele>
<time>2026-09-04T07:29:48Z</time>
</trkpt>
<trkpt lat="46.548740000" lon="-72.947880000">
<ele>0</ele>
<time>2026-09-04T07:29:49Z</time>
</trkpt>
<trkpt lat="46.548610000" lon="-72.947900000">
<ele>0</ele>
<time>2026-09-04T07:29:50Z</time>
</trkpt>
<trkpt lat="46.548430000" lon="-72.947880000">
<ele>0</ele>
<time>2026-09-04T07:29:51Z</time>
</trkpt>
<trkpt lat="46.548260000" lon="-72.947810000">
<ele>0</ele>
<time>2026-09-04T07:29:52Z</time>
</trkpt>
<trkpt lat="46.548110000" lon="-72.947730000">
<ele>0</ele>
<time>2026-09-04T07:29:53Z</time>
</trkpt>
<trkpt lat="46.547920000" lon="-72.947690000">
<ele>0</ele>
<time>2026-09-04T07:29:54Z</time>
</trkpt>
<trkpt lat="46.547650000" lon="-72.947730000">
<ele>0</ele>
<time>2026-09-04T07:29:55Z</time>
</trkpt>
<trkpt lat="46.547550000" lon="-72.947740000">
<ele>0</ele>
<time>2026-09-04T07:29:56Z</time>
</trkpt>
<trkpt lat="46.547370000" lon="-72.947840000">
<ele>0</ele>
<time>2026-09-04T07:29:57Z</time>
</trkpt>
<trkpt lat="46.547230000" lon="-72.947960000">
<ele>0</ele>
<time>2026-09-04T07:29:58Z</time>
</trkpt>
<trkpt lat="46.547070000" lon="-72.948100000">
<ele>0</ele>
<time>2026-09-04T07:29:59Z</time>
</trkpt>
<trkpt lat="46.546380000" lon="-72.948700000">
<ele>0</ele>
<time>2026-09-04T07:30:00Z</time>
</trkpt>
<trkpt lat="46.546090000" lon="-72.949010000">
<ele>0</ele>
<time>2026-09-04T07:30:01Z</time>
</trkpt>
<trkpt lat="46.545740000" lon="-72.949450000">
<ele>0</ele>
<time>2026-09-04T07:30:02Z</time>
</trkpt>
<trkpt lat="46.545290000" lon="-72.950090000">
<ele>0</ele>
<time>2026-09-04T07:30:03Z</time>
</trkpt>
<trkpt lat="46.544620000" lon="-72.951160000">
<ele>0</ele>
<time>2026-09-04T07:30:04Z</time>
</trkpt>
<trkpt lat="46.544270000" lon="-72.951750000">
<ele>0</ele>
<time>2026-09-04T07:30:05Z</time>
</trkpt>
<trkpt lat="46.544090000" lon="-72.952060000">
<ele>0</ele>
<time>2026-09-04T07:30:06Z</time>
</trkpt>
<trkpt lat="46.543960000" lon="-72.952420000">
<ele>0</ele>
<time>2026-09-04T07:30:07Z</time>
</trkpt>
<trkpt lat="46.543840000" lon="-72.952990000">
<ele>0</ele>
<time>2026-09-04T07:30:08Z</time>
</trkpt>
<trkpt lat="46.543690000" lon="-72.953550000">
<ele>0</ele>
<time>2026-09-04T07:30:09Z</time>
</trkpt>
<trkpt lat="46.543420000" lon="-72.954190000">
<ele>0</ele>
<time>2026-09-04T07:30:10Z</time>
</trkpt>
<trkpt lat="46.543250000" lon="-72.954690000">
<ele>0</ele>
<time>2026-09-04T07:30:11Z</time>
</trkpt>
<trkpt lat="46.543180000" lon="-72.954850000">
<ele>0</ele>
<time>2026-09-04T07:30:12Z</time>
</trkpt>
<trkpt lat="46.543010000" lon="-72.955070000">
<ele>0</ele>
<time>2026-09-04T07:30:13Z</time>
</trkpt>
<trkpt lat="46.542930000" lon="-72.955130000">
<ele>0</ele>
<time>2026-09-04T07:30:14Z</time>
</trkpt>
<trkpt lat="46.542780000" lon="-72.955200000">
<ele>0</ele>
<time>2026-09-04T07:30:15Z</time>
</trkpt>
<trkpt lat="46.542690000" lon="-72.955230000">
<ele>0</ele>
<time>2026-09-04T07:30:16Z</time>
</trkpt>
<trkpt lat="46.542500000" lon="-72.955240000">
<ele>0</ele>
<time>2026-09-04T07:30:17Z</time>
</trkpt>
<trkpt lat="46.542430000" lon="-72.955220000">
<ele>0</ele>
<time>2026-09-04T07:30:18Z</time>
</trkpt>
<trkpt lat="46.542260000" lon="-72.955140000">
<ele>0</ele>
<time>2026-09-04T07:30:19Z</time>
</trkpt>
<trkpt lat="46.542090000" lon="-72.955030000">
<ele>0</ele>
<time>2026-09-04T07:30:20Z</time>
</trkpt>
<trkpt lat="46.541910000" lon="-72.954820000">
<ele>0</ele>
<time>2026-09-04T07:30:21Z</time>
</trkpt>
<trkpt lat="46.541780000" lon="-72.954630000">
<ele>0</ele>
<time>2026-09-04T07:30:22Z</time>
</trkpt>
<trkpt lat="46.541490000" lon="-72.954210000">
<ele>0</ele>
<time>2026-09-04T07:30:23Z</time>
</trkpt>
<trkpt lat="46.541210000" lon="-72.953880000">
<ele>0</ele>
<time>2026-09-04T07:30:24Z</time>
</trkpt>
<trkpt lat="46.540270000" lon="-72.952750000">
<ele>0</ele>
<time>2026-09-04T07:30:25Z</time>
</trkpt>
<trkpt lat="46.539890000" lon="-72.952380000">
<ele>0</ele>
<time>2026-09-04T07:30:26Z</time>
</trkpt>
<trkpt lat="46.539630000" lon="-72.952170000">
<ele>0</ele>
<time>2026-09-04T07:30:27Z</time>
</trkpt>
<trkpt lat="46.539560000" lon="-72.952130000">
<ele>0</ele>
<time>2026-09-04T07:30:28Z</time>
</trkpt>
<trkpt lat="46.539460000" lon="-72.952100000">
<ele>0</ele>
<time>2026-09-04T07:30:29Z</time>
</trkpt>
<trkpt lat="46.539310000" lon="-72.952100000">
<ele>0</ele>
<time>2026-09-04T07:30:30Z</time>
</trkpt>
<trkpt lat="46.539110000" lon="-72.952160000">
<ele>0</ele>
<time>2026-09-04T07:30:31Z</time>
</trkpt>
<trkpt lat="46.538860000" lon="-72.952260000">
<ele>0</ele>
<time>2026-09-04T07:30:32Z</time>
</trkpt>
<trkpt lat="46.538200000" lon="-72.952570000">
<ele>0</ele>
<time>2026-09-04T07:30:33Z</time>
</trkpt>
<trkpt lat="46.538020000" lon="-72.952650000">
<ele>0</ele>
<time>2026-09-04T07:30:34Z</time>
</trkpt>
<trkpt lat="46.537800000" lon="-72.952700000">
<ele>0</ele>
<time>2026-09-04T07:30:35Z</time>
</trkpt>
<trkpt lat="46.537550000" lon="-72.952660000">
<ele>0</ele>
<time>2026-09-04T07:30:36Z</time>
</trkpt>
<trkpt lat="46.537250000" lon="-72.952530000">
<ele>0</ele>
<time>2026-09-04T07:30:37Z</time>
</trkpt>
<trkpt lat="46.537000000" lon="-72.952370000">
<ele>0</ele>
<time>2026-09-04T07:30:38Z</time>
</trkpt>
<trkpt lat="46.536620000" lon="-72.952020000">
<ele>0</ele>
<time>2026-09-04T07:30:39Z</time>
</trkpt>
<trkpt lat="46.536350000" lon="-72.951690000">
<ele>0</ele>
<time>2026-09-04T07:30:40Z</time>
</trkpt>
<trkpt lat="46.535820000" lon="-72.950960000">
<ele>0</ele>
<time>2026-09-04T07:30:41Z</time>
</trkpt>
<trkpt lat="46.535570000" lon="-72.950740000">
<ele>0</ele>
<time>2026-09-04T07:30:42Z</time>
</trkpt>
<trkpt lat="46.535430000" lon="-72.950640000">
<ele>0</ele>
<time>2026-09-04T07:30:43Z</time>
</trkpt>
<trkpt lat="46.535140000" lon="-72.950500000">
<ele>0</ele>
<time>2026-09-04T07:30:44Z</time>
</trkpt>
<trkpt lat="46.534950000" lon="-72.950450000">
<ele>0</ele>
<time>2026-09-04T07:30:45Z</time>
</trkpt>
<trkpt lat="46.534780000" lon="-72.950390000">
<ele>0</ele>
<time>2026-09-04T07:30:46Z</time>
</trkpt>
<trkpt lat="46.534600000" lon="-72.950370000">
<ele>0</ele>
<time>2026-09-04T07:30:47Z</time>
</trkpt>
<trkpt lat="46.534430000" lon="-72.950410000">
<ele>0</ele>
<time>2026-09-04T07:30:48Z</time>
</trkpt>
<trkpt lat="46.534270000" lon="-72.950500000">
<ele>0</ele>
<time>2026-09-04T07:30:49Z</time>
</trkpt>
<trkpt lat="46.533770000" lon="-72.950810000">
<ele>0</ele>
<time>2026-09-04T07:30:50Z</time>
</trkpt>
<trkpt lat="46.533270000" lon="-72.951160000">
<ele>0</ele>
<time>2026-09-04T07:30:51Z</time>
</trkpt>
<trkpt lat="46.532870000" lon="-72.951500000">
<ele>0</ele>
<time>2026-09-04T07:30:52Z</time>
</trkpt>
<trkpt lat="46.532680000" lon="-72.951740000">
<ele>0</ele>
<time>2026-09-04T07:30:53Z</time>
</trkpt>
<trkpt lat="46.532570000" lon="-72.951920000">
<ele>0</ele>
<time>2026-09-04T07:30:54Z</time>
</trkpt>
<trkpt lat="46.532350000" lon="-72.952420000">
<ele>0</ele>
<time>2026-09-04T07:30:55Z</time>
</trkpt>
<trkpt lat="46.531950000" lon="-72.953410000">
<ele>0</ele>
<time>2026-09-04T07:30:56Z</time>
</trkpt>
<trkpt lat="46.531660000" lon="-72.954070000">
<ele>0</ele>
<time>2026-09-04T07:30:57Z</time>
</trkpt>
<trkpt lat="46.531380000" lon="-72.954550000">
<ele>0</ele>
<time>2026-09-04T07:30:58Z</time>
</trkpt>
<trkpt lat="46.531250000" lon="-72.954740000">
<ele>0</ele>
<time>2026-09-04T07:30:59Z</time>
</trkpt>
<trkpt lat="46.530840000" lon="-72.955250000">
<ele>0</ele>
<time>2026-09-04T07:31:00Z</time>
</trkpt>
<trkpt lat="46.529690000" lon="-72.956660000">
<ele>0</ele>
<time>2026-09-04T07:31:01Z</time>
</trkpt>
<trkpt lat="46.529490000" lon="-72.956950000">
<ele>0</ele>
<time>2026-09-04T07:31:02Z</time>
</trkpt>
<trkpt lat="46.529420000" lon="-72.957090000">
<ele>0</ele>
<time>2026-09-04T07:31:03Z</time>
</trkpt>
<trkpt lat="46.529350000" lon="-72.957270000">
<ele>0</ele>
<time>2026-09-04T07:31:04Z</time>
</trkpt>
<trkpt lat="46.529280000" lon="-72.957660000">
<ele>0</ele>
<time>2026-09-04T07:31:05Z</time>
</trkpt>
<trkpt lat="46.529230000" lon="-72.958070000">
<ele>0</ele>
<time>2026-09-04T07:31:06Z</time>
</trkpt>
<trkpt lat="46.529200000" lon="-72.958180000">
<ele>0</ele>
<time>2026-09-04T07:31:07Z</time>
</trkpt>
<trkpt lat="46.529130000" lon="-72.958330000">
<ele>0</ele>
<time>2026-09-04T07:31:08Z</time>
</trkpt>
<trkpt lat="46.528950000" lon="-72.958540000">
<ele>0</ele>
<time>2026-09-04T07:31:09Z</time>
</trkpt>
<trkpt lat="46.528190000" lon="-72.959300000">
<ele>0</ele>
<time>2026-09-04T07:31:10Z</time>
</trkpt>
<trkpt lat="46.527930000" lon="-72.959490000">
<ele>0</ele>
<time>2026-09-04T07:31:11Z</time>
</trkpt>
<trkpt lat="46.527720000" lon="-72.959580000">
<ele>0</ele>
<time>2026-09-04T07:31:12Z</time>
</trkpt>
<trkpt lat="46.527590000" lon="-72.959600000">
<ele>0</ele>
<time>2026-09-04T07:31:13Z</time>
</trkpt>
<trkpt lat="46.527400000" lon="-72.959580000">
<ele>0</ele>
<time>2026-09-04T07:31:14Z</time>
</trkpt>
<trkpt lat="46.527130000" lon="-72.959540000">
<ele>0</ele>
<time>2026-09-04T07:31:15Z</time>
</trkpt>
<trkpt lat="46.526870000" lon="-72.959560000">
<ele>0</ele>
<time>2026-09-04T07:31:16Z</time>
</trkpt>
<trkpt lat="46.526670000" lon="-72.959640000">
<ele>0</ele>
<time>2026-09-04T07:31:17Z</time>
</trkpt>
<trkpt lat="46.526490000" lon="-72.959750000">
<ele>0</ele>
<time>2026-09-04T07:31:18Z</time>
</trkpt>
<trkpt lat="46.526300000" lon="-72.959920000">
<ele>0</ele>
<time>2026-09-04T07:31:19Z</time>
</trkpt>
<trkpt lat="46.526160000" lon="-72.960070000">
<ele>0</ele>
<time>2026-09-04T07:31:20Z</time>
</trkpt>
<trkpt lat="46.525790000" lon="-72.960530000">
<ele>0</ele>
<time>2026-09-04T07:31:21Z</time>
</trkpt>
<trkpt lat="46.525450000" lon="-72.960950000">
<ele>0</ele>
<time>2026-09-04T07:31:22Z</time>
</trkpt>
<trkpt lat="46.525310000" lon="-72.961060000">
<ele>0</ele>
<time>2026-09-04T07:31:23Z</time>
</trkpt>
<trkpt lat="46.525200000" lon="-72.961080000">
<ele>0</ele>
<time>2026-09-04T07:31:24Z</time>
</trkpt>
<trkpt lat="46.525040000" lon="-72.961110000">
<ele>0</ele>
<time>2026-09-04T07:31:25Z</time>
</trkpt>
<trkpt lat="46.524880000" lon="-72.961160000">
<ele>0</ele>
<time>2026-09-04T07:31:26Z</time>
</trkpt>
<trkpt lat="46.524670000" lon="-72.961260000">
<ele>0</ele>
<time>2026-09-04T07:31:27Z</time>
</trkpt>
<trkpt lat="46.524350000" lon="-72.961470000">
<ele>0</ele>
<time>2026-09-04T07:31:28Z</time>
</trkpt>
<trkpt lat="46.524030000" lon="-72.961720000">
<ele>0</ele>
<time>2026-09-04T07:31:29Z</time>
</trkpt>
<trkpt lat="46.522860000" lon="-72.962850000">
<ele>0</ele>
<time>2026-09-04T07:31:30Z</time>
</trkpt>
<trkpt lat="46.522540000" lon="-72.963070000">
<ele>0</ele>
<time>2026-09-04T07:31:31Z</time>
</trkpt>
<trkpt lat="46.522010000" lon="-72.963280000">
<ele>0</ele>
<time>2026-09-04T07:31:32Z</time>
</trkpt>
<trkpt lat="46.521720000" lon="-72.963400000">
<ele>0</ele>
<time>2026-09-04T07:31:33Z</time>
</trkpt>
<trkpt lat="46.521410000" lon="-72.963480000">
<ele>0</ele>
<time>2026-09-04T07:31:34Z</time>
</trkpt>
<trkpt lat="46.521230000" lon="-72.963480000">
<ele>0</ele>
<time>2026-09-04T07:31:35Z</time>
</trkpt>
<trkpt lat="46.521060000" lon="-72.963430000">
<ele>0</ele>
<time>2026-09-04T07:31:36Z</time>
</trkpt>
<trkpt lat="46.520930000" lon="-72.963370000">
<ele>0</ele>
<time>2026-09-04T07:31:37Z</time>
</trkpt>
<trkpt lat="46.520700000" lon="-72.963190000">
<ele>0</ele>
<time>2026-09-04T07:31:38Z</time>
</trkpt>
<trkpt lat="46.520510000" lon="-72.962970000">
<ele>0</ele>
<time>2026-09-04T07:31:39Z</time>
</trkpt>
<trkpt lat="46.520430000" lon="-72.962830000">
<ele>0</ele>
<time>2026-09-04T07:31:40Z</time>
</trkpt>
<trkpt lat="46.520350000" lon="-72.962640000">
<ele>0</ele>
<time>2026-09-04T07:31:41Z</time>
</trkpt>
<trkpt lat="46.520210000" lon="-72.962300000">
<ele>0</ele>
<time>2026-09-04T07:31:42Z</time>
</trkpt>
<trkpt lat="46.520070000" lon="-72.961830000">
<ele>0</ele>
<time>2026-09-04T07:31:43Z</time>
</trkpt>
<trkpt lat="46.519940000" lon="-72.961350000">
<ele>0</ele>
<time>2026-09-04T07:31:44Z</time>
</trkpt>
<trkpt lat="46.519810000" lon="-72.960860000">
<ele>0</ele>
<time>2026-09-04T07:31:45Z</time>
</trkpt>
<trkpt lat="46.519460000" lon="-72.959660000">
<ele>0</ele>
<time>2026-09-04T07:31:46Z</time>
</trkpt>
<trkpt lat="46.519170000" lon="-72.958750000">
<ele>0</ele>
<time>2026-09-04T07:31:47Z</time>
</trkpt>
<trkpt lat="46.518890000" lon="-72.957950000">
<ele>0</ele>
<time>2026-09-04T07:31:48Z</time>
</trkpt>
<trkpt lat="46.518580000" lon="-72.957130000">
<ele>0</ele>
<time>2026-09-04T07:31:49Z</time>
</trkpt>
<trkpt lat="46.518350000" lon="-72.956680000">
<ele>0</ele>
<time>2026-09-04T07:31:50Z</time>
</trkpt>
<trkpt lat="46.518110000" lon="-72.956290000">
<ele>0</ele>
<time>2026-09-04T07:31:51Z</time>
</trkpt>
<trkpt lat="46.517980000" lon="-72.956110000">
<ele>0</ele>
<time>2026-09-04T07:31:52Z</time>
</trkpt>
<trkpt lat="46.517830000" lon="-72.955960000">
<ele>0</ele>
<time>2026-09-04T07:31:53Z</time>
</trkpt>
<trkpt lat="46.517660000" lon="-72.955850000">
<ele>0</ele>
<time>2026-09-04T07:31:54Z</time>
</trkpt>
<trkpt lat="46.517450000" lon="-72.955820000">
<ele>0</ele>
<time>2026-09-04T07:31:55Z</time>
</trkpt>
<trkpt lat="46.517310000" lon="-72.955850000">
<ele>0</ele>
<time>2026-09-04T07:31:56Z</time>
</trkpt>
<trkpt lat="46.516970000" lon="-72.955920000">
<ele>0</ele>
<time>2026-09-04T07:31:57Z</time>
</trkpt>
<trkpt lat="46.516870000" lon="-72.955920000">
<ele>0</ele>
<time>2026-09-04T07:31:58Z</time>
</trkpt>
<trkpt lat="46.516780000" lon="-72.955900000">
<ele>0</ele>
<time>2026-09-04T07:31:59Z</time>
</trkpt>
<trkpt lat="46.516630000" lon="-72.955800000">
<ele>0</ele>
<time>2026-09-04T07:32:00Z</time>
</trkpt>
<trkpt lat="46.516570000" lon="-72.955710000">
<ele>0</ele>
<time>2026-09-04T07:32:01Z</time>
</trkpt>
<trkpt lat="46.516380000" lon="-72.955400000">
<ele>0</ele>
<time>2026-09-04T07:32:02Z</time>
</trkpt>
<trkpt lat="46.516180000" lon="-72.954850000">
<ele>0</ele>
<time>2026-09-04T07:32:03Z</time>
</trkpt>
<trkpt lat="46.516040000" lon="-72.954470000">
<ele>0</ele>
<time>2026-09-04T07:32:04Z</time>
</trkpt>
<trkpt lat="46.515890000" lon="-72.954110000">
<ele>0</ele>
<time>2026-09-04T07:32:05Z</time>
</trkpt>
<trkpt lat="46.515830000" lon="-72.954010000">
<ele>0</ele>
<time>2026-09-04T07:32:06Z</time>
</trkpt>
<trkpt lat="46.515700000" lon="-72.953880000">
<ele>0</ele>
<time>2026-09-04T07:32:07Z</time>
</trkpt>
<trkpt lat="46.515610000" lon="-72.953810000">
<ele>0</ele>
<time>2026-09-04T07:32:08Z</time>
</trkpt>
<trkpt lat="46.515180000" lon="-72.953540000">
<ele>0</ele>
<time>2026-09-04T07:32:09Z</time>
</trkpt>
<trkpt lat="46.514870000" lon="-72.953320000">
<ele>0</ele>
<time>2026-09-04T07:32:10Z</time>
</trkpt>
<trkpt lat="46.514370000" lon="-72.952840000">
<ele>0</ele>
<time>2026-09-04T07:32:11Z</time>
</trkpt>
<trkpt lat="46.514030000" lon="-72.952500000">
<ele>0</ele>
<time>2026-09-04T07:32:12Z</time>
</trkpt>
<trkpt lat="46.513670000" lon="-72.952220000">
<ele>0</ele>
<time>2026-09-04T07:32:13Z</time>
</trkpt>
<trkpt lat="46.513300000" lon="-72.951960000">
<ele>0</ele>
<time>2026-09-04T07:32:14Z</time>
</trkpt>
<trkpt lat="46.512880000" lon="-72.951720000">
<ele>0</ele>
<time>2026-09-04T07:32:15Z</time>
</trkpt>
<trkpt lat="46.512670000" lon="-72.951660000">
<ele>0</ele>
<time>2026-09-04T07:32:16Z</time>
</trkpt>
<trkpt lat="46.512310000" lon="-72.951630000">
<ele>0</ele>
<time>2026-09-04T07:32:17Z</time>
</trkpt>
<trkpt lat="46.511480000" lon="-72.951610000">
<ele>0</ele>
<time>2026-09-04T07:32:18Z</time>
</trkpt>
<trkpt lat="46.510610000" lon="-72.951650000">
<ele>0</ele>
<time>2026-09-04T07:32:19Z</time>
</trkpt>
<trkpt lat="46.510430000" lon="-72.951690000">
<ele>0</ele>
<time>2026-09-04T07:32:20Z</time>
</trkpt>
<trkpt lat="46.510160000" lon="-72.951800000">
<ele>0</ele>
<time>2026-09-04T07:32:21Z</time>
</trkpt>
<trkpt lat="46.509780000" lon="-72.952070000">
<ele>0</ele>
<time>2026-09-04T07:32:22Z</time>
</trkpt>
<trkpt lat="46.509030000" lon="-72.952480000">
<ele>0</ele>
<time>2026-09-04T07:32:23Z</time>
</trkpt>
<trkpt lat="46.508760000" lon="-72.952620000">
<ele>0</ele>
<time>2026-09-04T07:32:24Z</time>
</trkpt>
<trkpt lat="46.508540000" lon="-72.952710000">
<ele>0</ele>
<time>2026-09-04T07:32:25Z</time>
</trkpt>
<trkpt lat="46.508230000" lon="-72.952780000">
<ele>0</ele>
<time>2026-09-04T07:32:26Z</time>
</trkpt>
<trkpt lat="46.507920000" lon="-72.952780000">
<ele>0</ele>
<time>2026-09-04T07:32:27Z</time>
</trkpt>
<trkpt lat="46.506530000" lon="-72.952610000">
<ele>0</ele>
<time>2026-09-04T07:32:28Z</time>
</trkpt>
<trkpt lat="46.505210000" lon="-72.952440000">
<ele>0</ele>
<time>2026-09-04T07:32:29Z</time>
</trkpt>
<trkpt lat="46.504820000" lon="-72.952370000">
<ele>0</ele>
<time>2026-09-04T07:32:30Z</time>
</trkpt>
<trkpt lat="46.504500000" lon="-72.952270000">
<ele>0</ele>
<time>2026-09-04T07:32:31Z</time>
</trkpt>
<trkpt lat="46.504170000" lon="-72.952080000">
<ele>0</ele>
<time>2026-09-04T07:32:32Z</time>
</trkpt>
<trkpt lat="46.504000000" lon="-72.951920000">
<ele>0</ele>
<time>2026-09-04T07:32:33Z</time>
</trkpt>
<trkpt lat="46.503770000" lon="-72.951630000">
<ele>0</ele>
<time>2026-09-04T07:32:34Z</time>
</trkpt>
<trkpt lat="46.503180000" lon="-72.950820000">
<ele>0</ele>
<time>2026-09-04T07:32:35Z</time>
</trkpt>
<trkpt lat="46.502520000" lon="-72.949880000">
<ele>0</ele>
<time>2026-09-04T07:32:36Z</time>
</trkpt>
<trkpt lat="46.502260000" lon="-72.949500000">
<ele>0</ele>
<time>2026-09-04T07:32:37Z</time>
</trkpt>
<trkpt lat="46.501900000" lon="-72.949030000">
<ele>0</ele>
<time>2026-09-04T07:32:38Z</time>
</trkpt>
<trkpt lat="46.501490000" lon="-72.948570000">
<ele>0</ele>
<time>2026-09-04T07:32:39Z</time>
</trkpt>
<trkpt lat="46.501440000" lon="-72.948660000">
<ele>0</ele>
<time>2026-09-04T07:32:40Z</time>
</trkpt>
<trkpt lat="46.501440000" lon="-72.948660000">
<ele>0</ele>
<time>2026-09-04T07:32:41Z</time>
</trkpt>
<trkpt lat="46.499940000" lon="-72.951060000">
<ele>0</ele>
<time>2026-09-04T07:32:42Z</time>
</trkpt>
<trkpt lat="46.497670000" lon="-72.954630000">
<ele>0</ele>
<time>2026-09-04T07:32:43Z</time>
</trkpt>
<trkpt lat="46.496800000" lon="-72.955990000">
<ele>0</ele>
<time>2026-09-04T07:32:44Z</time>
</trkpt>
<trkpt lat="46.495500000" lon="-72.958000000">
<ele>0</ele>
<time>2026-09-04T07:32:45Z</time>
</trkpt>
<trkpt lat="46.495150000" lon="-72.958460000">
<ele>0</ele>
<time>2026-09-04T07:32:46Z</time>
</trkpt>
<trkpt lat="46.495020000" lon="-72.958590000">
<ele>0</ele>
<time>2026-09-04T07:32:47Z</time>
</trkpt>
<trkpt lat="46.494820000" lon="-72.958840000">
<ele>0</ele>
<time>2026-09-04T07:32:48Z</time>
</trkpt>
<trkpt lat="46.494490000" lon="-72.959340000">
<ele>0</ele>
<time>2026-09-04T07:32:49Z</time>
</trkpt>
<trkpt lat="46.493740000" lon="-72.960490000">
<ele>0</ele>
<time>2026-09-04T07:32:50Z</time>
</trkpt>
<trkpt lat="46.492600000" lon="-72.962220000">
<ele>0</ele>
<time>2026-09-04T07:32:51Z</time>
</trkpt>
<trkpt lat="46.492580000" lon="-72.962140000">
<ele>0</ele>
<time>2026-09-04T07:32:52Z</time>
</trkpt>
<trkpt lat="46.492580000" lon="-72.962140000">
<ele>0</ele>
<time>2026-09-04T07:32:53Z</time>
</trkpt>
<trkpt lat="46.492350000" lon="-72.961340000">
<ele>0</ele>
<time>2026-09-04T07:32:54Z</time>
</trkpt>
<trkpt lat="46.492210000" lon="-72.960990000">
<ele>0</ele>
<time>2026-09-04T07:32:55Z</time>
</trkpt>
<trkpt lat="46.492080000" lon="-72.960750000">
<ele>0</ele>
<time>2026-09-04T07:32:56Z</time>
</trkpt>
<trkpt lat="46.491980000" lon="-72.960610000">
<ele>0</ele>
<time>2026-09-04T07:32:57Z</time>
</trkpt>
<trkpt lat="46.491860000" lon="-72.960490000">
<ele>0</ele>
<time>2026-09-04T07:32:58Z</time>
</trkpt>
<trkpt lat="46.491500000" lon="-72.960290000">
<ele>0</ele>
<time>2026-09-04T07:32:59Z</time>
</trkpt>
<trkpt lat="46.491110000" lon="-72.960080000">
<ele>0</ele>
<time>2026-09-04T07:33:00Z</time>
</trkpt>
<trkpt lat="46.490930000" lon="-72.959950000">
<ele>0</ele>
<time>2026-09-04T07:33:01Z</time>
</trkpt>
<trkpt lat="46.490720000" lon="-72.959700000">
<ele>0</ele>
<time>2026-09-04T07:33:02Z</time>
</trkpt>
<trkpt lat="46.489940000" lon="-72.958600000">
<ele>0</ele>
<time>2026-09-04T07:33:03Z</time>
</trkpt>
<trkpt lat="46.488510000" lon="-72.956700000">
<ele>0</ele>
<time>2026-09-04T07:33:04Z</time>
</trkpt>
<trkpt lat="46.488450000" lon="-72.956770000">
<ele>0</ele>
<time>2026-09-04T07:33:05Z</time>
</trkpt>
<trkpt lat="46.488450000" lon="-72.956770000">
<ele>0</ele>
<time>2026-09-04T07:33:06Z</time>
</trkpt>
<trkpt lat="46.486720000" lon="-72.959270000">
<ele>0</ele>
<time>2026-09-04T07:33:07Z</time>
</trkpt>
<trkpt lat="46.486720000" lon="-72.959270000">
<ele>0</ele>
<time>2026-09-04T07:33:08Z</time>
</trkpt>
<trkpt lat="46.486440000" lon="-72.959670000">
<ele>0</ele>
<time>2026-09-04T07:33:09Z</time>
</trkpt>
<trkpt lat="46.485960000" lon="-72.960210000">
<ele>0</ele>
<time>2026-09-04T07:33:10Z</time>
</trkpt>
<trkpt lat="46.485660000" lon="-72.960470000">
<ele>0</ele>
<time>2026-09-04T07:33:11Z</time>
</trkpt>
<trkpt lat="46.485500000" lon="-72.960600000">
<ele>0</ele>
<time>2026-09-04T07:33:12Z</time>
</trkpt>
<trkpt lat="46.485170000" lon="-72.960810000">
<ele>0</ele>
<time>2026-09-04T07:33:13Z</time>
</trkpt>
<trkpt lat="46.484690000" lon="-72.961070000">
<ele>0</ele>
<time>2026-09-04T07:33:14Z</time>
</trkpt>
<trkpt lat="46.484480000" lon="-72.961160000">
<ele>0</ele>
<time>2026-09-04T07:33:15Z</time>
</trkpt>
<trkpt lat="46.484300000" lon="-72.961240000">
<ele>0</ele>
<time>2026-09-04T07:33:16Z</time>
</trkpt>
<trkpt lat="46.483660000" lon="-72.961460000">
<ele>0</ele>
<time>2026-09-04T07:33:17Z</time>
</trkpt>
<trkpt lat="46.483090000" lon="-72.961720000">
<ele>0</ele>
<time>2026-09-04T07:33:18Z</time>
</trkpt>
<trkpt lat="46.482830000" lon="-72.961830000">
<ele>0</ele>
<time>2026-09-04T07:33:19Z</time>
</trkpt>
<trkpt lat="46.482460000" lon="-72.961900000">
<ele>0</ele>
<time>2026-09-04T07:33:20Z</time>
</trkpt>
<trkpt lat="46.482190000" lon="-72.961880000">
<ele>0</ele>
<time>2026-09-04T07:33:21Z</time>
</trkpt>
<trkpt lat="46.481850000" lon="-72.961920000">
<ele>0</ele>
<time>2026-09-04T07:33:22Z</time>
</trkpt>
<trkpt lat="46.481690000" lon="-72.961900000">
<ele>0</ele>
<time>2026-09-04T07:33:23Z</time>
</trkpt>
<trkpt lat="46.480850000" lon="-72.961560000">
<ele>0</ele>
<time>2026-09-04T07:33:24Z</time>
</trkpt>
<trkpt lat="46.480160000" lon="-72.961270000">
<ele>0</ele>
<time>2026-09-04T07:33:25Z</time>
</trkpt>
<trkpt lat="46.478770000" lon="-72.960710000">
<ele>0</ele>
<time>2026-09-04T07:33:26Z</time>
</trkpt>
<trkpt lat="46.477420000" lon="-72.960140000">
<ele>0</ele>
<time>2026-09-04T07:33:27Z</time>
</trkpt>
<trkpt lat="46.476860000" lon="-72.959940000">
<ele>0</ele>
<time>2026-09-04T07:33:28Z</time>
</trkpt>
<trkpt lat="46.476440000" lon="-72.959930000">
<ele>0</ele>
<time>2026-09-04T07:33:29Z</time>
</trkpt>
<trkpt lat="46.476190000" lon="-72.960030000">
<ele>0</ele>
<time>2026-09-04T07:33:30Z</time>
</trkpt>
<trkpt lat="46.475950000" lon="-72.960120000">
<ele>0</ele>
<time>2026-09-04T07:33:31Z</time>
</trkpt>
<trkpt lat="46.475490000" lon="-72.960470000">
<ele>0</ele>
<time>2026-09-04T07:33:32Z</time>
</trkpt>
<trkpt lat="46.474240000" lon="-72.962250000">
<ele>0</ele>
<time>2026-09-04T07:33:33Z</time>
</trkpt>
<trkpt lat="46.473740000" lon="-72.963000000">
<ele>0</ele>
<time>2026-09-04T07:33:34Z</time>
</trkpt>
<trkpt lat="46.472380000" lon="-72.965080000">
<ele>0</ele>
<time>2026-09-04T07:33:35Z</time>
</trkpt>
<trkpt lat="46.471780000" lon="-72.966060000">
<ele>0</ele>
<time>2026-09-04T07:33:36Z</time>
</trkpt>
<trkpt lat="46.471440000" lon="-72.966640000">
<ele>0</ele>
<time>2026-09-04T07:33:37Z</time>
</trkpt>
<trkpt lat="46.470450000" lon="-72.968480000">
<ele>0</ele>
<time>2026-09-04T07:33:38Z</time>
</trkpt>
<trkpt lat="46.469890000" lon="-72.969320000">
<ele>0</ele>
<time>2026-09-04T07:33:39Z</time>
</trkpt>
<trkpt lat="46.469260000" lon="-72.970260000">
<ele>0</ele>
<time>2026-09-04T07:33:40Z</time>
</trkpt>
<trkpt lat="46.468210000" lon="-72.971850000">
<ele>0</ele>
<time>2026-09-04T07:33:41Z</time>
</trkpt>
<trkpt lat="46.465330000" lon="-72.976000000">
<ele>0</ele>
<time>2026-09-04T07:33:42Z</time>
</trkpt>
<trkpt lat="46.464440000" lon="-72.977290000">
<ele>0</ele>
<time>2026-09-04T07:33:43Z</time>
</trkpt>
<trkpt lat="46.463840000" lon="-72.978160000">
<ele>0</ele>
<time>2026-09-04T07:33:44Z</time>
</trkpt>
<trkpt lat="46.463720000" lon="-72.977980000">
<ele>0</ele>
<time>2026-09-04T07:33:45Z</time>
</trkpt>
<trkpt lat="46.463720000" lon="-72.977980000">
<ele>0</ele>
<time>2026-09-04T07:33:46Z</time>
</trkpt>
<trkpt lat="46.462950000" lon="-72.976870000">
<ele>0</ele>
<time>2026-09-04T07:33:47Z</time>
</trkpt>
<trkpt lat="46.462700000" lon="-72.976490000">
<ele>0</ele>
<time>2026-09-04T07:33:48Z</time>
</trkpt>
<trkpt lat="46.462460000" lon="-72.976090000">
<ele>0</ele>
<time>2026-09-04T07:33:49Z</time>
</trkpt>
<trkpt lat="46.462070000" lon="-72.975220000">
<ele>0</ele>
<time>2026-09-04T07:33:50Z</time>
</trkpt>
<trkpt lat="46.461560000" lon="-72.974150000">
<ele>0</ele>
<time>2026-09-04T07:33:51Z</time>
</trkpt>
<trkpt lat="46.461290000" lon="-72.973590000">
<ele>0</ele>
<time>2026-09-04T07:33:52Z</time>
</trkpt>
<trkpt lat="46.461120000" lon="-72.973320000">
<ele>0</ele>
<time>2026-09-04T07:33:53Z</time>
</trkpt>
<trkpt lat="46.460770000" lon="-72.972730000">
<ele>0</ele>
<time>2026-09-04T07:33:54Z</time>
</trkpt>
<trkpt lat="46.460560000" lon="-72.972310000">
<ele>0</ele>
<time>2026-09-04T07:33:55Z</time>
</trkpt>
<trkpt lat="46.459920000" lon="-72.971020000">
<ele>0</ele>
<time>2026-09-04T07:33:56Z</time>
</trkpt>
<trkpt lat="46.459470000" lon="-72.970230000">
<ele>0</ele>
<time>2026-09-04T07:33:57Z</time>
</trkpt>
<trkpt lat="46.459200000" lon="-72.969960000">
<ele>0</ele>
<time>2026-09-04T07:33:58Z</time>
</trkpt>
<trkpt lat="46.459010000" lon="-72.969830000">
<ele>0</ele>
<time>2026-09-04T07:33:59Z</time>
</trkpt>
<trkpt lat="46.457870000" lon="-72.969050000">
<ele>0</ele>
<time>2026-09-04T07:34:00Z</time>
</trkpt>
<trkpt lat="46.457060000" lon="-72.968450000">
<ele>0</ele>
<time>2026-09-04T07:34:01Z</time>
</trkpt>
<trkpt lat="46.456620000" lon="-72.967990000">
<ele>0</ele>
<time>2026-09-04T07:34:02Z</time>
</trkpt>
<trkpt lat="46.455540000" lon="-72.966630000">
<ele>0</ele>
<time>2026-09-04T07:34:03Z</time>
</trkpt>
<trkpt lat="46.454350000" lon="-72.965040000">
<ele>0</ele>
<time>2026-09-04T07:34:04Z</time>
</trkpt>
<trkpt lat="46.453430000" lon="-72.963790000">
<ele>0</ele>
<time>2026-09-04T07:34:05Z</time>
</trkpt>
<trkpt lat="46.452800000" lon="-72.962870000">
<ele>0</ele>
<time>2026-09-04T07:34:06Z</time>
</trkpt>
<trkpt lat="46.451970000" lon="-72.961730000">
<ele>0</ele>
<time>2026-09-04T07:34:07Z</time>
</trkpt>
<trkpt lat="46.449870000" lon="-72.958920000">
<ele>0</ele>
<time>2026-09-04T07:34:08Z</time>
</trkpt>
<trkpt lat="46.447410000" lon="-72.955840000">
<ele>0</ele>
<time>2026-09-04T07:34:09Z</time>
</trkpt>
<trkpt lat="46.446070000" lon="-72.954110000">
<ele>0</ele>
<time>2026-09-04T07:34:10Z</time>
</trkpt>
<trkpt lat="46.441520000" lon="-72.948170000">
<ele>0</ele>
<time>2026-09-04T07:34:11Z</time>
</trkpt>
<trkpt lat="46.440150000" lon="-72.946380000">
<ele>0</ele>
<time>2026-09-04T07:34:12Z</time>
</trkpt>
<trkpt lat="46.438270000" lon="-72.943570000">
<ele>0</ele>
<time>2026-09-04T07:34:13Z</time>
</trkpt>
<trkpt lat="46.437930000" lon="-72.943050000">
<ele>0</ele>
<time>2026-09-04T07:34:14Z</time>
</trkpt>
<trkpt lat="46.437370000" lon="-72.942320000">
<ele>0</ele>
<time>2026-09-04T07:34:15Z</time>
</trkpt>
<trkpt lat="46.437330000" lon="-72.942360000">
<ele>0</ele>
<time>2026-09-04T07:34:16Z</time>
</trkpt>
<trkpt lat="46.437210000" lon="-72.942020000">
<ele>0</ele>
<time>2026-09-04T07:34:17Z</time>
</trkpt>
<trkpt lat="46.437010000" lon="-72.941600000">
<ele>0</ele>
<time>2026-09-04T07:34:18Z</time>
</trkpt>
<trkpt lat="46.436820000" lon="-72.941310000">
<ele>0</ele>
<time>2026-09-04T07:34:19Z</time>
</trkpt>
<trkpt lat="46.435760000" lon="-72.939900000">
<ele>0</ele>
<time>2026-09-04T07:34:20Z</time>
</trkpt>
<trkpt lat="46.435380000" lon="-72.939410000">
<ele>0</ele>
<time>2026-09-04T07:34:21Z</time>
</trkpt>
<trkpt lat="46.435020000" lon="-72.938890000">
<ele>0</ele>
<time>2026-09-04T07:34:22Z</time>
</trkpt>
<trkpt lat="46.434860000" lon="-72.938620000">
<ele>0</ele>
<time>2026-09-04T07:34:23Z</time>
</trkpt>
<trkpt lat="46.434750000" lon="-72.938560000">
<ele>0</ele>
<time>2026-09-04T07:34:24Z</time>
</trkpt>
<trkpt lat="46.434550000" lon="-72.938380000">
<ele>0</ele>
<time>2026-09-04T07:34:25Z</time>
</trkpt>
<trkpt lat="46.434550000" lon="-72.938380000">
<ele>0</ele>
<time>2026-09-04T07:34:26Z</time>
</trkpt>
<trkpt lat="46.434010000" lon="-72.937690000">
<ele>0</ele>
<time>2026-09-04T07:34:27Z</time>
</trkpt>
<trkpt lat="46.433590000" lon="-72.937170000">
<ele>0</ele>
<time>2026-09-04T07:34:28Z</time>
</trkpt>
<trkpt lat="46.433030000" lon="-72.936390000">
<ele>0</ele>
<time>2026-09-04T07:34:29Z</time>
</trkpt>
<trkpt lat="46.432380000" lon="-72.935480000">
<ele>0</ele>
<time>2026-09-04T07:34:30Z</time>
</trkpt>
<trkpt lat="46.431210000" lon="-72.933860000">
<ele>0</ele>
<time>2026-09-04T07:34:31Z</time>
</trkpt>
<trkpt lat="46.430300000" lon="-72.932600000">
<ele>0</ele>
<time>2026-09-04T07:34:32Z</time>
</trkpt>
<trkpt lat="46.429770000" lon="-72.931850000">
<ele>0</ele>
<time>2026-09-04T07:34:33Z</time>
</trkpt>
<trkpt lat="46.428900000" lon="-72.930570000">
<ele>0</ele>
<time>2026-09-04T07:34:34Z</time>
</trkpt>
<trkpt lat="46.428140000" lon="-72.929460000">
<ele>0</ele>
<time>2026-09-04T07:34:35Z</time>
</trkpt>
<trkpt lat="46.425880000" lon="-72.926100000">
<ele>0</ele>
<time>2026-09-04T07:34:36Z</time>
</trkpt>
<trkpt lat="46.425790000" lon="-72.926240000">
<ele>0</ele>
<time>2026-09-04T07:34:37Z</time>
</trkpt>
<trkpt lat="46.425790000" lon="-72.926240000">
<ele>0</ele>
<time>2026-09-04T07:34:38Z</time>
</trkpt>
<trkpt lat="46.422150000" lon="-72.931710000">
<ele>0</ele>
<time>2026-09-04T07:34:39Z</time>
</trkpt>
<trkpt lat="46.420890000" lon="-72.933580000">
<ele>0</ele>
<time>2026-09-04T07:34:40Z</time>
</trkpt>
<trkpt lat="46.420540000" lon="-72.934120000">
<ele>0</ele>
<time>2026-09-04T07:34:41Z</time>
</trkpt>
<trkpt lat="46.419980000" lon="-72.934870000">
<ele>0</ele>
<time>2026-09-04T07:34:42Z</time>
</trkpt>
<trkpt lat="46.419270000" lon="-72.935710000">
<ele>0</ele>
<time>2026-09-04T07:34:43Z</time>
</trkpt>
<trkpt lat="46.418720000" lon="-72.936200000">
<ele>0</ele>
<time>2026-09-04T07:34:44Z</time>
</trkpt>
<trkpt lat="46.418120000" lon="-72.936630000">
<ele>0</ele>
<time>2026-09-04T07:34:45Z</time>
</trkpt>
<trkpt lat="46.416180000" lon="-72.937680000">
<ele>0</ele>
<time>2026-09-04T07:34:46Z</time>
</trkpt>
<trkpt lat="46.415510000" lon="-72.938050000">
<ele>0</ele>
<time>2026-09-04T07:34:47Z</time>
</trkpt>
<trkpt lat="46.414350000" lon="-72.938780000">
<ele>0</ele>
<time>2026-09-04T07:34:48Z</time>
</trkpt>
<trkpt lat="46.413890000" lon="-72.939180000">
<ele>0</ele>
<time>2026-09-04T07:34:49Z</time>
</trkpt>
<trkpt lat="46.413740000" lon="-72.939330000">
<ele>0</ele>
<time>2026-09-04T07:34:50Z</time>
</trkpt>
<trkpt lat="46.413460000" lon="-72.939660000">
<ele>0</ele>
<time>2026-09-04T07:34:51Z</time>
</trkpt>
<trkpt lat="46.413170000" lon="-72.940000000">
<ele>0</ele>
<time>2026-09-04T07:34:52Z</time>
</trkpt>
<trkpt lat="46.412920000" lon="-72.940350000">
<ele>0</ele>
<time>2026-09-04T07:34:53Z</time>
</trkpt>
<trkpt lat="46.412410000" lon="-72.941070000">
<ele>0</ele>
<time>2026-09-04T07:34:54Z</time>
</trkpt>
<trkpt lat="46.411890000" lon="-72.941800000">
<ele>0</ele>
<time>2026-09-04T07:34:55Z</time>
</trkpt>
<trkpt lat="46.410600000" lon="-72.943620000">
<ele>0</ele>
<time>2026-09-04T07:34:56Z</time>
</trkpt>
<trkpt lat="46.409440000" lon="-72.945250000">
<ele>0</ele>
<time>2026-09-04T07:34:57Z</time>
</trkpt>
<trkpt lat="46.408550000" lon="-72.946500000">
<ele>0</ele>
<time>2026-09-04T07:34:58Z</time>
</trkpt>
<trkpt lat="46.408470000" lon="-72.946350000">
<ele>0</ele>
<time>2026-09-04T07:34:59Z</time>
</trkpt>
<trkpt lat="46.408470000" lon="-72.946350000">
<ele>0</ele>
<time>2026-09-04T07:35:00Z</time>
</trkpt>
<trkpt lat="46.408180000" lon="-72.945800000">
<ele>0</ele>
<time>2026-09-04T07:35:01Z</time>
</trkpt>
<trkpt lat="46.407930000" lon="-72.945500000">
<ele>0</ele>
<time>2026-09-04T07:35:02Z</time>
</trkpt>
<trkpt lat="46.407800000" lon="-72.945400000">
<ele>0</ele>
<time>2026-09-04T07:35:03Z</time>
</trkpt>
<trkpt lat="46.407310000" lon="-72.945040000">
<ele>0</ele>
<time>2026-09-04T07:35:04Z</time>
</trkpt>
<trkpt lat="46.407140000" lon="-72.944870000">
<ele>0</ele>
<time>2026-09-04T07:35:05Z</time>
</trkpt>
<trkpt lat="46.406600000" lon="-72.944030000">
<ele>0</ele>
<time>2026-09-04T07:35:06Z</time>
</trkpt>
<trkpt lat="46.406150000" lon="-72.943430000">
<ele>0</ele>
<time>2026-09-04T07:35:07Z</time>
</trkpt>
<trkpt lat="46.405490000" lon="-72.942540000">
<ele>0</ele>
<time>2026-09-04T07:35:08Z</time>
</trkpt>
<trkpt lat="46.403650000" lon="-72.940050000">
<ele>0</ele>
<time>2026-09-04T07:35:09Z</time>
</trkpt>
<trkpt lat="46.402970000" lon="-72.939190000">
<ele>0</ele>
<time>2026-09-04T07:35:10Z</time>
</trkpt>
<trkpt lat="46.402700000" lon="-72.938850000">
<ele>0</ele>
<time>2026-09-04T07:35:11Z</time>
</trkpt>
<trkpt lat="46.402440000" lon="-72.938490000">
<ele>0</ele>
<time>2026-09-04T07:35:12Z</time>
</trkpt>
<trkpt lat="46.402070000" lon="-72.937920000">
<ele>0</ele>
<time>2026-09-04T07:35:13Z</time>
</trkpt>
<trkpt lat="46.401480000" lon="-72.936950000">
<ele>0</ele>
<time>2026-09-04T07:35:14Z</time>
</trkpt>
<trkpt lat="46.401380000" lon="-72.936820000">
<ele>0</ele>
<time>2026-09-04T07:35:15Z</time>
</trkpt>
<trkpt lat="46.401180000" lon="-72.936650000">
<ele>0</ele>
<time>2026-09-04T07:35:16Z</time>
</trkpt>
<trkpt lat="46.400850000" lon="-72.936350000">
<ele>0</ele>
<time>2026-09-04T07:35:17Z</time>
</trkpt>
<trkpt lat="46.400510000" lon="-72.935800000">
<ele>0</ele>
<time>2026-09-04T07:35:18Z</time>
</trkpt>
<trkpt lat="46.400030000" lon="-72.935020000">
<ele>0</ele>
<time>2026-09-04T07:35:19Z</time>
</trkpt>
<trkpt lat="46.399790000" lon="-72.934640000">
<ele>0</ele>
<time>2026-09-04T07:35:20Z</time>
</trkpt>
<trkpt lat="46.399540000" lon="-72.934260000">
<ele>0</ele>
<time>2026-09-04T07:35:21Z</time>
</trkpt>
<trkpt lat="46.399010000" lon="-72.933550000">
<ele>0</ele>
<time>2026-09-04T07:35:22Z</time>
</trkpt>
<trkpt lat="46.398250000" lon="-72.932440000">
<ele>0</ele>
<time>2026-09-04T07:35:23Z</time>
</trkpt>
<trkpt lat="46.397400000" lon="-72.931210000">
<ele>0</ele>
<time>2026-09-04T07:35:24Z</time>
</trkpt>
<trkpt lat="46.397010000" lon="-72.930650000">
<ele>0</ele>
<time>2026-09-04T07:35:25Z</time>
</trkpt>
<trkpt lat="46.396900000" lon="-72.930820000">
<ele>0</ele>
<time>2026-09-04T07:35:26Z</time>
</trkpt>
<trkpt lat="46.396900000" lon="-72.930820000">
<ele>0</ele>
<time>2026-09-04T07:35:27Z</time>
</trkpt>
<trkpt lat="46.394730000" lon="-72.933980000">
<ele>0</ele>
<time>2026-09-04T07:35:28Z</time>
</trkpt>
<trkpt lat="46.392580000" lon="-72.937140000">
<ele>0</ele>
<time>2026-09-04T07:35:29Z</time>
</trkpt>
<trkpt lat="46.390790000" lon="-72.939700000">
<ele>0</ele>
<time>2026-09-04T07:35:30Z</time>
</trkpt>
<trkpt lat="46.389260000" lon="-72.941900000">
<ele>0</ele>
<time>2026-09-04T07:35:31Z</time>
</trkpt>
<trkpt lat="46.388090000" lon="-72.943570000">
<ele>0</ele>
<time>2026-09-04T07:35:32Z</time>
</trkpt>
<trkpt lat="46.387950000" lon="-72.943610000">
<ele>0</ele>
<time>2026-09-04T07:35:33Z</time>
</trkpt>
<trkpt lat="46.387900000" lon="-72.943600000">
<ele>0</ele>
<time>2026-09-04T07:35:34Z</time>
</trkpt>
<trkpt lat="46.387760000" lon="-72.943510000">
<ele>0</ele>
<time>2026-09-04T07:35:35Z</time>
</trkpt>
<trkpt lat="46.387650000" lon="-72.943350000">
<ele>0</ele>
<time>2026-09-04T07:35:36Z</time>
</trkpt>
<trkpt lat="46.387430000" lon="-72.942940000">
<ele>0</ele>
<time>2026-09-04T07:35:37Z</time>
</trkpt>
<trkpt lat="46.387120000" lon="-72.942300000">
<ele>0</ele>
<time>2026-09-04T07:35:38Z</time>
</trkpt>
<trkpt lat="46.386630000" lon="-72.941210000">
<ele>0</ele>
<time>2026-09-04T07:35:39Z</time>
</trkpt>
<trkpt lat="46.385820000" lon="-72.939480000">
<ele>0</ele>
<time>2026-09-04T07:35:40Z</time>
</trkpt>
<trkpt lat="46.385420000" lon="-72.938660000">
<ele>0</ele>
<time>2026-09-04T07:35:41Z</time>
</trkpt>
<trkpt lat="46.384990000" lon="-72.937980000">
<ele>0</ele>
<time>2026-09-04T07:35:42Z</time>
</trkpt>
<trkpt lat="46.384390000" lon="-72.937460000">
<ele>0</ele>
<time>2026-09-04T07:35:43Z</time>
</trkpt>
<trkpt lat="46.383430000" lon="-72.936860000">
<ele>0</ele>
<time>2026-09-04T07:35:44Z</time>
</trkpt>
<trkpt lat="46.382850000" lon="-72.936300000">
<ele>0</ele>
<time>2026-09-04T07:35:45Z</time>
</trkpt>
<trkpt lat="46.382210000" lon="-72.935350000">
<ele>0</ele>
<time>2026-09-04T07:35:46Z</time>
</trkpt>
<trkpt lat="46.382040000" lon="-72.934910000">
<ele>0</ele>
<time>2026-09-04T07:35:47Z</time>
</trkpt>
<trkpt lat="46.381400000" lon="-72.933260000">
<ele>0</ele>
<time>2026-09-04T07:35:48Z</time>
</trkpt>
<trkpt lat="46.380340000" lon="-72.930600000">
<ele>0</ele>
<time>2026-09-04T07:35:49Z</time>
</trkpt>
<trkpt lat="46.380120000" lon="-72.930050000">
<ele>0</ele>
<time>2026-09-04T07:35:50Z</time>
</trkpt>
<trkpt lat="46.379590000" lon="-72.928590000">
<ele>0</ele>
<time>2026-09-04T07:35:51Z</time>
</trkpt>
<trkpt lat="46.379220000" lon="-72.927250000">
<ele>0</ele>
<time>2026-09-04T07:35:52Z</time>
</trkpt>
<trkpt lat="46.379090000" lon="-72.926860000">
<ele>0</ele>
<time>2026-09-04T07:35:53Z</time>
</trkpt>
<trkpt lat="46.378840000" lon="-72.926290000">
<ele>0</ele>
<time>2026-09-04T07:35:54Z</time>
</trkpt>
<trkpt lat="46.378580000" lon="-72.925870000">
<ele>0</ele>
<time>2026-09-04T07:35:55Z</time>
</trkpt>
<trkpt lat="46.378080000" lon="-72.925250000">
<ele>0</ele>
<time>2026-09-04T07:35:56Z</time>
</trkpt>
<trkpt lat="46.377250000" lon="-72.924670000">
<ele>0</ele>
<time>2026-09-04T07:35:57Z</time>
</trkpt>
<trkpt lat="46.375430000" lon="-72.923560000">
<ele>0</ele>
<time>2026-09-04T07:35:58Z</time>
</trkpt>
<trkpt lat="46.375110000" lon="-72.923320000">
<ele>0</ele>
<time>2026-09-04T07:35:59Z</time>
</trkpt>
<trkpt lat="46.374800000" lon="-72.923150000">
<ele>0</ele>
<time>2026-09-04T07:36:00Z</time>
</trkpt>
<trkpt lat="46.374060000" lon="-72.923050000">
<ele>0</ele>
<time>2026-09-04T07:36:01Z</time>
</trkpt>
<trkpt lat="46.373340000" lon="-72.922940000">
<ele>0</ele>
<time>2026-09-04T07:36:02Z</time>
</trkpt>
<trkpt lat="46.372800000" lon="-72.922910000">
<ele>0</ele>
<time>2026-09-04T07:36:03Z</time>
</trkpt>
<trkpt lat="46.372540000" lon="-72.922890000">
<ele>0</ele>
<time>2026-09-04T07:36:04Z</time>
</trkpt>
<trkpt lat="46.371560000" lon="-72.922650000">
<ele>0</ele>
<time>2026-09-04T07:36:05Z</time>
</trkpt>
<trkpt lat="46.369360000" lon="-72.921710000">
<ele>0</ele>
<time>2026-09-04T07:36:06Z</time>
</trkpt>
<trkpt lat="46.368980000" lon="-72.921600000">
<ele>0</ele>
<time>2026-09-04T07:36:07Z</time>
</trkpt>
<trkpt lat="46.368640000" lon="-72.921560000">
<ele>0</ele>
<time>2026-09-04T07:36:08Z</time>
</trkpt>
<trkpt lat="46.368320000" lon="-72.921580000">
<ele>0</ele>
<time>2026-09-04T07:36:09Z</time>
</trkpt>
<trkpt lat="46.367560000" lon="-72.921910000">
<ele>0</ele>
<time>2026-09-04T07:36:10Z</time>
</trkpt>
<trkpt lat="46.365830000" lon="-72.922640000">
<ele>0</ele>
<time>2026-09-04T07:36:11Z</time>
</trkpt>
<trkpt lat="46.364940000" lon="-72.923010000">
<ele>0</ele>
<time>2026-09-04T07:36:12Z</time>
</trkpt>
<trkpt lat="46.364290000" lon="-72.923270000">
<ele>0</ele>
<time>2026-09-04T07:36:13Z</time>
</trkpt>
<trkpt lat="46.363980000" lon="-72.923280000">
<ele>0</ele>
<time>2026-09-04T07:36:14Z</time>
</trkpt>
<trkpt lat="46.363640000" lon="-72.923180000">
<ele>0</ele>
<time>2026-09-04T07:36:15Z</time>
</trkpt>
<trkpt lat="46.363330000" lon="-72.923020000">
<ele>0</ele>
<time>2026-09-04T07:36:16Z</time>
</trkpt>
<trkpt lat="46.362930000" lon="-72.922600000">
<ele>0</ele>
<time>2026-09-04T07:36:17Z</time>
</trkpt>
<trkpt lat="46.362050000" lon="-72.921430000">
<ele>0</ele>
<time>2026-09-04T07:36:18Z</time>
</trkpt>
<trkpt lat="46.361360000" lon="-72.920450000">
<ele>0</ele>
<time>2026-09-04T07:36:19Z</time>
</trkpt>
<trkpt lat="46.358490000" lon="-72.916390000">
<ele>0</ele>
<time>2026-09-04T07:36:20Z</time>
</trkpt>
<trkpt lat="46.357080000" lon="-72.914380000">
<ele>0</ele>
<time>2026-09-04T07:36:21Z</time>
</trkpt>
<trkpt lat="46.353480000" lon="-72.909200000">
<ele>0</ele>
<time>2026-09-04T07:36:22Z</time>
</trkpt>
<trkpt lat="46.350830000" lon="-72.905310000">
<ele>0</ele>
<time>2026-09-04T07:36:23Z</time>
</trkpt>
<trkpt lat="46.346360000" lon="-72.898850000">
<ele>0</ele>
<time>2026-09-04T07:36:24Z</time>
</trkpt>
<trkpt lat="46.344310000" lon="-72.895810000">
<ele>0</ele>
<time>2026-09-04T07:36:25Z</time>
</trkpt>
<trkpt lat="46.340720000" lon="-72.890820000">
<ele>0</ele>
<time>2026-09-04T07:36:26Z</time>
</trkpt>
<trkpt lat="46.336550000" lon="-72.885000000">
<ele>0</ele>
<time>2026-09-04T07:36:27Z</time>
</trkpt>
<trkpt lat="46.335130000" lon="-72.883090000">
<ele>0</ele>
<time>2026-09-04T07:36:28Z</time>
</trkpt>
<trkpt lat="46.335100000" lon="-72.883050000">
<ele>0</ele>
<time>2026-09-04T07:36:29Z</time>
</trkpt>
<trkpt lat="46.334970000" lon="-72.883030000">
<ele>0</ele>
<time>2026-09-04T07:36:30Z</time>
</trkpt>
<trkpt lat="46.334830000" lon="-72.883020000">
<ele>0</ele>
<time>2026-09-04T07:36:31Z</time>
</trkpt>
<trkpt lat="46.334780000" lon="-72.883040000">
<ele>0</ele>
<time>2026-09-04T07:36:32Z</time>
</trkpt>
<trkpt lat="46.334580000" lon="-72.883130000">
<ele>0</ele>
<time>2026-09-04T07:36:33Z</time>
</trkpt>
<trkpt lat="46.334430000" lon="-72.883310000">
<ele>0</ele>
<time>2026-09-04T07:36:34Z</time>
</trkpt>
<trkpt lat="46.334300000" lon="-72.883550000">
<ele>0</ele>
<time>2026-09-04T07:36:35Z</time>
</trkpt>
<trkpt lat="46.333830000" lon="-72.884900000">
<ele>0</ele>
<time>2026-09-04T07:36:36Z</time>
</trkpt>
<trkpt lat="46.333620000" lon="-72.885310000">
<ele>0</ele>
<time>2026-09-04T07:36:37Z</time>
</trkpt>
<trkpt lat="46.333460000" lon="-72.885470000">
<ele>0</ele>
<time>2026-09-04T07:36:38Z</time>
</trkpt>
<trkpt lat="46.333240000" lon="-72.885530000">
<ele>0</ele>
<time>2026-09-04T07:36:39Z</time>
</trkpt>
<trkpt lat="46.333030000" lon="-72.885500000">
<ele>0</ele>
<time>2026-09-04T07:36:40Z</time>
</trkpt>
<trkpt lat="46.332850000" lon="-72.885380000">
<ele>0</ele>
<time>2026-09-04T07:36:41Z</time>
</trkpt>
<trkpt lat="46.332420000" lon="-72.884810000">
<ele>0</ele>
<time>2026-09-04T07:36:42Z</time>
</trkpt>
<trkpt lat="46.331030000" lon="-72.882880000">
<ele>0</ele>
<time>2026-09-04T07:36:43Z</time>
</trkpt>
<trkpt lat="46.326230000" lon="-72.876220000">
<ele>0</ele>
<time>2026-09-04T07:36:44Z</time>
</trkpt>
<trkpt lat="46.320270000" lon="-72.867920000">
<ele>0</ele>
<time>2026-09-04T07:36:45Z</time>
</trkpt>
<trkpt lat="46.319310000" lon="-72.866600000">
<ele>0</ele>
<time>2026-09-04T07:36:46Z</time>
</trkpt>
<trkpt lat="46.318590000" lon="-72.865570000">
<ele>0</ele>
<time>2026-09-04T07:36:47Z</time>
</trkpt>
<trkpt lat="46.318140000" lon="-72.865070000">
<ele>0</ele>
<time>2026-09-04T07:36:48Z</time>
</trkpt>
<trkpt lat="46.317910000" lon="-72.864900000">
<ele>0</ele>
<time>2026-09-04T07:36:49Z</time>
</trkpt>
<trkpt lat="46.317650000" lon="-72.864750000">
<ele>0</ele>
<time>2026-09-04T07:36:50Z</time>
</trkpt>
<trkpt lat="46.317550000" lon="-72.864710000">
<ele>0</ele>
<time>2026-09-04T07:36:51Z</time>
</trkpt>
<trkpt lat="46.317330000" lon="-72.864650000">
<ele>0</ele>
<time>2026-09-04T07:36:52Z</time>
</trkpt>
<trkpt lat="46.316510000" lon="-72.864520000">
<ele>0</ele>
<time>2026-09-04T07:36:53Z</time>
</trkpt>
<trkpt lat="46.315440000" lon="-72.864370000">
<ele>0</ele>
<time>2026-09-04T07:36:54Z</time>
</trkpt>
<trkpt lat="46.314460000" lon="-72.864220000">
<ele>0</ele>
<time>2026-09-04T07:36:55Z</time>
</trkpt>
<trkpt lat="46.314160000" lon="-72.864160000">
<ele>0</ele>
<time>2026-09-04T07:36:56Z</time>
</trkpt>
<trkpt lat="46.313840000" lon="-72.864030000">
<ele>0</ele>
<time>2026-09-04T07:36:57Z</time>
</trkpt>
<trkpt lat="46.313510000" lon="-72.863820000">
<ele>0</ele>
<time>2026-09-04T07:36:58Z</time>
</trkpt>
<trkpt lat="46.313380000" lon="-72.863730000">
<ele>0</ele>
<time>2026-09-04T07:36:59Z</time>
</trkpt>
<trkpt lat="46.313070000" lon="-72.863400000">
<ele>0</ele>
<time>2026-09-04T07:37:00Z</time>
</trkpt>
<trkpt lat="46.312660000" lon="-72.862860000">
<ele>0</ele>
<time>2026-09-04T07:37:01Z</time>
</trkpt>
<trkpt lat="46.310280000" lon="-72.859690000">
<ele>0</ele>
<time>2026-09-04T07:37:02Z</time>
</trkpt>
<trkpt lat="46.308720000" lon="-72.857600000">
<ele>0</ele>
<time>2026-09-04T07:37:03Z</time>
</trkpt>
<trkpt lat="46.307900000" lon="-72.856520000">
<ele>0</ele>
<time>2026-09-04T07:37:04Z</time>
</trkpt>
<trkpt lat="46.307390000" lon="-72.855780000">
<ele>0</ele>
<time>2026-09-04T07:37:05Z</time>
</trkpt>
<trkpt lat="46.307310000" lon="-72.855670000">
<ele>0</ele>
<time>2026-09-04T07:37:06Z</time>
</trkpt>
<trkpt lat="46.307180000" lon="-72.855450000">
<ele>0</ele>
<time>2026-09-04T07:37:07Z</time>
</trkpt>
<trkpt lat="46.307060000" lon="-72.855190000">
<ele>0</ele>
<time>2026-09-04T07:37:08Z</time>
</trkpt>
<trkpt lat="46.306950000" lon="-72.854760000">
<ele>0</ele>
<time>2026-09-04T07:37:09Z</time>
</trkpt>
<trkpt lat="46.306880000" lon="-72.854320000">
<ele>0</ele>
<time>2026-09-04T07:37:10Z</time>
</trkpt>
<trkpt lat="46.306850000" lon="-72.853920000">
<ele>0</ele>
<time>2026-09-04T07:37:11Z</time>
</trkpt>
<trkpt lat="46.306820000" lon="-72.853650000">
<ele>0</ele>
<time>2026-09-04T07:37:12Z</time>
</trkpt>
<trkpt lat="46.306690000" lon="-72.853610000">
<ele>0</ele>
<time>2026-09-04T07:37:13Z</time>
</trkpt>
<trkpt lat="46.306690000" lon="-72.853610000">
<ele>0</ele>
<time>2026-09-04T07:37:14Z</time>
</trkpt>
<trkpt lat="46.306190000" lon="-72.853410000">
<ele>0</ele>
<time>2026-09-04T07:37:15Z</time>
</trkpt>
<trkpt lat="46.305920000" lon="-72.853270000">
<ele>0</ele>
<time>2026-09-04T07:37:16Z</time>
</trkpt>
<trkpt lat="46.305590000" lon="-72.853050000">
<ele>0</ele>
<time>2026-09-04T07:37:17Z</time>
</trkpt>
<trkpt lat="46.305270000" lon="-72.852800000">
<ele>0</ele>
<time>2026-09-04T07:37:18Z</time>
</trkpt>
<trkpt lat="46.304980000" lon="-72.852510000">
<ele>0</ele>
<time>2026-09-04T07:37:19Z</time>
</trkpt>
<trkpt lat="46.304730000" lon="-72.852240000">
<ele>0</ele>
<time>2026-09-04T07:37:20Z</time>
</trkpt>
<trkpt lat="46.303900000" lon="-72.851140000">
<ele>0</ele>
<time>2026-09-04T07:37:21Z</time>
</trkpt>
<trkpt lat="46.303150000" lon="-72.850140000">
<ele>0</ele>
<time>2026-09-04T07:37:22Z</time>
</trkpt>
<trkpt lat="46.302800000" lon="-72.849730000">
<ele>0</ele>
<time>2026-09-04T07:37:23Z</time>
</trkpt>
<trkpt lat="46.302580000" lon="-72.849530000">
<ele>0</ele>
<time>2026-09-04T07:37:24Z</time>
</trkpt>
<trkpt lat="46.302300000" lon="-72.849320000">
<ele>0</ele>
<time>2026-09-04T07:37:25Z</time>
</trkpt>
<trkpt lat="46.302080000" lon="-72.849190000">
<ele>0</ele>
<time>2026-09-04T07:37:26Z</time>
</trkpt>
<trkpt lat="46.301750000" lon="-72.849050000">
<ele>0</ele>
<time>2026-09-04T07:37:27Z</time>
</trkpt>
<trkpt lat="46.301140000" lon="-72.848900000">
<ele>0</ele>
<time>2026-09-04T07:37:28Z</time>
</trkpt>
<trkpt lat="46.300340000" lon="-72.848730000">
<ele>0</ele>
<time>2026-09-04T07:37:29Z</time>
</trkpt>
<trkpt lat="46.299960000" lon="-72.848570000">
<ele>0</ele>
<time>2026-09-04T07:37:30Z</time>
</trkpt>
<trkpt lat="46.299600000" lon="-72.848340000">
<ele>0</ele>
<time>2026-09-04T07:37:31Z</time>
</trkpt>
<trkpt lat="46.299470000" lon="-72.848240000">
<ele>0</ele>
<time>2026-09-04T07:37:32Z</time>
</trkpt>
<trkpt lat="46.298840000" lon="-72.847530000">
<ele>0</ele>
<time>2026-09-04T07:37:33Z</time>
</trkpt>
<trkpt lat="46.298300000" lon="-72.846820000">
<ele>0</ele>
<time>2026-09-04T07:37:34Z</time>
</trkpt>
<trkpt lat="46.297180000" lon="-72.845320000">
<ele>0</ele>
<time>2026-09-04T07:37:35Z</time>
</trkpt>
<trkpt lat="46.295340000" lon="-72.842830000">
<ele>0</ele>
<time>2026-09-04T07:37:36Z</time>
</trkpt>
<trkpt lat="46.292170000" lon="-72.838590000">
<ele>0</ele>
<time>2026-09-04T07:37:37Z</time>
</trkpt>
<trkpt lat="46.288530000" lon="-72.833680000">
<ele>0</ele>
<time>2026-09-04T07:37:38Z</time>
</trkpt>
<trkpt lat="46.286080000" lon="-72.830460000">
<ele>0</ele>
<time>2026-09-04T07:37:39Z</time>
</trkpt>
<trkpt lat="46.285480000" lon="-72.829630000">
<ele>0</ele>
<time>2026-09-04T07:37:40Z</time>
</trkpt>
<trkpt lat="46.284400000" lon="-72.828200000">
<ele>0</ele>
<time>2026-09-04T07:37:41Z</time>
</trkpt>
<trkpt lat="46.284040000" lon="-72.827710000">
<ele>0</ele>
<time>2026-09-04T07:37:42Z</time>
</trkpt>
<trkpt lat="46.283960000" lon="-72.827860000">
<ele>0</ele>
<time>2026-09-04T07:37:43Z</time>
</trkpt>
<trkpt lat="46.283960000" lon="-72.827860000">
<ele>0</ele>
<time>2026-09-04T07:37:44Z</time>
</trkpt>
<trkpt lat="46.283260000" lon="-72.829130000">
<ele>0</ele>
<time>2026-09-04T07:37:45Z</time>
</trkpt>
<trkpt lat="46.282830000" lon="-72.829970000">
<ele>0</ele>
<time>2026-09-04T07:37:46Z</time>
</trkpt>
<trkpt lat="46.282110000" lon="-72.831190000">
<ele>0</ele>
<time>2026-09-04T07:37:47Z</time>
</trkpt>
<trkpt lat="46.281920000" lon="-72.831550000">
<ele>0</ele>
<time>2026-09-04T07:37:48Z</time>
</trkpt>
<trkpt lat="46.281920000" lon="-72.831550000">
<ele>0</ele>
<time>2026-09-04T07:37:49Z</time>
</trkpt>
<trkpt lat="46.282220000" lon="-72.831000000">
<ele>0</ele>
<time>2026-09-04T07:37:50Z</time>
</trkpt>
<trkpt lat="46.282530000" lon="-72.830480000">
<ele>0</ele>
<time>2026-09-04T07:37:51Z</time>
</trkpt>
<trkpt lat="46.283080000" lon="-72.829490000">
<ele>0</ele>
<time>2026-09-04T07:37:52Z</time>
</trkpt>
<trkpt lat="46.283560000" lon="-72.828560000">
<ele>0</ele>
<time>2026-09-04T07:37:53Z</time>
</trkpt>
<trkpt lat="46.284380000" lon="-72.827130000">
<ele>0</ele>
<time>2026-09-04T07:37:54Z</time>
</trkpt>
<trkpt lat="46.285180000" lon="-72.825750000">
<ele>0</ele>
<time>2026-09-04T07:37:55Z</time>
</trkpt>
<trkpt lat="46.286470000" lon="-72.823440000">
<ele>0</ele>
<time>2026-09-04T07:37:56Z</time>
</trkpt>
<trkpt lat="46.287170000" lon="-72.822160000">
<ele>0</ele>
<time>2026-09-04T07:37:57Z</time>
</trkpt>
<trkpt lat="46.287400000" lon="-72.821610000">
<ele>0</ele>
<time>2026-09-04T07:37:58Z</time>
</trkpt>
<trkpt lat="46.287610000" lon="-72.821080000">
<ele>0</ele>
<time>2026-09-04T07:37:59Z</time>
</trkpt>
<trkpt lat="46.287770000" lon="-72.820560000">
<ele>0</ele>
<time>2026-09-04T07:38:00Z</time>
</trkpt>
<trkpt lat="46.287870000" lon="-72.820220000">
<ele>0</ele>
<time>2026-09-04T07:38:01Z</time>
</trkpt>
<trkpt lat="46.287990000" lon="-72.819760000">
<ele>0</ele>
<time>2026-09-04T07:38:02Z</time>
</trkpt>
<trkpt lat="46.288110000" lon="-72.818920000">
<ele>0</ele>
<time>2026-09-04T07:38:03Z</time>
</trkpt>
<trkpt lat="46.288400000" lon="-72.816690000">
<ele>0</ele>
<time>2026-09-04T07:38:04Z</time>
</trkpt>
<trkpt lat="46.289250000" lon="-72.810340000">
<ele>0</ele>
<time>2026-09-04T07:38:05Z</time>
</trkpt>
<trkpt lat="46.290330000" lon="-72.802360000">
<ele>0</ele>
<time>2026-09-04T07:38:06Z</time>
</trkpt>
<trkpt lat="46.290640000" lon="-72.799900000">
<ele>0</ele>
<time>2026-09-04T07:38:07Z</time>
</trkpt>
<trkpt lat="46.290770000" lon="-72.799880000">
<ele>0</ele>
<time>2026-09-04T07:38:08Z</time>
</trkpt>
<trkpt lat="46.290770000" lon="-72.799880000">
<ele>0</ele>
<time>2026-09-04T07:38:09Z</time>
</trkpt>
<trkpt lat="46.291280000" lon="-72.799800000">
<ele>0</ele>
<time>2026-09-04T07:38:10Z</time>
</trkpt>
<trkpt lat="46.291610000" lon="-72.799720000">
<ele>0</ele>
<time>2026-09-04T07:38:11Z</time>
</trkpt>
<trkpt lat="46.292010000" lon="-72.799560000">
<ele>0</ele>
<time>2026-09-04T07:38:12Z</time>
</trkpt>
<trkpt lat="46.292370000" lon="-72.799390000">
<ele>0</ele>
<time>2026-09-04T07:38:13Z</time>
</trkpt>
<trkpt lat="46.292690000" lon="-72.799330000">
<ele>0</ele>
<time>2026-09-04T07:38:14Z</time>
</trkpt>
<trkpt lat="46.292970000" lon="-72.799350000">
<ele>0</ele>
<time>2026-09-04T07:38:15Z</time>
</trkpt>
<trkpt lat="46.293200000" lon="-72.799420000">
<ele>0</ele>
<time>2026-09-04T07:38:16Z</time>
</trkpt>
<trkpt lat="46.294340000" lon="-72.799840000">
<ele>0</ele>
<time>2026-09-04T07:38:17Z</time>
</trkpt>
<trkpt lat="46.294710000" lon="-72.799930000">
<ele>0</ele>
<time>2026-09-04T07:38:18Z</time>
</trkpt>
<trkpt lat="46.296360000" lon="-72.800120000">
<ele>0</ele>
<time>2026-09-04T07:38:19Z</time>
</trkpt>
<trkpt lat="46.296970000" lon="-72.800200000">
<ele>0</ele>
<time>2026-09-04T07:38:20Z</time>
</trkpt>
<trkpt lat="46.297500000" lon="-72.800390000">
<ele>0</ele>
<time>2026-09-04T07:38:21Z</time>
</trkpt>
<trkpt lat="46.297920000" lon="-72.800540000">
<ele>0</ele>
<time>2026-09-04T07:38:22Z</time>
</trkpt>
<trkpt lat="46.298380000" lon="-72.800560000">
<ele>0</ele>
<time>2026-09-04T07:38:23Z</time>
</trkpt>
<trkpt lat="46.300710000" lon="-72.800210000">
<ele>0</ele>
<time>2026-09-04T07:38:24Z</time>
</trkpt>
<trkpt lat="46.301610000" lon="-72.800070000">
<ele>0</ele>
<time>2026-09-04T07:38:25Z</time>
</trkpt>
<trkpt lat="46.302500000" lon="-72.799930000">
<ele>0</ele>
<time>2026-09-04T07:38:26Z</time>
</trkpt>
<trkpt lat="46.302890000" lon="-72.799890000">
<ele>0</ele>
<time>2026-09-04T07:38:27Z</time>
</trkpt>
<trkpt lat="46.303940000" lon="-72.799910000">
<ele>0</ele>
<time>2026-09-04T07:38:28Z</time>
</trkpt>
<trkpt lat="46.304940000" lon="-72.800010000">
<ele>0</ele>
<time>2026-09-04T07:38:29Z</time>
</trkpt>
<trkpt lat="46.305200000" lon="-72.800040000">
<ele>0</ele>
<time>2026-09-04T07:38:30Z</time>
</trkpt>
<trkpt lat="46.306520000" lon="-72.800320000">
<ele>0</ele>
<time>2026-09-04T07:38:31Z</time>
</trkpt>
<trkpt lat="46.306850000" lon="-72.800350000">
<ele>0</ele>
<time>2026-09-04T07:38:32Z</time>
</trkpt>
<trkpt lat="46.307050000" lon="-72.800350000">
<ele>0</ele>
<time>2026-09-04T07:38:33Z</time>
</trkpt>
<trkpt lat="46.307590000" lon="-72.800260000">
<ele>0</ele>
<time>2026-09-04T07:38:34Z</time>
</trkpt>
<trkpt lat="46.308300000" lon="-72.800130000">
<ele>0</ele>
<time>2026-09-04T07:38:35Z</time>
</trkpt>
<trkpt lat="46.308570000" lon="-72.800110000">
<ele>0</ele>
<time>2026-09-04T07:38:36Z</time>
</trkpt>
<trkpt lat="46.308930000" lon="-72.800120000">
<ele>0</ele>
<time>2026-09-04T07:38:37Z</time>
</trkpt>
<trkpt lat="46.310080000" lon="-72.800220000">
<ele>0</ele>
<time>2026-09-04T07:38:38Z</time>
</trkpt>
<trkpt lat="46.311070000" lon="-72.800220000">
<ele>0</ele>
<time>2026-09-04T07:38:39Z</time>
</trkpt>
<trkpt lat="46.312000000" lon="-72.800120000">
<ele>0</ele>
<time>2026-09-04T07:38:40Z</time>
</trkpt>
<trkpt lat="46.312390000" lon="-72.800050000">
<ele>0</ele>
<time>2026-09-04T07:38:41Z</time>
</trkpt>
<trkpt lat="46.312700000" lon="-72.799930000">
<ele>0</ele>
<time>2026-09-04T07:38:42Z</time>
</trkpt>
<trkpt lat="46.313370000" lon="-72.799610000">
<ele>0</ele>
<time>2026-09-04T07:38:43Z</time>
</trkpt>
<trkpt lat="46.313610000" lon="-72.799520000">
<ele>0</ele>
<time>2026-09-04T07:38:44Z</time>
</trkpt>
<trkpt lat="46.313880000" lon="-72.799460000">
<ele>0</ele>
<time>2026-09-04T07:38:45Z</time>
</trkpt>
<trkpt lat="46.314570000" lon="-72.799390000">
<ele>0</ele>
<time>2026-09-04T07:38:46Z</time>
</trkpt>
<trkpt lat="46.314880000" lon="-72.799360000">
<ele>0</ele>
<time>2026-09-04T07:38:47Z</time>
</trkpt>
<trkpt lat="46.315260000" lon="-72.799270000">
<ele>0</ele>
<time>2026-09-04T07:38:48Z</time>
</trkpt>
<trkpt lat="46.315660000" lon="-72.799070000">
<ele>0</ele>
<time>2026-09-04T07:38:49Z</time>
</trkpt>
<trkpt lat="46.316480000" lon="-72.798460000">
<ele>0</ele>
<time>2026-09-04T07:38:50Z</time>
</trkpt>
<trkpt lat="46.316830000" lon="-72.798190000">
<ele>0</ele>
<time>2026-09-04T07:38:51Z</time>
</trkpt>
<trkpt lat="46.317620000" lon="-72.797530000">
<ele>0</ele>
<time>2026-09-04T07:38:52Z</time>
</trkpt>
<trkpt lat="46.317900000" lon="-72.797330000">
<ele>0</ele>
<time>2026-09-04T07:38:53Z</time>
</trkpt>
<trkpt lat="46.318090000" lon="-72.797190000">
<ele>0</ele>
<time>2026-09-04T07:38:54Z</time>
</trkpt>
<trkpt lat="46.318660000" lon="-72.796650000">
<ele>0</ele>
<time>2026-09-04T07:38:55Z</time>
</trkpt>
<trkpt lat="46.319680000" lon="-72.795750000">
<ele>0</ele>
<time>2026-09-04T07:38:56Z</time>
</trkpt>
<trkpt lat="46.320010000" lon="-72.795480000">
<ele>0</ele>
<time>2026-09-04T07:38:57Z</time>
</trkpt>
<trkpt lat="46.320250000" lon="-72.795310000">
<ele>0</ele>
<time>2026-09-04T07:38:58Z</time>
</trkpt>
<trkpt lat="46.321460000" lon="-72.794590000">
<ele>0</ele>
<time>2026-09-04T07:38:59Z</time>
</trkpt>
<trkpt lat="46.322020000" lon="-72.794250000">
<ele>0</ele>
<time>2026-09-04T07:39:00Z</time>
</trkpt>
<trkpt lat="46.322580000" lon="-72.793940000">
<ele>0</ele>
<time>2026-09-04T07:39:01Z</time>
</trkpt>
<trkpt lat="46.322760000" lon="-72.793870000">
<ele>0</ele>
<time>2026-09-04T07:39:02Z</time>
</trkpt>
<trkpt lat="46.323720000" lon="-72.793600000">
<ele>0</ele>
<time>2026-09-04T07:39:03Z</time>
</trkpt>
<trkpt lat="46.324490000" lon="-72.793410000">
<ele>0</ele>
<time>2026-09-04T07:39:04Z</time>
</trkpt>
<trkpt lat="46.325610000" lon="-72.793170000">
<ele>0</ele>
<time>2026-09-04T07:39:05Z</time>
</trkpt>
<trkpt lat="46.325800000" lon="-72.793150000">
<ele>0</ele>
<time>2026-09-04T07:39:06Z</time>
</trkpt>
<trkpt lat="46.326270000" lon="-72.793160000">
<ele>0</ele>
<time>2026-09-04T07:39:07Z</time>
</trkpt>
<trkpt lat="46.326530000" lon="-72.793210000">
<ele>0</ele>
<time>2026-09-04T07:39:08Z</time>
</trkpt>
<trkpt lat="46.326810000" lon="-72.793290000">
<ele>0</ele>
<time>2026-09-04T07:39:09Z</time>
</trkpt>
<trkpt lat="46.327620000" lon="-72.793650000">
<ele>0</ele>
<time>2026-09-04T07:39:10Z</time>
</trkpt>
<trkpt lat="46.327740000" lon="-72.793710000">
<ele>0</ele>
<time>2026-09-04T07:39:11Z</time>
</trkpt>
<trkpt lat="46.327740000" lon="-72.793710000">
<ele>0</ele>
<time>2026-09-04T07:39:12Z</time>
</trkpt>
<trkpt lat="46.329510000" lon="-72.794520000">
<ele>0</ele>
<time>2026-09-04T07:39:13Z</time>
</trkpt>
<trkpt lat="46.330010000" lon="-72.794630000">
<ele>0</ele>
<time>2026-09-04T07:39:14Z</time>
</trkpt>
<trkpt lat="46.330270000" lon="-72.794640000">
<ele>0</ele>
<time>2026-09-04T07:39:15Z</time>
</trkpt>
<trkpt lat="46.330610000" lon="-72.794660000">
<ele>0</ele>
<time>2026-09-04T07:39:16Z</time>
</trkpt>
<trkpt lat="46.331170000" lon="-72.794610000">
<ele>0</ele>
<time>2026-09-04T07:39:17Z</time>
</trkpt>
<trkpt lat="46.331560000" lon="-72.794500000">
<ele>0</ele>
<time>2026-09-04T07:39:18Z</time>
</trkpt>
<trkpt lat="46.332370000" lon="-72.794070000">
<ele>0</ele>
<time>2026-09-04T07:39:19Z</time>
</trkpt>
<trkpt lat="46.332780000" lon="-72.793900000">
<ele>0</ele>
<time>2026-09-04T07:39:20Z</time>
</trkpt>
<trkpt lat="46.332940000" lon="-72.793860000">
<ele>0</ele>
<time>2026-09-04T07:39:21Z</time>
</trkpt>
<trkpt lat="46.333430000" lon="-72.793840000">
<ele>0</ele>
<time>2026-09-04T07:39:22Z</time>
</trkpt>
<trkpt lat="46.333610000" lon="-72.793850000">
<ele>0</ele>
<time>2026-09-04T07:39:23Z</time>
</trkpt>
<trkpt lat="46.334010000" lon="-72.793940000">
<ele>0</ele>
<time>2026-09-04T07:39:24Z</time>
</trkpt>
<trkpt lat="46.336900000" lon="-72.795180000">
<ele>0</ele>
<time>2026-09-04T07:39:25Z</time>
</trkpt>
<trkpt lat="46.337930000" lon="-72.795620000">
<ele>0</ele>
<time>2026-09-04T07:39:26Z</time>
</trkpt>
<trkpt lat="46.338800000" lon="-72.795980000">
<ele>0</ele>
<time>2026-09-04T07:39:27Z</time>
</trkpt>
<trkpt lat="46.339410000" lon="-72.796220000">
<ele>0</ele>
<time>2026-09-04T07:39:28Z</time>
</trkpt>
<trkpt lat="46.339870000" lon="-72.796360000">
<ele>0</ele>
<time>2026-09-04T07:39:29Z</time>
</trkpt>
<trkpt lat="46.340380000" lon="-72.796410000">
<ele>0</ele>
<time>2026-09-04T07:39:30Z</time>
</trkpt>
<trkpt lat="46.341110000" lon="-72.796360000">
<ele>0</ele>
<time>2026-09-04T07:39:31Z</time>
</trkpt>
<trkpt lat="46.341800000" lon="-72.796120000">
<ele>0</ele>
<time>2026-09-04T07:39:32Z</time>
</trkpt>
<trkpt lat="46.342080000" lon="-72.796000000">
<ele>0</ele>
<time>2026-09-04T07:39:33Z</time>
</trkpt>
<trkpt lat="46.342390000" lon="-72.795800000">
<ele>0</ele>
<time>2026-09-04T07:39:34Z</time>
</trkpt>
<trkpt lat="46.343800000" lon="-72.794720000">
<ele>0</ele>
<time>2026-09-04T07:39:35Z</time>
</trkpt>
<trkpt lat="46.344260000" lon="-72.794320000">
<ele>0</ele>
<time>2026-09-04T07:39:36Z</time>
</trkpt>
<trkpt lat="46.344450000" lon="-72.794120000">
<ele>0</ele>
<time>2026-09-04T07:39:37Z</time>
</trkpt>
<trkpt lat="46.344710000" lon="-72.793770000">
<ele>0</ele>
<time>2026-09-04T07:39:38Z</time>
</trkpt>
<trkpt lat="46.344870000" lon="-72.793470000">
<ele>0</ele>
<time>2026-09-04T07:39:39Z</time>
</trkpt>
<trkpt lat="46.345100000" lon="-72.792920000">
<ele>0</ele>
<time>2026-09-04T07:39:40Z</time>
</trkpt>
<trkpt lat="46.345160000" lon="-72.792740000">
<ele>0</ele>
<time>2026-09-04T07:39:41Z</time>
</trkpt>
<trkpt lat="46.345420000" lon="-72.791550000">
<ele>0</ele>
<time>2026-09-04T07:39:42Z</time>
</trkpt>
<trkpt lat="46.345720000" lon="-72.790090000">
<ele>0</ele>
<time>2026-09-04T07:39:43Z</time>
</trkpt>
<trkpt lat="46.346100000" lon="-72.788480000">
<ele>0</ele>
<time>2026-09-04T07:39:44Z</time>
</trkpt>
<trkpt lat="46.346820000" lon="-72.785810000">
<ele>0</ele>
<time>2026-09-04T07:39:45Z</time>
</trkpt>
<trkpt lat="46.347660000" lon="-72.782640000">
<ele>0</ele>
<time>2026-09-04T07:39:46Z</time>
</trkpt>
<trkpt lat="46.347720000" lon="-72.782490000">
<ele>0</ele>
<time>2026-09-04T07:39:47Z</time>
</trkpt>
<trkpt lat="46.347820000" lon="-72.782280000">
<ele>0</ele>
<time>2026-09-04T07:39:48Z</time>
</trkpt>
<trkpt lat="46.348560000" lon="-72.781400000">
<ele>0</ele>
<time>2026-09-04T07:39:49Z</time>
</trkpt>
<trkpt lat="46.349410000" lon="-72.780440000">
<ele>0</ele>
<time>2026-09-04T07:39:50Z</time>
</trkpt>
<trkpt lat="46.349920000" lon="-72.779870000">
<ele>0</ele>
<time>2026-09-04T07:39:51Z</time>
</trkpt>
<trkpt lat="46.350710000" lon="-72.778910000">
<ele>0</ele>
<time>2026-09-04T07:39:52Z</time>
</trkpt>
<trkpt lat="46.351030000" lon="-72.778490000">
<ele>0</ele>
<time>2026-09-04T07:39:53Z</time>
</trkpt>
<trkpt lat="46.351150000" lon="-72.778310000">
<ele>0</ele>
<time>2026-09-04T07:39:54Z</time>
</trkpt>
<trkpt lat="46.351250000" lon="-72.778140000">
<ele>0</ele>
<time>2026-09-04T07:39:55Z</time>
</trkpt>
<trkpt lat="46.351600000" lon="-72.777390000">
<ele>0</ele>
<time>2026-09-04T07:39:56Z</time>
</trkpt>
<trkpt lat="46.351900000" lon="-72.776740000">
<ele>0</ele>
<time>2026-09-04T07:39:57Z</time>
</trkpt>
<trkpt lat="46.352110000" lon="-72.776370000">
<ele>0</ele>
<time>2026-09-04T07:39:58Z</time>
</trkpt>
<trkpt lat="46.353570000" lon="-72.774250000">
<ele>0</ele>
<time>2026-09-04T07:39:59Z</time>
</trkpt>
<trkpt lat="46.353670000" lon="-72.774150000">
<ele>0</ele>
<time>2026-09-04T07:40:00Z</time>
</trkpt>
<trkpt lat="46.353780000" lon="-72.774070000">
<ele>0</ele>
<time>2026-09-04T07:40:01Z</time>
</trkpt>
<trkpt lat="46.353910000" lon="-72.774100000">
<ele>0</ele>
<time>2026-09-04T07:40:02Z</time>
</trkpt>
<trkpt lat="46.353970000" lon="-72.774130000">
<ele>0</ele>
<time>2026-09-04T07:40:03Z</time>
</trkpt>
<trkpt lat="46.353980000" lon="-72.774140000">
<ele>0</ele>
<time>2026-09-04T07:40:04Z</time>
</trkpt>
<trkpt lat="46.353980000" lon="-72.774140000">
<ele>0</ele>
<time>2026-09-04T07:40:05Z</time>
</trkpt>
<trkpt lat="46.355560000" lon="-72.776000000">
<ele>0</ele>
<time>2026-09-04T07:40:06Z</time>
</trkpt>
<trkpt lat="46.358170000" lon="-72.779130000">
<ele>0</ele>
<time>2026-09-04T07:40:07Z</time>
</trkpt>
<trkpt lat="46.362160000" lon="-72.783890000">
<ele>0</ele>
<time>2026-09-04T07:40:08Z</time>
</trkpt>
<trkpt lat="46.364320000" lon="-72.786360000">
<ele>0</ele>
<time>2026-09-04T07:40:09Z</time>
</trkpt>
<trkpt lat="46.365690000" lon="-72.787920000">
<ele>0</ele>
<time>2026-09-04T07:40:10Z</time>
</trkpt>
<trkpt lat="46.367040000" lon="-72.789550000">
<ele>0</ele>
<time>2026-09-04T07:40:11Z</time>
</trkpt>
<trkpt lat="46.367040000" lon="-72.789550000">
<ele>0</ele>
<time>2026-09-04T07:40:12Z</time>
</trkpt>
<trkpt lat="46.369310000" lon="-72.792300000">
<ele>0</ele>
<time>2026-09-04T07:40:13Z</time>
</trkpt>
<trkpt lat="46.370400000" lon="-72.793500000">
<ele>0</ele>
<time>2026-09-04T07:40:14Z</time>
</trkpt>
<trkpt lat="46.371520000" lon="-72.794840000">
<ele>0</ele>
<time>2026-09-04T07:40:15Z</time>
</trkpt>
<trkpt lat="46.371620000" lon="-72.795060000">
<ele>0</ele>
<time>2026-09-04T07:40:16Z</time>
</trkpt>
<trkpt lat="46.371630000" lon="-72.795140000">
<ele>0</ele>
<time>2026-09-04T07:40:17Z</time>
</trkpt>
<trkpt lat="46.371630000" lon="-72.795240000">
<ele>0</ele>
<time>2026-09-04T07:40:18Z</time>
</trkpt>
<trkpt lat="46.370980000" lon="-72.800800000">
<ele>0</ele>
<time>2026-09-04T07:40:19Z</time>
</trkpt>
<trkpt lat="46.370830000" lon="-72.801820000">
<ele>0</ele>
<time>2026-09-04T07:40:20Z</time>
</trkpt>
<trkpt lat="46.370690000" lon="-72.802410000">
<ele>0</ele>
<time>2026-09-04T07:40:21Z</time>
</trkpt>
<trkpt lat="46.370500000" lon="-72.803010000">
<ele>0</ele>
<time>2026-09-04T07:40:22Z</time>
</trkpt>
<trkpt lat="46.369980000" lon="-72.804170000">
<ele>0</ele>
<time>2026-09-04T07:40:23Z</time>
</trkpt>
<trkpt lat="46.369260000" lon="-72.805900000">
<ele>0</ele>
<time>2026-09-04T07:40:24Z</time>
</trkpt>
<trkpt lat="46.368180000" lon="-72.808310000">
<ele>0</ele>
<time>2026-09-04T07:40:25Z</time>
</trkpt>
<trkpt lat="46.367820000" lon="-72.809210000">
<ele>0</ele>
<time>2026-09-04T07:40:26Z</time>
</trkpt>
<trkpt lat="46.367770000" lon="-72.809960000">
<ele>0</ele>
<time>2026-09-04T07:40:27Z</time>
</trkpt>
<trkpt lat="46.367780000" lon="-72.810370000">
<ele>0</ele>
<time>2026-09-04T07:40:28Z</time>
</trkpt>
<trkpt lat="46.367780000" lon="-72.810970000">
<ele>0</ele>
<time>2026-09-04T07:40:29Z</time>
</trkpt>
<trkpt lat="46.367750000" lon="-72.811300000">
<ele>0</ele>
<time>2026-09-04T07:40:30Z</time>
</trkpt>
<trkpt lat="46.367670000" lon="-72.811650000">
<ele>0</ele>
<time>2026-09-04T07:40:31Z</time>
</trkpt>
<trkpt lat="46.367580000" lon="-72.811880000">
<ele>0</ele>
<time>2026-09-04T07:40:32Z</time>
</trkpt>
<trkpt lat="46.367460000" lon="-72.812070000">
<ele>0</ele>
<time>2026-09-04T07:40:33Z</time>
</trkpt>
<trkpt lat="46.366950000" lon="-72.812780000">
<ele>0</ele>
<time>2026-09-04T07:40:34Z</time>
</trkpt>
<trkpt lat="46.366660000" lon="-72.813120000">
<ele>0</ele>
<time>2026-09-04T07:40:35Z</time>
</trkpt>
<trkpt lat="46.366240000" lon="-72.813610000">
<ele>0</ele>
<time>2026-09-04T07:40:36Z</time>
</trkpt>
<trkpt lat="46.365920000" lon="-72.813990000">
<ele>0</ele>
<time>2026-09-04T07:40:37Z</time>
</trkpt>
<trkpt lat="46.365790000" lon="-72.814240000">
<ele>0</ele>
<time>2026-09-04T07:40:38Z</time>
</trkpt>
<trkpt lat="46.365720000" lon="-72.814380000">
<ele>0</ele>
<time>2026-09-04T07:40:39Z</time>
</trkpt>
<trkpt lat="46.365680000" lon="-72.814470000">
<ele>0</ele>
<time>2026-09-04T07:40:40Z</time>
</trkpt>
<trkpt lat="46.365490000" lon="-72.814940000">
<ele>0</ele>
<time>2026-09-04T07:40:41Z</time>
</trkpt>
<trkpt lat="46.365330000" lon="-72.815220000">
<ele>0</ele>
<time>2026-09-04T07:40:42Z</time>
</trkpt>
<trkpt lat="46.364920000" lon="-72.815820000">
<ele>0</ele>
<time>2026-09-04T07:40:43Z</time>
</trkpt>
<trkpt lat="46.364170000" lon="-72.816940000">
<ele>0</ele>
<time>2026-09-04T07:40:44Z</time>
</trkpt>
<trkpt lat="46.363580000" lon="-72.817920000">
<ele>0</ele>
<time>2026-09-04T07:40:45Z</time>
</trkpt>
<trkpt lat="46.362870000" lon="-72.819070000">
<ele>0</ele>
<time>2026-09-04T07:40:46Z</time>
</trkpt>
<trkpt lat="46.362680000" lon="-72.819410000">
<ele>0</ele>
<time>2026-09-04T07:40:47Z</time>
</trkpt>
<trkpt lat="46.362480000" lon="-72.819910000">
<ele>0</ele>
<time>2026-09-04T07:40:48Z</time>
</trkpt>
<trkpt lat="46.362600000" lon="-72.819950000">
<ele>0</ele>
<time>2026-09-04T07:40:49Z</time>
</trkpt>
<trkpt lat="46.362600000" lon="-72.819950000">
<ele>0</ele>
<time>2026-09-04T07:40:50Z</time>
</trkpt>
<trkpt lat="46.363070000" lon="-72.820100000">
<ele>0</ele>
<time>2026-09-04T07:40:51Z</time>
</trkpt>
<trkpt lat="46.363440000" lon="-72.820320000">
<ele>0</ele>
<time>2026-09-04T07:40:52Z</time>
</trkpt>
<trkpt lat="46.363900000" lon="-72.820760000">
<ele>0</ele>
<time>2026-09-04T07:40:53Z</time>
</trkpt>
<trkpt lat="46.364080000" lon="-72.820950000">
<ele>0</ele>
<time>2026-09-04T07:40:54Z</time>
</trkpt>
<trkpt lat="46.364470000" lon="-72.821780000">
<ele>0</ele>
<time>2026-09-04T07:40:55Z</time>
</trkpt>
<trkpt lat="46.364770000" lon="-72.822550000">
<ele>0</ele>
<time>2026-09-04T07:40:56Z</time>
</trkpt>
<trkpt lat="46.365780000" lon="-72.824670000">
<ele>0</ele>
<time>2026-09-04T07:40:57Z</time>
</trkpt>
<trkpt lat="46.366050000" lon="-72.825080000">
<ele>0</ele>
<time>2026-09-04T07:40:58Z</time>
</trkpt>
<trkpt lat="46.367890000" lon="-72.827210000">
<ele>0</ele>
<time>2026-09-04T07:40:59Z</time>
</trkpt>
<trkpt lat="46.369040000" lon="-72.828630000">
<ele>0</ele>
<time>2026-09-04T07:41:00Z</time>
</trkpt>
<trkpt lat="46.369100000" lon="-72.828560000">
<ele>0</ele>
<time>2026-09-04T07:41:01Z</time>
</trkpt>
<trkpt lat="46.369100000" lon="-72.828560000">
<ele>0</ele>
<time>2026-09-04T07:41:02Z</time>
</trkpt>
<trkpt lat="46.369490000" lon="-72.828120000">
<ele>0</ele>
<time>2026-09-04T07:41:03Z</time>
</trkpt>
<trkpt lat="46.370180000" lon="-72.827760000">
<ele>0</ele>
<time>2026-09-04T07:41:04Z</time>
</trkpt>
<trkpt lat="46.372900000" lon="-72.826620000">
<ele>0</ele>
<time>2026-09-04T07:41:05Z</time>
</trkpt>
<trkpt lat="46.374690000" lon="-72.825870000">
<ele>0</ele>
<time>2026-09-04T07:41:06Z</time>
</trkpt>
<trkpt lat="46.375290000" lon="-72.825750000">
<ele>0</ele>
<time>2026-09-04T07:41:07Z</time>
</trkpt>
<trkpt lat="46.375990000" lon="-72.825750000">
<ele>0</ele>
<time>2026-09-04T07:41:08Z</time>
</trkpt>
<trkpt lat="46.377310000" lon="-72.825890000">
<ele>0</ele>
<time>2026-09-04T07:41:09Z</time>
</trkpt>
<trkpt lat="46.378570000" lon="-72.826030000">
<ele>0</ele>
<time>2026-09-04T07:41:10Z</time>
</trkpt>
<trkpt lat="46.379280000" lon="-72.826130000">
<ele>0</ele>
<time>2026-09-04T07:41:11Z</time>
</trkpt>
<trkpt lat="46.379820000" lon="-72.826220000">
<ele>0</ele>
<time>2026-09-04T07:41:12Z</time>
</trkpt>
<trkpt lat="46.379990000" lon="-72.826290000">
<ele>0</ele>
<time>2026-09-04T07:41:13Z</time>
</trkpt>
<trkpt lat="46.381890000" lon="-72.827120000">
<ele>0</ele>
<time>2026-09-04T07:41:14Z</time>
</trkpt>
<trkpt lat="46.383450000" lon="-72.827810000">
<ele>0</ele>
<time>2026-09-04T07:41:15Z</time>
</trkpt>
<trkpt lat="46.383700000" lon="-72.827910000">
<ele>0</ele>
<time>2026-09-04T07:41:16Z</time>
</trkpt>
<trkpt lat="46.384070000" lon="-72.827980000">
<ele>0</ele>
<time>2026-09-04T07:41:17Z</time>
</trkpt>
<trkpt lat="46.384520000" lon="-72.828040000">
<ele>0</ele>
<time>2026-09-04T07:41:18Z</time>
</trkpt>
<trkpt lat="46.385050000" lon="-72.828100000">
<ele>0</ele>
<time>2026-09-04T07:41:19Z</time>
</trkpt>
<trkpt lat="46.386310000" lon="-72.828190000">
<ele>0</ele>
<time>2026-09-04T07:41:20Z</time>
</trkpt>
<trkpt lat="46.387160000" lon="-72.828260000">
<ele>0</ele>
<time>2026-09-04T07:41:21Z</time>
</trkpt>
<trkpt lat="46.387410000" lon="-72.828380000">
<ele>0</ele>
<time>2026-09-04T07:41:22Z</time>
</trkpt>
<trkpt lat="46.387710000" lon="-72.828570000">
<ele>0</ele>
<time>2026-09-04T07:41:23Z</time>
</trkpt>
<trkpt lat="46.387860000" lon="-72.828700000">
<ele>0</ele>
<time>2026-09-04T07:41:24Z</time>
</trkpt>
<trkpt lat="46.388210000" lon="-72.829020000">
<ele>0</ele>
<time>2026-09-04T07:41:25Z</time>
</trkpt>
<trkpt lat="46.388500000" lon="-72.829530000">
<ele>0</ele>
<time>2026-09-04T07:41:26Z</time>
</trkpt>
<trkpt lat="46.388680000" lon="-72.829990000">
<ele>0</ele>
<time>2026-09-04T07:41:27Z</time>
</trkpt>
<trkpt lat="46.389100000" lon="-72.830880000">
<ele>0</ele>
<time>2026-09-04T07:41:28Z</time>
</trkpt>
<trkpt lat="46.389230000" lon="-72.831160000">
<ele>0</ele>
<time>2026-09-04T07:41:29Z</time>
</trkpt>
<trkpt lat="46.390360000" lon="-72.834040000">
<ele>0</ele>
<time>2026-09-04T07:41:30Z</time>
</trkpt>
<trkpt lat="46.391090000" lon="-72.835890000">
<ele>0</ele>
<time>2026-09-04T07:41:31Z</time>
</trkpt>
<trkpt lat="46.391360000" lon="-72.836810000">
<ele>0</ele>
<time>2026-09-04T07:41:32Z</time>
</trkpt>
<trkpt lat="46.391550000" lon="-72.837440000">
<ele>0</ele>
<time>2026-09-04T07:41:33Z</time>
</trkpt>
<trkpt lat="46.391690000" lon="-72.838020000">
<ele>0</ele>
<time>2026-09-04T07:41:34Z</time>
</trkpt>
<trkpt lat="46.392070000" lon="-72.839660000">
<ele>0</ele>
<time>2026-09-04T07:41:35Z</time>
</trkpt>
<trkpt lat="46.392110000" lon="-72.840050000">
<ele>0</ele>
<time>2026-09-04T07:41:36Z</time>
</trkpt>
<trkpt lat="46.392260000" lon="-72.840620000">
<ele>0</ele>
<time>2026-09-04T07:41:37Z</time>
</trkpt>
<trkpt lat="46.393560000" lon="-72.844780000">
<ele>0</ele>
<time>2026-09-04T07:41:38Z</time>
</trkpt>
<trkpt lat="46.393770000" lon="-72.845500000">
<ele>0</ele>
<time>2026-09-04T07:41:39Z</time>
</trkpt>
<trkpt lat="46.393930000" lon="-72.846250000">
<ele>0</ele>
<time>2026-09-04T07:41:40Z</time>
</trkpt>
<trkpt lat="46.393960000" lon="-72.846500000">
<ele>0</ele>
<time>2026-09-04T07:41:41Z</time>
</trkpt>
<trkpt lat="46.393960000" lon="-72.848850000">
<ele>0</ele>
<time>2026-09-04T07:41:42Z</time>
</trkpt>
<trkpt lat="46.393960000" lon="-72.849610000">
<ele>0</ele>
<time>2026-09-04T07:41:43Z</time>
</trkpt>
<trkpt lat="46.394010000" lon="-72.850450000">
<ele>0</ele>
<time>2026-09-04T07:41:44Z</time>
</trkpt>
<trkpt lat="46.394040000" lon="-72.850670000">
<ele>0</ele>
<time>2026-09-04T07:41:45Z</time>
</trkpt>
<trkpt lat="46.394110000" lon="-72.851180000">
<ele>0</ele>
<time>2026-09-04T07:41:46Z</time>
</trkpt>
<trkpt lat="46.394300000" lon="-72.852460000">
<ele>0</ele>
<time>2026-09-04T07:41:47Z</time>
</trkpt>
<trkpt lat="46.394970000" lon="-72.857010000">
<ele>0</ele>
<time>2026-09-04T07:41:48Z</time>
</trkpt>
<trkpt lat="46.395410000" lon="-72.858760000">
<ele>0</ele>
<time>2026-09-04T07:41:49Z</time>
</trkpt>
<trkpt lat="46.395850000" lon="-72.860430000">
<ele>0</ele>
<time>2026-09-04T07:41:50Z</time>
</trkpt>
<trkpt lat="46.396050000" lon="-72.860940000">
<ele>0</ele>
<time>2026-09-04T07:41:51Z</time>
</trkpt>
<trkpt lat="46.396320000" lon="-72.861320000">
<ele>0</ele>
<time>2026-09-04T07:41:52Z</time>
</trkpt>
<trkpt lat="46.396490000" lon="-72.861620000">
<ele>0</ele>
<time>2026-09-04T07:41:53Z</time>
</trkpt>
<trkpt lat="46.397140000" lon="-72.862500000">
<ele>0</ele>
<time>2026-09-04T07:41:54Z</time>
</trkpt>
<trkpt lat="46.398310000" lon="-72.864250000">
<ele>0</ele>
<time>2026-09-04T07:41:55Z</time>
</trkpt>
<trkpt lat="46.398690000" lon="-72.864810000">
<ele>0</ele>
<time>2026-09-04T07:41:56Z</time>
</trkpt>
<trkpt lat="46.398900000" lon="-72.865120000">
<ele>0</ele>
<time>2026-09-04T07:41:57Z</time>
</trkpt>
<trkpt lat="46.399350000" lon="-72.865700000">
<ele>0</ele>
<time>2026-09-04T07:41:58Z</time>
</trkpt>
<trkpt lat="46.399800000" lon="-72.866270000">
<ele>0</ele>
<time>2026-09-04T07:41:59Z</time>
</trkpt>
<trkpt lat="46.399850000" lon="-72.866190000">
<ele>0</ele>
<time>2026-09-04T07:42:00Z</time>
</trkpt>
<trkpt lat="46.399850000" lon="-72.866190000">
<ele>0</ele>
<time>2026-09-04T07:42:01Z</time>
</trkpt>
<trkpt lat="46.406670000" lon="-72.856240000">
<ele>0</ele>
<time>2026-09-04T07:42:02Z</time>
</trkpt>
<trkpt lat="46.408680000" lon="-72.853300000">
<ele>0</ele>
<time>2026-09-04T07:42:03Z</time>
</trkpt>
<trkpt lat="46.409380000" lon="-72.852430000">
<ele>0</ele>
<time>2026-09-04T07:42:04Z</time>
</trkpt>
<trkpt lat="46.409840000" lon="-72.851960000">
<ele>0</ele>
<time>2026-09-04T07:42:05Z</time>
</trkpt>
<trkpt lat="46.409980000" lon="-72.851860000">
<ele>0</ele>
<time>2026-09-04T07:42:06Z</time>
</trkpt>
<trkpt lat="46.410200000" lon="-72.851700000">
<ele>0</ele>
<time>2026-09-04T07:42:07Z</time>
</trkpt>
<trkpt lat="46.410520000" lon="-72.851560000">
<ele>0</ele>
<time>2026-09-04T07:42:08Z</time>
</trkpt>
<trkpt lat="46.411090000" lon="-72.851030000">
<ele>0</ele>
<time>2026-09-04T07:42:09Z</time>
</trkpt>
<trkpt lat="46.411500000" lon="-72.850610000">
<ele>0</ele>
<time>2026-09-04T07:42:10Z</time>
</trkpt>
<trkpt lat="46.412240000" lon="-72.848680000">
<ele>0</ele>
<time>2026-09-04T07:42:11Z</time>
</trkpt>
<trkpt lat="46.412960000" lon="-72.846870000">
<ele>0</ele>
<time>2026-09-04T07:42:12Z</time>
</trkpt>
<trkpt lat="46.413680000" lon="-72.845030000">
<ele>0</ele>
<time>2026-09-04T07:42:13Z</time>
</trkpt>
<trkpt lat="46.413840000" lon="-72.844700000">
<ele>0</ele>
<time>2026-09-04T07:42:14Z</time>
</trkpt>
<trkpt lat="46.414170000" lon="-72.844150000">
<ele>0</ele>
<time>2026-09-04T07:42:15Z</time>
</trkpt>
<trkpt lat="46.414640000" lon="-72.843570000">
<ele>0</ele>
<time>2026-09-04T07:42:16Z</time>
</trkpt>
<trkpt lat="46.415400000" lon="-72.842780000">
<ele>0</ele>
<time>2026-09-04T07:42:17Z</time>
</trkpt>
<trkpt lat="46.415720000" lon="-72.842310000">
<ele>0</ele>
<time>2026-09-04T07:42:18Z</time>
</trkpt>
<trkpt lat="46.415950000" lon="-72.841830000">
<ele>0</ele>
<time>2026-09-04T07:42:19Z</time>
</trkpt>
<trkpt lat="46.416220000" lon="-72.841050000">
<ele>0</ele>
<time>2026-09-04T07:42:20Z</time>
</trkpt>
<trkpt lat="46.416370000" lon="-72.840420000">
<ele>0</ele>
<time>2026-09-04T07:42:21Z</time>
</trkpt>
<trkpt lat="46.416410000" lon="-72.840040000">
<ele>0</ele>
<time>2026-09-04T07:42:22Z</time>
</trkpt>
<trkpt lat="46.416410000" lon="-72.839580000">
<ele>0</ele>
<time>2026-09-04T07:42:23Z</time>
</trkpt>
<trkpt lat="46.416360000" lon="-72.838810000">
<ele>0</ele>
<time>2026-09-04T07:42:24Z</time>
</trkpt>
<trkpt lat="46.416160000" lon="-72.836960000">
<ele>0</ele>
<time>2026-09-04T07:42:25Z</time>
</trkpt>
<trkpt lat="46.416020000" lon="-72.835710000">
<ele>0</ele>
<time>2026-09-04T07:42:26Z</time>
</trkpt>
<trkpt lat="46.416000000" lon="-72.835130000">
<ele>0</ele>
<time>2026-09-04T07:42:27Z</time>
</trkpt>
<trkpt lat="46.416010000" lon="-72.834800000">
<ele>0</ele>
<time>2026-09-04T07:42:28Z</time>
</trkpt>
<trkpt lat="46.416110000" lon="-72.834170000">
<ele>0</ele>
<time>2026-09-04T07:42:29Z</time>
</trkpt>
<trkpt lat="46.416330000" lon="-72.833530000">
<ele>0</ele>
<time>2026-09-04T07:42:30Z</time>
</trkpt>
<trkpt lat="46.416750000" lon="-72.832600000">
<ele>0</ele>
<time>2026-09-04T07:42:31Z</time>
</trkpt>
<trkpt lat="46.417210000" lon="-72.831490000">
<ele>0</ele>
<time>2026-09-04T07:42:32Z</time>
</trkpt>
<trkpt lat="46.417340000" lon="-72.831120000">
<ele>0</ele>
<time>2026-09-04T07:42:33Z</time>
</trkpt>
<trkpt lat="46.417590000" lon="-72.830300000">
<ele>0</ele>
<time>2026-09-04T07:42:34Z</time>
</trkpt>
<trkpt lat="46.418090000" lon="-72.828620000">
<ele>0</ele>
<time>2026-09-04T07:42:35Z</time>
</trkpt>
<trkpt lat="46.418330000" lon="-72.827960000">
<ele>0</ele>
<time>2026-09-04T07:42:36Z</time>
</trkpt>
<trkpt lat="46.418650000" lon="-72.827230000">
<ele>0</ele>
<time>2026-09-04T07:42:37Z</time>
</trkpt>
<trkpt lat="46.419160000" lon="-72.826210000">
<ele>0</ele>
<time>2026-09-04T07:42:38Z</time>
</trkpt>
<trkpt lat="46.419630000" lon="-72.825500000">
<ele>0</ele>
<time>2026-09-04T07:42:39Z</time>
</trkpt>
<trkpt lat="46.421000000" lon="-72.823570000">
<ele>0</ele>
<time>2026-09-04T07:42:40Z</time>
</trkpt>
<trkpt lat="46.421400000" lon="-72.823020000">
<ele>0</ele>
<time>2026-09-04T07:42:41Z</time>
</trkpt>
<trkpt lat="46.422140000" lon="-72.821880000">
<ele>0</ele>
<time>2026-09-04T07:42:42Z</time>
</trkpt>
<trkpt lat="46.422370000" lon="-72.821520000">
<ele>0</ele>
<time>2026-09-04T07:42:43Z</time>
</trkpt>
<trkpt lat="46.422670000" lon="-72.820970000">
<ele>0</ele>
<time>2026-09-04T07:42:44Z</time>
</trkpt>
<trkpt lat="46.423550000" lon="-72.819300000">
<ele>0</ele>
<time>2026-09-04T07:42:45Z</time>
</trkpt>
<trkpt lat="46.424650000" lon="-72.816860000">
<ele>0</ele>
<time>2026-09-04T07:42:46Z</time>
</trkpt>
<trkpt lat="46.426640000" lon="-72.812120000">
<ele>0</ele>
<time>2026-09-04T07:42:47Z</time>
</trkpt>
<trkpt lat="46.426950000" lon="-72.811500000">
<ele>0</ele>
<time>2026-09-04T07:42:48Z</time>
</trkpt>
<trkpt lat="46.427430000" lon="-72.810730000">
<ele>0</ele>
<time>2026-09-04T07:42:49Z</time>
</trkpt>
<trkpt lat="46.427970000" lon="-72.810080000">
<ele>0</ele>
<time>2026-09-04T07:42:50Z</time>
</trkpt>
<trkpt lat="46.428370000" lon="-72.809670000">
<ele>0</ele>
<time>2026-09-04T07:42:51Z</time>
</trkpt>
<trkpt lat="46.429040000" lon="-72.808890000">
<ele>0</ele>
<time>2026-09-04T07:42:52Z</time>
</trkpt>
<trkpt lat="46.429590000" lon="-72.808130000">
<ele>0</ele>
<time>2026-09-04T07:42:53Z</time>
</trkpt>
<trkpt lat="46.429810000" lon="-72.807730000">
<ele>0</ele>
<time>2026-09-04T07:42:54Z</time>
</trkpt>
<trkpt lat="46.430080000" lon="-72.807200000">
<ele>0</ele>
<time>2026-09-04T07:42:55Z</time>
</trkpt>
<trkpt lat="46.430270000" lon="-72.806770000">
<ele>0</ele>
<time>2026-09-04T07:42:56Z</time>
</trkpt>
<trkpt lat="46.430850000" lon="-72.805130000">
<ele>0</ele>
<time>2026-09-04T07:42:57Z</time>
</trkpt>
<trkpt lat="46.432270000" lon="-72.801210000">
<ele>0</ele>
<time>2026-09-04T07:42:58Z</time>
</trkpt>
<trkpt lat="46.432360000" lon="-72.800980000">
<ele>0</ele>
<time>2026-09-04T07:42:59Z</time>
</trkpt>
<trkpt lat="46.432610000" lon="-72.800420000">
<ele>0</ele>
<time>2026-09-04T07:43:00Z</time>
</trkpt>
<trkpt lat="46.432870000" lon="-72.799910000">
<ele>0</ele>
<time>2026-09-04T07:43:01Z</time>
</trkpt>
<trkpt lat="46.433090000" lon="-72.799490000">
<ele>0</ele>
<time>2026-09-04T07:43:02Z</time>
</trkpt>
<trkpt lat="46.433310000" lon="-72.799010000">
<ele>0</ele>
<time>2026-09-04T07:43:03Z</time>
</trkpt>
<trkpt lat="46.433540000" lon="-72.798340000">
<ele>0</ele>
<time>2026-09-04T07:43:04Z</time>
</trkpt>
<trkpt lat="46.433740000" lon="-72.797630000">
<ele>0</ele>
<time>2026-09-04T07:43:05Z</time>
</trkpt>
<trkpt lat="46.433810000" lon="-72.797200000">
<ele>0</ele>
<time>2026-09-04T07:43:06Z</time>
</trkpt>
<trkpt lat="46.433980000" lon="-72.795920000">
<ele>0</ele>
<time>2026-09-04T07:43:07Z</time>
</trkpt>
<trkpt lat="46.434230000" lon="-72.793730000">
<ele>0</ele>
<time>2026-09-04T07:43:08Z</time>
</trkpt>
<trkpt lat="46.434320000" lon="-72.793130000">
<ele>0</ele>
<time>2026-09-04T07:43:09Z</time>
</trkpt>
<trkpt lat="46.434570000" lon="-72.792100000">
<ele>0</ele>
<time>2026-09-04T07:43:10Z</time>
</trkpt>
<trkpt lat="46.435040000" lon="-72.790700000">
<ele>0</ele>
<time>2026-09-04T07:43:11Z</time>
</trkpt>
<trkpt lat="46.435350000" lon="-72.789600000">
<ele>0</ele>
<time>2026-09-04T07:43:12Z</time>
</trkpt>
<trkpt lat="46.435400000" lon="-72.789320000">
<ele>0</ele>
<time>2026-09-04T07:43:13Z</time>
</trkpt>
<trkpt lat="46.435420000" lon="-72.788910000">
<ele>0</ele>
<time>2026-09-04T07:43:14Z</time>
</trkpt>
<trkpt lat="46.435370000" lon="-72.787520000">
<ele>0</ele>
<time>2026-09-04T07:43:15Z</time>
</trkpt>
<trkpt lat="46.435400000" lon="-72.787150000">
<ele>0</ele>
<time>2026-09-04T07:43:16Z</time>
</trkpt>
<trkpt lat="46.435450000" lon="-72.786890000">
<ele>0</ele>
<time>2026-09-04T07:43:17Z</time>
</trkpt>
<trkpt lat="46.435560000" lon="-72.786550000">
<ele>0</ele>
<time>2026-09-04T07:43:18Z</time>
</trkpt>
<trkpt lat="46.435710000" lon="-72.786220000">
<ele>0</ele>
<time>2026-09-04T07:43:19Z</time>
</trkpt>
<trkpt lat="46.435840000" lon="-72.785960000">
<ele>0</ele>
<time>2026-09-04T07:43:20Z</time>
</trkpt>
<trkpt lat="46.436430000" lon="-72.785060000">
<ele>0</ele>
<time>2026-09-04T07:43:21Z</time>
</trkpt>
<trkpt lat="46.437180000" lon="-72.783920000">
<ele>0</ele>
<time>2026-09-04T07:43:22Z</time>
</trkpt>
<trkpt lat="46.438040000" lon="-72.782600000">
<ele>0</ele>
<time>2026-09-04T07:43:23Z</time>
</trkpt>
<trkpt lat="46.439930000" lon="-72.779730000">
<ele>0</ele>
<time>2026-09-04T07:43:24Z</time>
</trkpt>
<trkpt lat="46.441140000" lon="-72.777840000">
<ele>0</ele>
<time>2026-09-04T07:43:25Z</time>
</trkpt>
<trkpt lat="46.442040000" lon="-72.776550000">
<ele>0</ele>
<time>2026-09-04T07:43:26Z</time>
</trkpt>
<trkpt lat="46.442300000" lon="-72.776170000">
<ele>0</ele>
<time>2026-09-04T07:43:27Z</time>
</trkpt>
<trkpt lat="46.442260000" lon="-72.776120000">
<ele>0</ele>
<time>2026-09-04T07:43:28Z</time>
</trkpt>
<trkpt lat="46.442260000" lon="-72.776120000">
<ele>0</ele>
<time>2026-09-04T07:43:29Z</time>
</trkpt>
<trkpt lat="46.441190000" lon="-72.774530000">
<ele>0</ele>
<time>2026-09-04T07:43:30Z</time>
</trkpt>
<trkpt lat="46.440480000" lon="-72.773560000">
<ele>0</ele>
<time>2026-09-04T07:43:31Z</time>
</trkpt>
<trkpt lat="46.439760000" lon="-72.772620000">
<ele>0</ele>
<time>2026-09-04T07:43:32Z</time>
</trkpt>
<trkpt lat="46.439240000" lon="-72.772040000">
<ele>0</ele>
<time>2026-09-04T07:43:33Z</time>
</trkpt>
</trkseg>
</trk>
</gpx>
